Provisional Data: Choconut Creek near Vestal Center, NY


Please select a monitoring station.
Please select start date.
Please select start date.

Toggle Unit: C/F Toggle Unit: C/F
Sample Time Temperature (C) Temperature (F) Specific Conductivity (mS/cm) pH   Turbidity (NTU+) DO (mg/L)
10/20/2020 12:00:00 AM 11.48 52.664 0.148 7.13 2.59 9.51
10/20/2020 12:15:00 AM 11.48 52.664 0.147 7.12 2.66 9.51
10/20/2020 12:30:00 AM 11.49 52.682 0.145 7.13 2.66 9.49
10/20/2020 12:45:00 AM 11.5 52.7 0.145 7.13 2.68 9.46
10/20/2020 1:00:00 AM 11.52 52.736 0.145 7.12 2.61 9.43
10/20/2020 1:15:00 AM 11.53 52.754 0.147 7.13 2.65 9.42
10/20/2020 1:30:00 AM 11.55 52.79 0.147 7.12 2.55 9.33
10/20/2020 1:45:00 AM 11.55 52.79 0.155 7.11 2.71 9.17
10/20/2020 2:00:00 AM 11.56 52.808 0.152 7.11 2.72 9.21
10/20/2020 2:15:00 AM 11.56 52.808 0.149 7.11 2.61 9.22
10/20/2020 2:30:00 AM 11.57 52.826 0.146 7.1 2.71 9.27
10/20/2020 2:45:00 AM 11.58 52.844 0.146 7.09 2.61 9.25
10/20/2020 3:00:00 AM 11.59 52.862 0.145 7.11 2.65 9.25
10/20/2020 3:15:00 AM 11.6 52.88 0.145 7.11 2.57 9.23
10/20/2020 3:30:00 AM 11.6 52.88 0.146 7.1 2.64 9.17
10/20/2020 3:45:00 AM 11.61 52.898 0.145 7.1 2.57 9.21
10/20/2020 4:00:00 AM 11.62 52.916 0.147 7.09 2.61 9.18
10/20/2020 4:15:00 AM 11.64 52.952 0.145 7.09 2.8 9.15
10/20/2020 4:30:00 AM 11.64 52.952 0.147 7.1 2.84 9.04
10/20/2020 4:45:00 AM 11.65 52.97 0.146 7.09 2.72 9.03
10/20/2020 5:00:00 AM 11.66 52.988 0.145 7.09 3.18 9.13
10/20/2020 5:15:00 AM 11.66 52.988 0.146 7.09 2.69 9.11
10/20/2020 5:30:00 AM 11.66 52.988 0.145 7.09 2.78 9.11
10/20/2020 5:45:00 AM 11.66 52.988 0.146 7.07 2.7 9.06
10/20/2020 6:00:00 AM 11.67 53.006 0.146 7.09 2.75 9.05
10/20/2020 6:15:00 AM 11.67 53.006 0.146 7.08 2.65 9.01
10/20/2020 6:30:00 AM 11.66 52.988 0.145 7.09 2.74 9.06
10/20/2020 6:45:00 AM 11.67 53.006 0.145 7.08 2.65 9.07
10/20/2020 7:00:00 AM 11.68 53.024 0.145 7.06 2.79 9.05
10/20/2020 7:15:00 AM 11.69 53.042 0.145 7.09 2.63 9.07
10/20/2020 7:30:00 AM 11.71 53.078 0.146 7.1 2.89 9.03
10/20/2020 7:45:00 AM 11.72 53.096 0.146 7.08 3.59 9.04
10/20/2020 8:00:00 AM 11.72 53.096 0.146 7.08 4.78 9.06
10/20/2020 8:15:00 AM 11.73 53.114 0.146 7.08 4.98 9.06
10/20/2020 8:30:00 AM 11.73 53.114 0.147 7.08 4.04 9.08
10/20/2020 8:45:00 AM 11.74 53.132 0.146 7.08 3.62 9.11
10/20/2020 9:00:00 AM 11.76 53.168 0.147 7.09 3.18 9.14
10/20/2020 9:15:00 AM 11.77 53.186 0.147 7.09 3.19 9.21
10/20/2020 9:30:00 AM 11.78 53.204 0.147 7.1 3.84 9.25
10/20/2020 9:45:00 AM 11.8 53.24 0.147 7.07 3.69 9.3
10/20/2020 10:00:00 AM 11.83 53.294 0.146 7.11 3.44 9.44
10/20/2020 10:15:00 AM 11.87 53.366 0.146 7.13 3.81 9.57
10/20/2020 10:30:00 AM 11.91 53.438 0.146 7.14 3.66 9.7
10/20/2020 10:45:00 AM 11.97 53.546 0.145 7.15 3.36 9.85
10/20/2020 11:00:00 AM 12.01 53.618 0.145 7.17 2.95 10.03
10/20/2020 11:15:00 AM 12.06 53.708 0.144 7.18 3.11 10.1
10/20/2020 11:30:00 AM 12.15 53.87 0.144 7.2 2.74 10.23
10/20/2020 11:45:00 AM 12.18 53.924 0.143 7.2 2.73 10.34
10/20/2020 12:00:00 PM 12.21 53.978 0.143 7.22 2.57 10.37
10/20/2020 12:15:00 PM 12.24 54.032 0.142 7.21 2.68 10.41
10/20/2020 12:30:00 PM 12.26 54.068 0.142 7.23 2.65 10.42
10/20/2020 12:45:00 PM 12.26 54.068 0.142 7.23 2.59 10.39
10/20/2020 1:00:00 PM 12.27 54.086 0.141 7.23 2.58 10.38
10/20/2020 1:15:00 PM 12.28 54.104 0.141 7.21 2.58 10.42
10/20/2020 1:30:00 PM 12.3 54.14 0.14 7.25 2.67 10.44
10/20/2020 1:45:00 PM 12.31 54.158 0.14 7.25 2.68 10.48
10/20/2020 2:00:00 PM 12.33 54.194 0.14 7.24 2.62 10.51
10/20/2020 2:15:00 PM 12.34 54.212 0.14 7.24 2.62 10.48
10/20/2020 2:30:00 PM 12.38 54.284 0.139 7.25 2.8 10.54
10/20/2020 2:45:00 PM 12.44 54.392 0.139 7.27 3.06 10.66
10/20/2020 3:00:00 PM 12.45 54.41 0.139 7.28 2.9 10.64
10/20/2020 3:15:00 PM 12.46 54.428 0.138 7.27 2.85 10.6
10/20/2020 3:30:00 PM 12.49 54.482 0.138 7.28 2.83 10.6
10/20/2020 3:45:00 PM 12.51 54.518 0.138 7.28 2.87 10.65
10/20/2020 4:00:00 PM 12.5 54.5 0.137 7.29 2.78 10.6
10/20/2020 4:15:00 PM 12.5 54.5 0.137 7.28 2.75 10.55
10/20/2020 4:30:00 PM 12.5 54.5 0.137 7.27 2.78 10.5
10/20/2020 4:45:00 PM 12.49 54.482 0.137 7.27 2.79 10.42
10/20/2020 5:00:00 PM 12.49 54.482 0.136 7.26 2.84 10.37
10/20/2020 5:15:00 PM 12.48 54.464 0.136 7.26 2.87 10.35
10/20/2020 5:30:00 PM 12.48 54.464 0.136 7.26 2.88 10.32
10/20/2020 5:45:00 PM 12.48 54.464 0.136 7.26 2.88 10.29
10/20/2020 6:00:00 PM 12.47 54.446 0.136 7.25 2.82 10.25
10/20/2020 6:15:00 PM 12.46 54.428 0.136 7.24 3.17 10.2
10/20/2020 6:30:00 PM 12.44 54.392 0.135 7.23 2.85 10.15
10/20/2020 6:45:00 PM 12.42 54.356 0.135 7.24 3.08 10.1
10/20/2020 7:00:00 PM 12.39 54.302 0.135 7.23 3 10.06
10/20/2020 7:15:00 PM 12.37 54.266 0.135 7.22 2.96 10.01
10/20/2020 7:30:00 PM 12.35 54.23 0.135 7.2 3.43 9.97
10/20/2020 7:45:00 PM 12.33 54.194 0.135 7.21 3.36 9.93
10/20/2020 8:00:00 PM 12.3 54.14 0.135 7.21 3.54 9.9
10/20/2020 8:15:00 PM 12.27 54.086 0.135 7.21 3.49 9.87
10/20/2020 8:30:00 PM 12.26 54.068 0.135 7.16 3.5 9.84
10/20/2020 8:45:00 PM 12.23 54.014 0.135 7.19 4.43 9.81
10/20/2020 9:00:00 PM 12.21 53.978 0.135 7.18 3.57 9.77
10/20/2020 9:15:00 PM 12.19 53.942 0.135 7.19 4.51 9.74
10/20/2020 9:30:00 PM 12.17 53.906 0.135 7.16 4.45 9.71
10/20/2020 9:45:00 PM 12.15 53.87 0.135 7.18 3.74 9.68
10/20/2020 10:00:00 PM 12.13 53.834 0.135 7.17 3.95 9.66
10/20/2020 10:15:00 PM 12.11 53.798 0.135 7.16 4.34 9.64
10/20/2020 10:30:00 PM 12.09 53.762 0.134 7.15 4.14 9.62
10/20/2020 10:45:00 PM 12.08 53.744 0.135 7.14 4.65 9.6
10/20/2020 11:00:00 PM 12.06 53.708 0.134 7.16 4.39 9.58
10/20/2020 11:15:00 PM 12.05 53.69 0.135 7.15 3.63 9.56
10/20/2020 11:30:00 PM 12.03 53.654 0.135 7.15 3.45 9.56
10/20/2020 11:45:00 PM 12.02 53.636 0.135 7.11 4.13 9.54
10/21/2020 12:00:00 AM 12 53.6 0.134 7.15 4.14 9.53
10/21/2020 12:15:00 AM 11.99 53.582 0.134 7.15 4.13 9.51
10/21/2020 12:30:00 AM 11.98 53.564 0.134 7.15 3.98 9.51
10/21/2020 12:45:00 AM 11.97 53.546 0.135 7.13 3.42 9.5
10/21/2020 1:00:00 AM 11.96 53.528 0.135 7.14 3.44 9.48
10/21/2020 1:15:00 AM 11.95 53.51 0.136 7.12 3.79 9.47
10/21/2020 1:30:00 AM 11.94 53.492 0.136 7.13 3.6 9.45
10/21/2020 1:45:00 AM 11.94 53.492 0.136 7.13 3.54 9.45
10/21/2020 2:00:00 AM 11.93 53.474 0.136 7.12 3.63 9.45
10/21/2020 2:15:00 AM 11.93 53.474 0.135 7.12 3.34 9.44
10/21/2020 2:30:00 AM 11.92 53.456 0.135 7.09 3.39 9.44
10/21/2020 2:45:00 AM 11.92 53.456 0.135 7.13 3.58 9.43
10/21/2020 3:00:00 AM 11.91 53.438 0.136 7.13 3.22 9.43
10/21/2020 3:15:00 AM 11.92 53.456 0.136 7.13 3.31 9.41
10/21/2020 3:30:00 AM 11.91 53.438 0.137 7.12 3.53 9.4
10/21/2020 3:45:00 AM 11.91 53.438 0.137 7.13 3.17 9.41
10/21/2020 4:00:00 AM 11.91 53.438 0.137 7.1 3.29 9.4
10/21/2020 4:15:00 AM 11.91 53.438 0.137 7.1 3.3 9.39
10/21/2020 4:30:00 AM 11.91 53.438 0.137 7.12 3.32 9.4
10/21/2020 4:45:00 AM 11.91 53.438 0.137 7.11 3.3 9.39
10/21/2020 5:00:00 AM 11.91 53.438 0.137 7.12 3.75 9.39
10/21/2020 5:15:00 AM 11.92 53.456 0.136 7.1 3.12 9.39
10/21/2020 5:30:00 AM 11.92 53.456 0.136 7.12 2.98 9.39
10/21/2020 5:45:00 AM 11.9 53.42 0.136 7.11 3.01 9.38
10/21/2020 6:00:00 AM 11.89 53.402 0.137 7.11 3.1 9.4
10/21/2020 6:15:00 AM 11.92 53.456 0.135 7.12 2.82 9.4
10/21/2020 6:30:00 AM 11.97 53.546 0.136 7.09 2.89 9.39
10/21/2020 6:45:00 AM 12 53.6 0.135 7.12 2.89 9.38
10/21/2020 7:00:00 AM 12.04 53.672 0.136 7.12 2.74 9.37
10/21/2020 7:15:00 AM 12.07 53.726 0.136 7.12 2.89 9.36
10/21/2020 7:30:00 AM 12.1 53.78 0.136 7.07 2.76 9.35
10/21/2020 7:45:00 AM 12.12 53.816 0.136 7.12 2.7 9.38
10/21/2020 8:00:00 AM 12.15 53.87 0.136 7.13 2.85 9.45
10/21/2020 8:15:00 AM 12.2 53.96 0.138 7.13 2.7 9.59
10/21/2020 8:30:00 AM 12.28 54.104 0.136 7.15 2.67 9.76
10/21/2020 8:45:00 AM 12.37 54.266 0.138 7.16 2.52 9.92
10/21/2020 9:00:00 AM 12.48 54.464 0.135 7.2 2.71 10.05
10/21/2020 9:15:00 AM 12.6 54.68 0.136 7.21 2.65 10.18
10/21/2020 9:30:00 AM 12.75 54.95 0.138 7.24 2.65 10.31
10/21/2020 9:45:00 AM 12.9 55.22 0.138 7.23 2.7 10.4
10/21/2020 10:00:00 AM 12.96 55.328 0.137 7.27 2.72 10.47
10/21/2020 10:15:00 AM 13.06 55.508 0.136 7.28 3 10.52
10/21/2020 10:30:00 AM 13.11 55.598 0.136 7.24 2.48 10.56
10/21/2020 10:45:00 AM 13.15 55.67 0.137 7.28 2.71 10.59
10/21/2020 11:00:00 AM 13.24 55.832 0.137 7.29 2.62 10.59
10/21/2020 11:15:00 AM 13.34 56.012 0.137 7.28 2.65 10.61
10/21/2020 11:30:00 AM 13.44 56.192 0.137 7.32 2.7 10.64
10/21/2020 11:45:00 AM 13.59 56.462 0.138 7.32 2.54 10.69
10/21/2020 12:00:00 PM 13.82 56.876 0.137 7.31 2.58 10.72
10/21/2020 12:15:00 PM 13.99 57.182 0.137 7.35 2.73 10.75
10/21/2020 12:30:00 PM 14.17 57.506 0.138 7.34 3.13 10.78
10/21/2020 12:45:00 PM 14.37 57.866 0.137 7.37 2.64 10.82
10/21/2020 1:00:00 PM 14.59 58.262 0.14 7.35 2.86 10.88
10/21/2020 1:15:00 PM 14.79 58.622 0.139 7.4 2.79 10.92
10/21/2020 1:30:00 PM 14.99 58.982 0.138 7.39 3.46 10.99
10/21/2020 1:45:00 PM 15.14 59.252 0.138 7.43 2.66 11
10/21/2020 2:00:00 PM 15.35 59.63 0.138 7.45 2.75 11.05
10/21/2020 2:15:00 PM 15.47 59.846 0.137 7.45 2.76 11.04
10/21/2020 2:30:00 PM 15.64 60.152 0.137 7.46 2.74 11.07
10/21/2020 2:45:00 PM 15.8 60.44 0.137 7.48 2.65 11.11
10/21/2020 3:00:00 PM 15.92 60.656 0.138 7.5 2.63 11.14
10/21/2020 3:15:00 PM 15.99 60.782 0.138 7.48 2.75 11.08
10/21/2020 3:30:00 PM 16.09 60.962 0.138 7.5 2.82 11.06
10/21/2020 3:45:00 PM 16.15 61.07 0.138 7.51 2.65 11.07
10/21/2020 4:00:00 PM 16.17 61.106 0.138 7.5 2.71 11.05
10/21/2020 4:15:00 PM 16.18 61.124 0.138 7.5 2.76 11.02
10/21/2020 4:30:00 PM 16.17 61.106 0.138 7.5 2.65 10.94
10/21/2020 4:45:00 PM 16.16 61.088 0.138 7.45 2.53 10.85
10/21/2020 5:00:00 PM 16.15 61.07 0.137 7.47 2.58 10.77
10/21/2020 5:15:00 PM 16.14 61.052 0.138 7.45 2.57 10.68
10/21/2020 5:30:00 PM 16.13 61.034 0.138 7.41 2.58 10.52
10/21/2020 5:45:00 PM 16.12 61.016 0.138 7.41 2.52 10.39
10/21/2020 6:00:00 PM 16.11 60.998 0.138 7.4 2.47 10.27
10/21/2020 6:15:00 PM 16.09 60.962 0.138 7.37 2.52 10.12
10/21/2020 6:30:00 PM 16.08 60.944 0.138 7.34 2.62 9.97
10/21/2020 6:45:00 PM 16.07 60.926 0.138 7.33 2.61 9.84
10/21/2020 7:00:00 PM 16.06 60.908 0.138 7.31 2.92 9.71
10/21/2020 7:15:00 PM 16.05 60.89 0.138 7.27 2.99 9.63
10/21/2020 7:30:00 PM 16.02 60.836 0.139 7.28 3.11 9.55
10/21/2020 7:45:00 PM 15.99 60.782 0.139 7.26 3.5 9.51
10/21/2020 8:00:00 PM 15.96 60.728 0.139 7.26 2.98 9.45
10/21/2020 8:15:00 PM 15.91 60.638 0.139 7.25 2.92 9.42
10/21/2020 8:30:00 PM 15.86 60.548 0.139 7.23 3.08 9.36
10/21/2020 8:45:00 PM 15.81 60.458 0.139 7.23 2.78 9.32
10/21/2020 9:00:00 PM 15.76 60.368 0.138 7.17 2.87 9.26
10/21/2020 9:15:00 PM 15.69 60.242 0.139 7.21 2.8 9.25
10/21/2020 9:30:00 PM 15.63 60.134 0.139 7.2 2.79 9.2
10/21/2020 9:45:00 PM 15.57 60.026 0.139 7.2 2.82 9.16
10/21/2020 10:00:00 PM 15.51 59.918 0.139 7.19 3.12 9.11
10/21/2020 10:15:00 PM 15.45 59.81 0.138 7.18 2.75 9.07
10/21/2020 10:30:00 PM 15.39 59.702 0.138 7.17 2.58 9.03
10/21/2020 10:45:00 PM 15.34 59.612 0.138 7.16 2.75 8.98
10/21/2020 11:00:00 PM 15.28 59.504 0.138 7.15 2.82 8.93
10/21/2020 11:15:00 PM 15.25 59.45 0.138 7.15 3.04 8.91
10/21/2020 11:30:00 PM 15.2 59.36 0.138 7.14 3.26 8.87
10/21/2020 11:45:00 PM 15.16 59.288 0.138 7.15 3.42 8.83
10/22/2020 12:00:00 AM 15.12 59.216 0.138 7.14 2.99 8.8
10/22/2020 12:15:00 AM 15.08 59.144 0.138 7.14 3.05 8.78
10/22/2020 12:30:00 AM 15.04 59.072 0.138 7.14 3.01 8.76
10/22/2020 12:45:00 AM 15 59 0.138 7.13 3.21 8.73
10/22/2020 1:00:00 AM 14.97 58.946 0.137 7.13 3.02 8.71
10/22/2020 1:15:00 AM 14.95 58.91 0.137 7.12 2.96 8.69
10/22/2020 1:30:00 AM 14.92 58.856 0.137 7.11 3.23 8.66
10/22/2020 1:45:00 AM 14.9 58.82 0.137 7.09 3.27 8.66
10/22/2020 2:00:00 AM 14.89 58.802 0.137 7.1 3.34 8.61
10/22/2020 2:15:00 AM 14.87 58.766 0.137 7.1 3.55 8.6
10/22/2020 2:30:00 AM 14.87 58.766 0.137 7.11 3.22 8.58
10/22/2020 2:45:00 AM 14.86 58.748 0.136 7.1 3.11 8.57
10/22/2020 3:00:00 AM 14.85 58.73 0.137 7.09 3.53 8.55
10/22/2020 3:15:00 AM 14.85 58.73 0.136 7.1 3.37 8.53
10/22/2020 3:30:00 AM 14.85 58.73 0.136 7.1 3.13 8.5
10/22/2020 3:45:00 AM 14.85 58.73 0.137 7.09 3.54 8.51
10/22/2020 4:00:00 AM 14.84 58.712 0.137 7.06 3.05 8.49
10/22/2020 4:15:00 AM 14.84 58.712 0.136 7.08 3.31 8.49
10/22/2020 4:30:00 AM 14.84 58.712 0.135 7.09 2.96 8.49
10/22/2020 4:45:00 AM 14.84 58.712 0.135 7.09 2.82 8.48
10/22/2020 5:00:00 AM 14.84 58.712 0.136 7.07 2.97 8.46
10/22/2020 5:15:00 AM 14.84 58.712 0.135 7.09 3.12 8.44
10/22/2020 5:30:00 AM 14.82 58.676 0.135 7.08 3.73 8.44
10/22/2020 5:45:00 AM 14.82 58.676 0.135 7.06 3.29 8.44
10/22/2020 6:00:00 AM 14.82 58.676 0.135 7.08 3.02 8.42
10/22/2020 6:15:00 AM 14.82 58.676 0.135 7.08 3.54 8.42
10/22/2020 6:30:00 AM 14.82 58.676 0.136 7.06 3.18 8.42
10/22/2020 6:45:00 AM 14.82 58.676 0.135 7.08 3.04 8.43
10/22/2020 7:00:00 AM 14.81 58.658 0.135 7.07 3.06 8.43
10/22/2020 7:15:00 AM 14.81 58.658 0.135 7.07 3.01 8.42
10/22/2020 7:30:00 AM 14.79 58.622 0.135 7.07 2.86 8.43
10/22/2020 7:45:00 AM 14.78 58.604 0.135 7.07 3.13 8.44
10/22/2020 8:00:00 AM 14.76 58.568 0.135 7.08 2.78 8.49
10/22/2020 8:15:00 AM 14.78 58.604 0.136 7.08 2.86 8.58
10/22/2020 8:30:00 AM 14.81 58.658 0.135 7.09 2.89 8.71
10/22/2020 8:45:00 AM 14.83 58.694 0.135 7.11 2.85 8.78
10/22/2020 9:00:00 AM 14.86 58.748 0.135 7.12 2.87 8.85
10/22/2020 9:15:00 AM 14.89 58.802 0.135 7.11 2.75 8.98
10/22/2020 9:30:00 AM 14.93 58.874 0.135 7.14 2.77 9.13
10/22/2020 9:45:00 AM 14.98 58.964 0.135 7.15 2.84 9.22
10/22/2020 10:00:00 AM 15.05 59.09 0.135 7.17 2.74 9.35
10/22/2020 10:15:00 AM 15.13 59.234 0.135 7.19 2.75 9.5
10/22/2020 10:30:00 AM 15.21 59.378 0.135 7.2 2.75 9.61
10/22/2020 10:45:00 AM 15.28 59.504 0.135 7.22 2.59 9.71
10/22/2020 11:00:00 AM 15.38 59.684 0.135 7.23 2.77 9.81
10/22/2020 11:15:00 AM 15.47 59.846 0.136 7.26 2.68 9.91
10/22/2020 11:30:00 AM 15.55 59.99 0.136 7.27 2.79 9.99
10/22/2020 11:45:00 AM 15.7 60.26 0.136 7.28 2.64 10.07
10/22/2020 12:00:00 PM 15.86 60.548 0.135 7.3 2.76 10.16
10/22/2020 12:15:00 PM 16.01 60.818 0.135 7.31 2.79 10.25
10/22/2020 12:30:00 PM 16.12 61.016 0.135 7.33 2.49 10.27
10/22/2020 12:45:00 PM 16.27 61.286 0.135 7.34 2.5 10.33
10/22/2020 1:00:00 PM 16.41 61.538 0.135 7.35 2.58 10.4
10/22/2020 1:15:00 PM 16.5 61.7 0.135 7.36 2.5 10.44
10/22/2020 1:30:00 PM 16.62 61.916 0.135 7.35 2.87 10.49
10/22/2020 1:45:00 PM 16.7 62.06 0.134 7.38 2.55 10.48
10/22/2020 2:00:00 PM 16.77 62.186 0.135 7.4 2.36 10.49
10/22/2020 2:15:00 PM 16.8 62.24 0.135 7.39 2.35 10.47
10/22/2020 2:30:00 PM 16.83 62.294 0.135 7.37 2.42 10.45
10/22/2020 2:45:00 PM 16.85 62.33 0.135 7.39 2.39 10.44
10/22/2020 3:00:00 PM 16.91 62.438 0.135 7.4 2.65 10.46
10/22/2020 3:15:00 PM 16.99 62.582 0.134 7.41 2.36 10.5
10/22/2020 3:30:00 PM 17.1 62.78 0.135 7.4 2.53 10.51
10/22/2020 3:45:00 PM 17.15 62.87 0.134 7.42 2.47 10.53
10/22/2020 4:00:00 PM 17.2 62.96 0.134 7.41 2.5 10.5
10/22/2020 4:15:00 PM 17.24 63.032 0.134 7.4 2.44 10.46
10/22/2020 4:30:00 PM 17.27 63.086 0.134 7.42 2.41 10.43
10/22/2020 4:45:00 PM 17.28 63.104 0.134 7.4 2.4 10.35
10/22/2020 5:00:00 PM 17.28 63.104 0.134 7.39 2.33 10.24
10/22/2020 5:15:00 PM 17.29 63.122 0.134 7.38 2.45 10.16
10/22/2020 5:30:00 PM 17.3 63.14 0.134 7.37 2.44 10.05
10/22/2020 5:45:00 PM 17.3 63.14 0.134 7.35 2.34 9.91
10/22/2020 6:00:00 PM 17.29 63.122 0.134 7.33 2.7 9.78
10/22/2020 6:15:00 PM 17.27 63.086 0.135 7.3 2.43 9.63
10/22/2020 6:30:00 PM 17.25 63.05 0.135 7.29 2.49 9.49
10/22/2020 6:45:00 PM 17.22 62.996 0.134 7.25 2.46 9.36
10/22/2020 7:00:00 PM 17.19 62.942 0.135 7.26 2.58 9.26
10/22/2020 7:15:00 PM 17.15 62.87 0.135 7.24 2.55 9.16
10/22/2020 7:30:00 PM 17.1 62.78 0.135 7.23 2.62 9.1
10/22/2020 7:45:00 PM 17.06 62.708 0.135 7.22 2.76 9.03
10/22/2020 8:00:00 PM 17.01 62.618 0.135 7.2 3.05 9
10/22/2020 8:15:00 PM 16.93 62.474 0.135 7.2 2.78 8.95
10/22/2020 8:30:00 PM 16.86 62.348 0.135 7.19 2.68 8.91
10/22/2020 8:45:00 PM 16.79 62.222 0.135 7.17 2.73 8.85
10/22/2020 9:00:00 PM 16.71 62.078 0.135 7.18 2.76 8.82
10/22/2020 9:15:00 PM 16.63 61.934 0.135 7.17 2.68 8.79
10/22/2020 9:30:00 PM 16.55 61.79 0.135 7.16 2.6 8.75
10/22/2020 9:45:00 PM 16.47 61.646 0.135 7.15 2.76 8.69
10/22/2020 10:00:00 PM 16.39 61.502 0.135 7.15 2.68 8.68
10/22/2020 10:15:00 PM 16.28 61.304 0.135 7.15 2.69 8.63
10/22/2020 10:30:00 PM 16.2 61.16 0.135 7.14 3.21 8.6
10/22/2020 10:45:00 PM 16.1 60.98 0.136 7.13 2.83 8.57
10/22/2020 11:00:00 PM 16 60.8 0.136 7.13 2.8 8.54
10/22/2020 11:15:00 PM 15.91 60.638 0.136 7.11 2.61 8.51
10/22/2020 11:30:00 PM 15.81 60.458 0.136 7.11 2.85 8.47
10/22/2020 11:45:00 PM 15.72 60.296 0.136 7.11 2.7 8.46
10/23/2020 12:00:00 AM 15.63 60.134 0.136 7.1 2.64 8.43
10/23/2020 12:15:00 AM 15.54 59.972 0.136 7.1 2.62 8.4
10/23/2020 12:30:00 AM 15.47 59.846 0.136 7.1 2.71 8.38
10/23/2020 12:45:00 AM 15.39 59.702 0.137 7.09 2.69 8.34
10/23/2020 1:00:00 AM 15.32 59.576 0.136 7.09 2.61 8.29
10/23/2020 1:15:00 AM 15.25 59.45 0.136 7.08 3.03 8.29
10/23/2020 1:30:00 AM 15.18 59.324 0.136 7.08 2.93 8.28
10/23/2020 1:45:00 AM 15.12 59.216 0.136 7.08 2.76 8.28
10/23/2020 2:00:00 AM 15.06 59.108 0.136 7.08 2.99 8.29
10/23/2020 2:15:00 AM 15.01 59.018 0.136 7.08 3.01 8.28
10/23/2020 2:30:00 AM 14.96 58.928 0.136 7.08 2.89 8.28
10/23/2020 2:45:00 AM 14.91 58.838 0.137 7.06 3.04 8.28
10/23/2020 3:00:00 AM 14.86 58.748 0.137 7.07 2.74 8.26
10/23/2020 3:15:00 AM 14.83 58.694 0.136 7.07 2.6 8.26
10/23/2020 3:30:00 AM 14.79 58.622 0.136 7.07 2.69 8.28
10/23/2020 3:45:00 AM 14.77 58.586 0.136 7.08 2.66 8.24
10/23/2020 4:00:00 AM 14.77 58.586 0.136 7.06 2.67 8.27
10/23/2020 4:15:00 AM 14.79 58.622 0.136 7.08 2.75 8.26
10/23/2020 4:30:00 AM 14.79 58.622 0.136 7.05 2.84 8.24
10/23/2020 4:45:00 AM 14.81 58.658 0.136 7.07 2.62 8.25
10/23/2020 5:00:00 AM 14.82 58.676 0.136 7.07 2.69 8.24
10/23/2020 5:15:00 AM 14.83 58.694 0.136 7.05 2.78 8.21
10/23/2020 5:30:00 AM 14.84 58.712 0.136 7.06 2.66 8.2
10/23/2020 5:45:00 AM 14.85 58.73 0.136 7.06 2.62 8.22
10/23/2020 6:00:00 AM 14.85 58.73 0.136 7.06 2.66 8.23
10/23/2020 6:15:00 AM 14.84 58.712 0.136 7.06 2.71 8.21
10/23/2020 6:30:00 AM 14.81 58.658 0.136 7.06 2.7 8.22
10/23/2020 6:45:00 AM 14.77 58.586 0.136 7.06 2.62 8.22
10/23/2020 7:00:00 AM 14.73 58.514 0.136 7.04 2.72 8.21
10/23/2020 7:15:00 AM 14.69 58.442 0.136 7.06 2.59 8.26
10/23/2020 7:30:00 AM 14.68 58.424 0.136 7.06 2.62 8.26
10/23/2020 7:45:00 AM 14.69 58.442 0.136 7.06 2.59 8.28
10/23/2020 8:00:00 AM 14.71 58.478 0.136 7.07 2.54 8.33
10/23/2020 8:15:00 AM 14.71 58.478 0.136 7.07 2.65 8.43
10/23/2020 8:30:00 AM 14.71 58.478 0.136 7.06 2.51 8.49
10/23/2020 8:45:00 AM 14.76 58.568 0.136 7.1 2.46 8.61
10/23/2020 9:00:00 AM 14.87 58.766 0.135 7.11 2.44 8.78
10/23/2020 9:15:00 AM 14.97 58.946 0.136 7.1 2.54 9.01
10/23/2020 9:30:00 AM 15.1 59.18 0.135 7.15 2.47 9.12
10/23/2020 9:45:00 AM 15.25 59.45 0.135 7.17 2.41 9.21
10/23/2020 10:00:00 AM 15.31 59.558 0.135 7.17 2.46 9.33
10/23/2020 10:15:00 AM 15.39 59.702 0.136 7.19 2.47 9.45
10/23/2020 10:30:00 AM 15.42 59.756 0.136 7.2 2.48 9.5
10/23/2020 10:45:00 AM 15.46 59.828 0.136 7.2 2.41 9.58
10/23/2020 11:00:00 AM 15.54 59.972 0.136 7.22 2.37 9.63
10/23/2020 11:15:00 AM 15.64 60.152 0.136 7.24 2.34 9.71
10/23/2020 11:30:00 AM 15.74 60.332 0.136 7.24 2.39 9.72
10/23/2020 11:45:00 AM 15.91 60.638 0.136 7.26 2.37 9.84
10/23/2020 12:00:00 PM 16.06 60.908 0.136 7.28 2.34 9.91
10/23/2020 12:15:00 PM 16.24 61.232 0.136 7.29 2.26 9.99
10/23/2020 12:30:00 PM 16.37 61.466 0.136 7.3 2.3 10
10/23/2020 12:45:00 PM 16.49 61.682 0.136 7.31 2.32 10.01
10/23/2020 1:00:00 PM 16.64 61.952 0.137 7.32 2.48 9.96
10/23/2020 1:15:00 PM 16.78 62.204 0.137 7.34 2.6 10.06
10/23/2020 1:30:00 PM 16.89 62.402 0.138 7.33 2.34 10.06
10/23/2020 1:45:00 PM 16.98 62.564 0.138 7.3 2.44 10.05
10/23/2020 2:00:00 PM 17.07 62.726 0.138 7.34 2.4 10.13
10/23/2020 2:15:00 PM 17.14 62.852 0.138 7.36 2.47 10.2
10/23/2020 2:30:00 PM 17.2 62.96 0.138 7.36 2.47 10.18
10/23/2020 2:45:00 PM 17.21 62.978 0.138 7.37 2.42 10.28
10/23/2020 3:00:00 PM 17.22 62.996 0.138 7.35 2.53 10.32
10/23/2020 3:15:00 PM 17.25 63.05 0.138 7.39 2.59 10.29
10/23/2020 3:30:00 PM 17.31 63.158 0.138 7.4 2.56 10.33
10/23/2020 3:45:00 PM 17.37 63.266 0.138 7.4 2.57 10.39
10/23/2020 4:00:00 PM 17.41 63.338 0.138 7.42 2.46 10.35
10/23/2020 4:15:00 PM 17.44 63.392 0.138 7.41 2.43 10.35
10/23/2020 4:30:00 PM 17.46 63.428 0.138 7.41 2.54 10.28
10/23/2020 4:45:00 PM 17.51 63.518 0.138 7.4 2.48 10.22
10/23/2020 5:00:00 PM 17.53 63.554 0.138 7.4 2.34 10.23
10/23/2020 5:15:00 PM 17.54 63.572 0.137 7.4 2.5 10.16
10/23/2020 5:30:00 PM 17.51 63.518 0.137 7.39 2.47 10.11
10/23/2020 5:45:00 PM 17.48 63.464 0.137 7.38 2.43 9.94
10/23/2020 6:00:00 PM 17.42 63.356 0.138 7.35 2.53 9.81
10/23/2020 6:15:00 PM 17.38 63.284 0.138 7.34 2.32 9.62
10/23/2020 6:30:00 PM 17.31 63.158 0.138 7.31 2.4 9.44
10/23/2020 6:45:00 PM 17.26 63.068 0.138 7.29 2.4 9.23
10/23/2020 7:00:00 PM 17.2 62.96 0.138 7.26 2.52 9.1
10/23/2020 7:15:00 PM 17.15 62.87 0.138 7.25 2.56 8.98
10/23/2020 7:30:00 PM 17.09 62.762 0.138 7.24 2.52 8.93
10/23/2020 7:45:00 PM 17.04 62.672 0.139 7.22 2.57 8.79
10/23/2020 8:00:00 PM 16.99 62.582 0.139 7.21 2.65 8.67
10/23/2020 8:15:00 PM 16.93 62.474 0.138 7.2 2.58 8.69
10/23/2020 8:30:00 PM 16.89 62.402 0.139 7.19 2.67 8.59
10/23/2020 8:45:00 PM 16.83 62.294 0.139 7.19 2.7 8.59
10/23/2020 9:00:00 PM 16.77 62.186 0.138 7.18 2.71 8.55
10/23/2020 9:15:00 PM 16.73 62.114 0.139 7.18 2.74 8.5
10/23/2020 9:30:00 PM 16.67 62.006 0.139 7.17 2.61 8.5
10/23/2020 9:45:00 PM 16.62 61.916 0.139 7.17 2.69 8.46
10/23/2020 10:00:00 PM 16.56 61.808 0.139 7.16 2.64 8.44
10/23/2020 10:15:00 PM 16.5 61.7 0.139 7.15 2.66 8.38
10/23/2020 10:30:00 PM 16.46 61.628 0.139 7.15 2.57 8.35
10/23/2020 10:45:00 PM 16.4 61.52 0.139 7.14 2.65 8.33
10/23/2020 11:00:00 PM 16.35 61.43 0.14 7.14 2.68 8.28
10/23/2020 11:15:00 PM 16.31 61.358 0.14 7.14 2.56 8.26
10/23/2020 11:30:00 PM 16.25 61.25 0.14 7.13 2.75 8.2
10/23/2020 11:45:00 PM 16.21 61.178 0.14 7.13 2.62 8.19
10/24/2020 12:00:00 AM 16.16 61.088 0.14 7.1 3.02 8.08
10/24/2020 12:15:00 AM 16.1 60.98 0.14 7.11 2.83 8.15
10/24/2020 12:30:00 AM 16.04 60.872 0.14 7.12 2.89 8.11
10/24/2020 12:45:00 AM 15.99 60.782 0.14 7.11 2.69 8.09
10/24/2020 1:00:00 AM 15.92 60.656 0.14 7.1 2.81 8.05
10/24/2020 1:15:00 AM 15.87 60.566 0.14 7.1 2.84 8.06
10/24/2020 1:30:00 AM 15.82 60.476 0.14 7.1 3.35 8.03
10/24/2020 1:45:00 AM 15.76 60.368 0.14 7.1 3.08 8.01
10/24/2020 2:00:00 AM 15.71 60.278 0.14 7.09 2.96 7.99
10/24/2020 2:15:00 AM 15.67 60.206 0.141 7.09 2.67 7.96
10/24/2020 2:30:00 AM 15.62 60.116 0.141 7.08 2.71 7.93
10/24/2020 2:45:00 AM 15.57 60.026 0.141 7.07 2.65 7.92
10/24/2020 3:00:00 AM 15.53 59.954 0.141 7.09 2.92 7.9
10/24/2020 3:15:00 AM 15.48 59.864 0.141 7.08 2.74 7.92
10/24/2020 3:30:00 AM 15.44 59.792 0.141 7.08 2.66 7.9
10/24/2020 3:45:00 AM 15.4 59.72 0.141 7.08 2.71 7.86
10/24/2020 4:00:00 AM 15.36 59.648 0.14 7.07 2.72 7.86
10/24/2020 4:15:00 AM 15.33 59.594 0.14 7.07 2.66 7.88
10/24/2020 4:30:00 AM 15.31 59.558 0.14 7.07 2.71 7.87
10/24/2020 4:45:00 AM 15.3 59.54 0.14 7.07 2.54 7.86
10/24/2020 5:00:00 AM 15.28 59.504 0.14 7.03 2.58 7.87
10/24/2020 5:15:00 AM 15.26 59.468 0.14 7.06 2.66 7.84
10/24/2020 5:30:00 AM 15.25 59.45 0.14 7.05 2.42 7.8
10/24/2020 5:45:00 AM 15.25 59.45 0.14 7.06 2.44 7.83
10/24/2020 6:00:00 AM 15.26 59.468 0.14 7.06 2.49 7.81
10/24/2020 6:15:00 AM 15.26 59.468 0.14 7.06 2.57 7.77
10/24/2020 6:30:00 AM 15.26 59.468 0.139 7.06 2.57 7.79
10/24/2020 6:45:00 AM 15.26 59.468 0.139 7.06 2.64 7.84
10/24/2020 7:00:00 AM 15.26 59.468 0.139 7.06 2.74 7.78
10/24/2020 7:15:00 AM 15.26 59.468 0.139 7.06 2.62 7.78
10/24/2020 7:30:00 AM 15.25 59.45 0.139 7.06 2.76 7.85
10/24/2020 7:45:00 AM 15.15 59.27 0.139 7.06 2.89 7.9
10/24/2020 8:00:00 AM 15.09 59.162 0.139 7.05 3.13 7.87
10/24/2020 8:15:00 AM 15.02 59.036 0.14 7.05 3.17 7.84
10/24/2020 8:30:00 AM 14.95 58.91 0.14 7.05 2.87 7.92
10/24/2020 8:45:00 AM 14.89 58.802 0.14 7.05 2.68 7.95
10/24/2020 9:00:00 AM 14.81 58.658 0.139 7.07 2.57 8.05
10/24/2020 9:15:00 AM 14.74 58.532 0.139 7.06 2.55 8.06
10/24/2020 9:30:00 AM 14.68 58.424 0.139 7.07 2.56 8.11
10/24/2020 9:45:00 AM 14.63 58.334 0.138 7.08 2.55 8.25
10/24/2020 10:00:00 AM 14.61 58.298 0.139 7.08 2.53 8.4
10/24/2020 10:15:00 AM 14.6 58.28 0.139 7.07 2.53 8.6
10/24/2020 10:30:00 AM 14.59 58.262 0.139 7.11 2.62 8.77
10/24/2020 10:45:00 AM 14.62 58.316 0.138 7.14 2.52 8.99
10/24/2020 11:00:00 AM 14.67 58.406 0.138 7.16 2.48 9.18
10/24/2020 11:15:00 AM 14.7 58.46 0.138 7.18 2.57 9.41
10/24/2020 11:30:00 AM 14.7 58.46 0.138 7.2 2.56 9.55
10/24/2020 11:45:00 AM 14.69 58.442 0.138 7.21 2.57 9.64
10/24/2020 12:00:00 PM 14.68 58.424 0.138 7.23 2.41 9.74
10/24/2020 12:15:00 PM 14.7 58.46 0.138 7.25 2.5 9.88
10/24/2020 12:30:00 PM 14.72 58.496 0.138 7.27 2.47 9.99
10/24/2020 12:45:00 PM 14.72 58.496 0.138 7.28 2.62 10.09
10/24/2020 1:00:00 PM 14.83 58.694 0.137 7.27 2.47 10.19
10/24/2020 1:15:00 PM 14.91 58.838 0.137 7.33 2.44 10.26
10/24/2020 1:30:00 PM 14.95 58.91 0.137 7.34 2.48 10.36
10/24/2020 1:45:00 PM 14.99 58.982 0.137 7.34 2.42 10.42
10/24/2020 2:00:00 PM 14.99 58.982 0.138 7.37 2.49 10.46
10/24/2020 2:15:00 PM 15.02 59.036 0.138 7.38 2.55 10.56
10/24/2020 2:30:00 PM 15 59 0.137 7.35 2.44 10.58
10/24/2020 2:45:00 PM 14.97 58.946 0.137 7.4 2.54 10.63
10/24/2020 3:00:00 PM 14.92 58.856 0.138 7.4 2.53 10.67
10/24/2020 3:15:00 PM 14.9 58.82 0.138 7.41 2.44 10.7
10/24/2020 3:30:00 PM 14.86 58.748 0.138 7.42 2.5 10.77
10/24/2020 3:45:00 PM 14.79 58.622 0.138 7.42 2.4 10.79
10/24/2020 4:00:00 PM 14.73 58.514 0.137 7.43 2.51 10.79
10/24/2020 4:15:00 PM 14.66 58.388 0.138 7.44 2.48 10.83
10/24/2020 4:30:00 PM 14.6 58.28 0.138 7.43 2.55 10.77
10/24/2020 4:45:00 PM 14.48 58.064 0.138 7.43 2.49 10.72
10/24/2020 5:00:00 PM 14.4 57.92 0.138 7.43 2.53 10.69
10/24/2020 5:15:00 PM 14.32 57.776 0.138 7.4 2.53 10.6
10/24/2020 5:30:00 PM 14.2 57.56 0.138 7.39 2.57 10.43
10/24/2020 5:45:00 PM 14.12 57.416 0.138 7.37 2.54 10.3
10/24/2020 6:00:00 PM 14.03 57.254 0.139 7.32 2.54 10.16
10/24/2020 6:15:00 PM 13.96 57.128 0.139 7.32 2.59 9.99
10/24/2020 6:30:00 PM 13.9 57.02 0.139 7.3 2.82 9.83
10/24/2020 6:45:00 PM 13.81 56.858 0.139 7.28 2.52 9.72
10/24/2020 7:00:00 PM 13.73 56.714 0.139 7.26 2.62 9.63
10/24/2020 7:15:00 PM 13.68 56.624 0.139 7.25 2.56 9.54
10/24/2020 7:30:00 PM 13.64 56.552 0.14 7.24 2.65 9.49
10/24/2020 7:45:00 PM 13.58 56.444 0.14 7.23 2.66 9.41
10/24/2020 8:00:00 PM 13.52 56.336 0.14 7.22 2.51 9.38
10/24/2020 8:15:00 PM 13.46 56.228 0.14 7.22 2.55 9.36
10/24/2020 8:30:00 PM 13.44 56.192 0.14 7.21 2.63 9.3
10/24/2020 8:45:00 PM 13.4 56.12 0.14 7.21 2.57 9.3
10/24/2020 9:00:00 PM 13.37 56.066 0.14 7.2 2.58 9.29
10/24/2020 9:15:00 PM 13.31 55.958 0.14 7.2 2.67 9.27
10/24/2020 9:30:00 PM 13.24 55.832 0.14 7.21 2.73 9.26
10/24/2020 9:45:00 PM 13.18 55.724 0.14 7.2 2.69 9.26
10/24/2020 10:00:00 PM 13.1 55.58 0.14 7.19 2.74 9.25
10/24/2020 10:15:00 PM 13.06 55.508 0.14 7.18 2.64 9.21
10/24/2020 10:30:00 PM 13.02 55.436 0.14 7.19 2.66 9.16
10/24/2020 10:45:00 PM 12.91 55.238 0.14 7.18 2.66 9.14
10/24/2020 11:00:00 PM 12.81 55.058 0.14 7.18 2.67 9.18
10/24/2020 11:15:00 PM 12.69 54.842 0.141 7.15 2.66 9.15
10/24/2020 11:30:00 PM 12.6 54.68 0.141 7.17 2.67 9.13
10/24/2020 11:45:00 PM 12.54 54.572 0.141 7.16 2.81 9.12
10/25/2020 12:00:00 AM 12.44 54.392 0.141 7.14 2.88 9.09
10/25/2020 12:15:00 AM 12.34 54.212 0.141 7.15 2.71 9.07
10/25/2020 12:30:00 AM 12.23 54.014 0.142 7.15 2.78 9.07
10/25/2020 12:45:00 AM 12.12 53.816 0.142 7.14 2.79 9.03
10/25/2020 1:00:00 AM 12.04 53.672 0.142 7.13 2.75 9.01
10/25/2020 1:15:00 AM 11.96 53.528 0.141 7.13 2.74 9.02
10/25/2020 1:30:00 AM 11.91 53.438 0.141 7.14 2.84 8.99
10/25/2020 1:45:00 AM 11.83 53.294 0.141 7.13 2.76 9
10/25/2020 2:00:00 AM 11.75 53.15 0.141 7.13 2.72 8.98
10/25/2020 2:15:00 AM 11.66 52.988 0.141 7.13 2.82 8.97
10/25/2020 2:30:00 AM 11.56 52.808 0.142 7.13 2.78 8.98
10/25/2020 2:45:00 AM 11.46 52.628 0.141 7.12 2.68 8.98
10/25/2020 3:00:00 AM 11.39 52.502 0.142 7.12 2.83 8.97
10/25/2020 3:15:00 AM 11.31 52.358 0.141 7.11 2.84 8.96
10/25/2020 3:30:00 AM 11.2 52.16 0.141 7.11 3.07 8.97
10/25/2020 3:45:00 AM 11.16 52.088 0.141 7.11 2.89 8.96
10/25/2020 4:00:00 AM 11.09 51.962 0.141 7.11 2.91 8.96
10/25/2020 4:15:00 AM 11.03 51.854 0.141 7.11 2.69 8.97
10/25/2020 4:30:00 AM 10.97 51.746 0.141 7.11 2.79 8.98
10/25/2020 4:45:00 AM 10.92 51.656 0.141 7.11 2.76 8.97
10/25/2020 5:00:00 AM 10.86 51.548 0.141 7.11 2.81 8.98
10/25/2020 5:15:00 AM 10.87 51.566 0.141 7.11 2.72 8.98
10/25/2020 5:30:00 AM 10.84 51.512 0.141 7.11 2.71 8.98
10/25/2020 5:45:00 AM 10.77 51.386 0.141 7.11 2.76 9.01
10/25/2020 6:00:00 AM 10.68 51.224 0.141 7.1 2.75 9.01
10/25/2020 6:15:00 AM 10.64 51.152 0.141 7.08 2.77 9.06
10/25/2020 6:30:00 AM 10.57 51.026 0.141 7.11 2.71 9.03
10/25/2020 6:45:00 AM 10.53 50.954 0.141 7.1 2.83 9.06
10/25/2020 7:00:00 AM 10.51 50.918 0.141 7.07 2.72 9.06
10/25/2020 7:15:00 AM 10.43 50.774 0.141 7.09 2.67 9.08
10/25/2020 7:30:00 AM 10.37 50.666 0.141 7.1 2.69 9.08
10/25/2020 7:45:00 AM 10.32 50.576 0.141 7.11 2.82 9.13
10/25/2020 8:00:00 AM 10.31 50.558 0.14 7.11 2.6 9.16
10/25/2020 8:15:00 AM 10.28 50.504 0.14 7.1 2.71 9.21
10/25/2020 8:30:00 AM 10.26 50.468 0.14 7.12 2.61 9.28
10/25/2020 8:45:00 AM 10.24 50.432 0.14 7.12 2.57 9.37
10/25/2020 9:00:00 AM 10.25 50.45 0.14 7.14 2.64 9.54
10/25/2020 9:15:00 AM 10.25 50.45 0.14 7.15 2.51 9.67
10/25/2020 9:30:00 AM 10.24 50.432 0.14 7.17 2.65 9.9
10/25/2020 9:45:00 AM 10.25 50.45 0.139 7.19 2.62 10.09
10/25/2020 10:00:00 AM 10.3 50.54 0.139 7.21 2.52 10.26
10/25/2020 10:15:00 AM 10.34 50.612 0.139 7.23 2.54 10.47
10/25/2020 10:30:00 AM 10.37 50.666 0.139 7.24 2.46 10.58
10/25/2020 10:45:00 AM 10.41 50.738 0.139 7.26 2.56 10.68
10/25/2020 11:00:00 AM 10.49 50.882 0.138 7.26 2.6 10.76
10/25/2020 11:15:00 AM 10.53 50.954 0.138 7.28 2.51 10.88
10/25/2020 11:30:00 AM 10.55 50.99 0.138 7.29 2.58 10.99
10/25/2020 11:45:00 AM 10.64 51.152 0.138 7.31 2.53 11
10/25/2020 12:00:00 PM 10.75 51.35 0.138 7.32 2.61 11.08
10/25/2020 12:15:00 PM 10.83 51.494 0.138 7.34 2.49 11.17
10/25/2020 12:30:00 PM 10.92 51.656 0.138 7.36 2.53 11.19
10/25/2020 12:45:00 PM 10.97 51.746 0.138 7.36 2.46 11.19
10/25/2020 1:00:00 PM 11.07 51.926 0.138 7.37 2.53 11.24
10/25/2020 1:15:00 PM 11.21 52.178 0.137 7.36 2.54 11.21
10/25/2020 1:30:00 PM 11.33 52.394 0.137 7.39 2.5 11.24
10/25/2020 1:45:00 PM 11.43 52.574 0.137 7.41 2.45 11.28
10/25/2020 2:00:00 PM 11.54 52.772 0.137 7.42 2.47 11.29
10/25/2020 2:15:00 PM 11.65 52.97 0.137 7.4 2.47 11.31
10/25/2020 2:30:00 PM 11.7 53.06 0.137 7.42 2.45 11.33
10/25/2020 2:45:00 PM 11.83 53.294 0.136 7.41 2.52 11.32
10/25/2020 3:00:00 PM 11.97 53.546 0.136 7.44 2.47 11.41
10/25/2020 3:15:00 PM 12.08 53.744 0.136 7.43 2.51 11.52
10/25/2020 3:30:00 PM 12.23 54.014 0.136 7.46 2.53 11.56
10/25/2020 3:45:00 PM 12.3 54.14 0.136 7.45 2.45 11.64
10/25/2020 4:00:00 PM 12.29 54.122 0.136 7.48 2.45 11.73
10/25/2020 4:15:00 PM 12.3 54.14 0.136 7.48 2.54 11.7
10/25/2020 4:30:00 PM 12.28 54.104 0.135 7.49 2.45 11.75
10/25/2020 4:45:00 PM 12.24 54.032 0.135 7.49 2.51 11.69
10/25/2020 5:00:00 PM 12.19 53.942 0.135 7.47 2.5 11.67
10/25/2020 5:15:00 PM 12.15 53.87 0.135 7.46 2.5 11.55
10/25/2020 5:30:00 PM 12.14 53.852 0.135 7.46 2.51 11.48
10/25/2020 5:45:00 PM 12.11 53.798 0.135 7.45 2.52 11.41
10/25/2020 6:00:00 PM 12.06 53.708 0.135 7.41 2.53 11.3
10/25/2020 6:15:00 PM 12.03 53.654 0.135 7.41 2.45 11.14
10/25/2020 6:30:00 PM 12.01 53.618 0.136 7.39 2.47 10.96
10/25/2020 6:45:00 PM 12.02 53.636 0.136 7.36 2.46 10.78
10/25/2020 7:00:00 PM 12.02 53.636 0.136 7.34 2.62 10.6
10/25/2020 7:15:00 PM 12 53.6 0.136 7.32 2.48 10.48
10/25/2020 7:30:00 PM 12 53.6 0.136 7.3 2.6 10.4
10/25/2020 7:45:00 PM 11.99 53.582 0.136 7.29 2.57 10.3
10/25/2020 8:00:00 PM 11.99 53.582 0.136 7.28 2.7 10.25
10/25/2020 8:15:00 PM 11.98 53.564 0.136 7.28 2.55 10.18
10/25/2020 8:30:00 PM 11.94 53.492 0.136 7.27 2.55 10.14
10/25/2020 8:45:00 PM 11.92 53.456 0.136 7.26 2.73 10.11
10/25/2020 9:00:00 PM 11.93 53.474 0.136 7.25 2.78 10.08
10/25/2020 9:15:00 PM 11.91 53.438 0.136 7.25 2.58 10.05
10/25/2020 9:30:00 PM 11.88 53.384 0.136 7.24 2.62 10.03
10/25/2020 9:45:00 PM 11.86 53.348 0.136 7.23 2.64 10.02
10/25/2020 10:00:00 PM 11.84 53.312 0.136 7.23 2.64 9.97
10/25/2020 10:15:00 PM 11.79 53.222 0.136 7.23 2.65 9.94
10/25/2020 10:30:00 PM 11.75 53.15 0.137 7.22 2.7 9.91
10/25/2020 10:45:00 PM 11.71 53.078 0.137 7.21 2.73 9.87
10/25/2020 11:00:00 PM 11.66 52.988 0.137 7.2 2.76 9.83
10/25/2020 11:15:00 PM 11.61 52.898 0.137 7.2 2.68 9.83
10/25/2020 11:30:00 PM 11.56 52.808 0.137 7.2 2.66 9.79
10/25/2020 11:45:00 PM 11.52 52.736 0.138 7.16 2.77 9.77
10/26/2020 12:00:00 AM 11.45 52.61 0.137 7.18 2.88 9.72
10/26/2020 12:15:00 AM 11.38 52.484 0.137 7.16 2.7 9.72
10/26/2020 12:30:00 AM 11.33 52.394 0.138 7.18 2.81 9.67
10/26/2020 12:45:00 AM 11.27 52.286 0.137 7.17 2.65 9.66
10/26/2020 1:00:00 AM 11.23 52.214 0.138 7.16 2.63 9.61
10/26/2020 1:15:00 AM 11.18 52.124 0.138 7.15 2.81 9.59
10/26/2020 1:30:00 AM 11.1 51.98 0.137 7.16 2.72 9.62
10/26/2020 1:45:00 AM 11.05 51.89 0.137 7.15 3.09 9.62
10/26/2020 2:00:00 AM 11.03 51.854 0.138 7.15 3.22 9.55
10/26/2020 2:15:00 AM 11 51.8 0.138 7.15 3.2 9.54
10/26/2020 2:30:00 AM 10.97 51.746 0.138 7.15 3.01 9.52
10/26/2020 2:45:00 AM 10.94 51.692 0.138 7.14 2.85 9.49
10/26/2020 3:00:00 AM 10.9 51.62 0.138 7.14 2.68 9.48
10/26/2020 3:15:00 AM 10.89 51.602 0.138 7.13 2.71 9.44
10/26/2020 3:30:00 AM 10.85 51.53 0.139 7.13 2.77 9.45
10/26/2020 3:45:00 AM 10.82 51.476 0.138 7.13 2.78 9.43
10/26/2020 4:00:00 AM 10.8 51.44 0.139 7.13 2.75 9.41
10/26/2020 4:15:00 AM 10.76 51.368 0.139 7.12 2.89 9.42
10/26/2020 4:30:00 AM 10.72 51.296 0.139 7.12 2.72 9.42
10/26/2020 4:45:00 AM 10.68 51.224 0.139 7.13 2.65 9.44
10/26/2020 5:00:00 AM 10.67 51.206 0.139 7.13 2.73 9.43
10/26/2020 5:15:00 AM 10.65 51.17 0.139 7.12 2.71 9.4
10/26/2020 5:30:00 AM 10.65 51.17 0.139 7.12 2.57 9.39
10/26/2020 5:45:00 AM 10.65 51.17 0.139 7.12 2.78 9.37
10/26/2020 6:00:00 AM 10.62 51.116 0.139 7.11 2.64 9.36
10/26/2020 6:15:00 AM 10.61 51.098 0.139 7.12 2.69 9.38
10/26/2020 6:30:00 AM 10.6 51.08 0.139 7.12 2.76 9.38
10/26/2020 6:45:00 AM 10.6 51.08 0.139 7.11 2.71 9.37
10/26/2020 7:00:00 AM 10.59 51.062 0.139 7.11 2.63 9.37
10/26/2020 7:15:00 AM 10.59 51.062 0.139 7.1 2.67 9.38
10/26/2020 7:30:00 AM 10.57 51.026 0.139 7.11 2.6 9.39
10/26/2020 7:45:00 AM 10.56 51.008 0.139 7.1 2.66 9.38
10/26/2020 8:00:00 AM 10.57 51.026 0.139 7.12 2.62 9.41
10/26/2020 8:15:00 AM 10.58 51.044 0.139 7.12 2.67 9.44
10/26/2020 8:30:00 AM 10.56 51.008 0.139 7.11 2.57 9.46
10/26/2020 8:45:00 AM 10.56 51.008 0.139 7.12 2.58 9.53
10/26/2020 9:00:00 AM 10.56 51.008 0.139 7.11 2.57 9.59
10/26/2020 9:15:00 AM 10.57 51.026 0.139 7.14 2.62 9.68
10/26/2020 9:30:00 AM 10.59 51.062 0.138 7.15 2.54 9.79
10/26/2020 9:45:00 AM 10.63 51.134 0.139 7.16 2.6 9.96
10/26/2020 10:00:00 AM 10.68 51.224 0.138 7.17 2.64 10.12
10/26/2020 10:15:00 AM 10.72 51.296 0.138 7.2 2.61 10.26
10/26/2020 10:30:00 AM 10.75 51.35 0.138 7.21 2.53 10.41
10/26/2020 10:45:00 AM 10.79 51.422 0.137 7.22 2.46 10.54
10/26/2020 11:00:00 AM 10.84 51.512 0.137 7.23 2.53 10.65
10/26/2020 11:15:00 AM 10.9 51.62 0.137 7.24 2.53 10.8
10/26/2020 11:30:00 AM 10.99 51.782 0.137 7.26 2.51 10.89
10/26/2020 11:45:00 AM 11.1 51.98 0.137 7.28 2.52 10.96
10/26/2020 12:00:00 PM 11.2 52.16 0.137 7.28 2.53 11.09
10/26/2020 12:15:00 PM 11.33 52.394 0.136 7.32 2.51 11.15
10/26/2020 12:30:00 PM 11.45 52.61 0.136 7.33 2.62 11.26
10/26/2020 12:45:00 PM 11.5 52.7 0.136 7.35 2.51 11.37
10/26/2020 1:00:00 PM 11.53 52.754 0.136 7.36 2.39 11.43
10/26/2020 1:15:00 PM 11.6 52.88 0.136 7.37 2.53 11.46
10/26/2020 1:30:00 PM 11.7 53.06 0.136 7.39 2.5 11.56
10/26/2020 1:45:00 PM 11.78 53.204 0.136 7.4 2.46 11.54
10/26/2020 2:00:00 PM 11.82 53.276 0.136 7.41 2.61 11.6
10/26/2020 2:15:00 PM 11.83 53.294 0.136 7.42 2.51 11.6
10/26/2020 2:30:00 PM 11.82 53.276 0.136 7.41 2.6 11.57
10/26/2020 2:45:00 PM 11.82 53.276 0.136 7.42 2.53 11.58
10/26/2020 3:00:00 PM 11.83 53.294 0.136 7.41 2.53 11.51
10/26/2020 3:15:00 PM 11.85 53.33 0.136 7.41 2.63 11.52
10/26/2020 3:30:00 PM 11.87 53.366 0.136 7.41 2.46 11.56
10/26/2020 3:45:00 PM 11.85 53.33 0.136 7.41 2.67 11.47
10/26/2020 4:00:00 PM 11.85 53.33 0.136 7.39 2.57 11.41
10/26/2020 4:15:00 PM 11.85 53.33 0.136 7.39 2.51 11.33
10/26/2020 4:30:00 PM 11.85 53.33 0.136 7.38 2.52 11.23
10/26/2020 4:45:00 PM 11.85 53.33 0.136 7.37 2.58 11.17
10/26/2020 5:00:00 PM 11.85 53.33 0.136 7.36 2.46 11.09
10/26/2020 5:15:00 PM 11.86 53.348 0.136 7.34 2.57 10.99
10/26/2020 5:30:00 PM 11.86 53.348 0.136 7.32 2.49 10.89
10/26/2020 5:45:00 PM 11.87 53.366 0.136 7.32 2.5 10.79
10/26/2020 6:00:00 PM 11.88 53.384 0.136 7.31 2.9 10.68
10/26/2020 6:15:00 PM 11.88 53.384 0.137 7.3 2.87 10.59
10/26/2020 6:30:00 PM 11.89 53.402 0.137 7.28 2.8 10.46
10/26/2020 6:45:00 PM 11.9 53.42 0.136 7.27 2.75 10.37
10/26/2020 7:00:00 PM 11.91 53.438 0.136 7.27 2.81 10.32
10/26/2020 7:15:00 PM 11.91 53.438 0.137 7.26 2.7 10.26
10/26/2020 7:30:00 PM 11.92 53.456 0.137 7.25 2.64 10.17
10/26/2020 7:45:00 PM 11.93 53.474 0.137 7.24 2.62 10.14
10/26/2020 8:00:00 PM 11.93 53.474 0.137 7.2 2.57 10.08
10/26/2020 8:15:00 PM 11.94 53.492 0.137 7.22 2.6 10.05
10/26/2020 8:30:00 PM 11.95 53.51 0.137 7.22 2.52 10.01
10/26/2020 8:45:00 PM 11.95 53.51 0.137 7.22 2.53 9.94
10/26/2020 9:00:00 PM 11.95 53.51 0.138 7.21 2.57 9.87
10/26/2020 9:15:00 PM 11.95 53.51 0.139 7.2 2.65 9.62
10/26/2020 9:30:00 PM 11.95 53.51 0.139 7.2 2.64 9.73
10/26/2020 9:45:00 PM 11.95 53.51 0.138 7.19 2.64 9.8
10/26/2020 10:00:00 PM 11.94 53.492 0.138 7.19 2.58 9.75
10/26/2020 10:15:00 PM 11.91 53.438 0.138 7.19 2.55 9.74
10/26/2020 10:30:00 PM 11.86 53.348 0.14 7.17 2.64 9.63
10/26/2020 10:45:00 PM 11.81 53.258 0.139 7.16 2.63 9.68
10/26/2020 11:00:00 PM 11.77 53.186 0.138 7.17 2.86 9.67
10/26/2020 11:15:00 PM 11.73 53.114 0.138 7.17 2.62 9.65
10/26/2020 11:30:00 PM 11.68 53.024 0.138 7.17 2.61 9.64
10/26/2020 11:45:00 PM 11.65 52.97 0.138 7.16 2.84 9.57
10/27/2020 12:00:00 AM 11.61 52.898 0.138 7.15 2.77 9.56
10/27/2020 12:15:00 AM 11.58 52.844 0.138 7.16 2.67 9.54
10/27/2020 12:30:00 AM 11.54 52.772 0.138 7.15 2.81 9.52
10/27/2020 12:45:00 AM 11.51 52.718 0.138 7.14 2.71 9.49
10/27/2020 1:00:00 AM 11.49 52.682 0.139 7.13 2.7 9.47
10/27/2020 1:15:00 AM 11.47 52.646 0.139 7.14 2.73 9.39
10/27/2020 1:30:00 AM 11.44 52.592 0.139 7.14 2.64 9.42
10/27/2020 1:45:00 AM 11.41 52.538 0.139 7.12 2.77 9.42
10/27/2020 2:00:00 AM 11.39 52.502 0.139 7.13 2.8 9.4
10/27/2020 2:15:00 AM 11.35 52.43 0.139 7.13 2.73 9.42
10/27/2020 2:30:00 AM 11.32 52.376 0.139 7.11 3.03 9.43
10/27/2020 2:45:00 AM 11.27 52.286 0.139 7.13 2.83 9.44
10/27/2020 3:00:00 AM 11.25 52.25 0.139 7.12 2.88 9.37
10/27/2020 3:15:00 AM 11.21 52.178 0.139 7.12 2.87 9.37
10/27/2020 3:30:00 AM 11.19 52.142 0.139 7.12 3.03 9.37
10/27/2020 3:45:00 AM 11.17 52.106 0.139 7.12 3.01 9.32
10/27/2020 4:00:00 AM 11.15 52.07 0.14 7.11 2.93 9.32
10/27/2020 4:15:00 AM 11.13 52.034 0.14 7.1 2.95 9.28
10/27/2020 4:30:00 AM 11.09 51.962 0.14 7.11 2.79 9.29
10/27/2020 4:45:00 AM 11.08 51.944 0.14 7.1 2.89 9.29
10/27/2020 5:00:00 AM 11.05 51.89 0.14 7.08 2.79 9.29
10/27/2020 5:15:00 AM 11.04 51.872 0.14 7.1 2.76 9.27
10/27/2020 5:30:00 AM 11.01 51.818 0.14 7.1 2.74 9.27
10/27/2020 5:45:00 AM 10.97 51.746 0.14 7.1 2.71 9.26
10/27/2020 6:00:00 AM 10.95 51.71 0.14 7.09 2.74 9.29
10/27/2020 6:15:00 AM 10.91 51.638 0.14 7.09 2.79 9.3
10/27/2020 6:30:00 AM 10.89 51.602 0.139 7.1 2.62 9.3
10/27/2020 6:45:00 AM 10.85 51.53 0.139 7.1 2.6 9.3
10/27/2020 7:00:00 AM 10.81 51.458 0.139 7.08 2.61 9.33
10/27/2020 7:15:00 AM 10.79 51.422 0.139 7.1 2.64 9.32
10/27/2020 7:30:00 AM 10.76 51.368 0.139 7.1 2.75 9.32
10/27/2020 7:45:00 AM 10.72 51.296 0.139 7.1 2.63 9.31
10/27/2020 8:00:00 AM 10.69 51.242 0.139 7.1 2.62 9.36
10/27/2020 8:15:00 AM 10.67 51.206 0.138 7.11 2.64 9.39
10/27/2020 8:30:00 AM 10.65 51.17 0.138 7.11 2.61 9.41
10/27/2020 8:45:00 AM 10.65 51.17 0.138 7.11 2.53 9.45
10/27/2020 9:00:00 AM 10.65 51.17 0.138 7.12 2.54 9.51
10/27/2020 9:15:00 AM 10.66 51.188 0.138 7.1 2.44 9.61
10/27/2020 9:30:00 AM 10.67 51.206 0.138 7.13 2.51 9.71
10/27/2020 9:45:00 AM 10.72 51.296 0.138 7.15 2.5 9.87
10/27/2020 10:00:00 AM 10.79 51.422 0.138 7.17 2.47 10.12
10/27/2020 10:15:00 AM 10.85 51.53 0.137 7.19 2.46 10.37
10/27/2020 10:30:00 AM 10.86 51.548 0.137 7.2 2.47 10.52
10/27/2020 10:45:00 AM 10.87 51.566 0.137 7.23 2.43 10.68
10/27/2020 11:00:00 AM 10.87 51.566 0.137 7.24 2.38 10.8
10/27/2020 11:15:00 AM 10.88 51.584 0.137 7.26 2.43 10.85
10/27/2020 11:30:00 AM 10.91 51.638 0.137 7.26 2.44 10.84
10/27/2020 11:45:00 AM 10.99 51.782 0.137 7.28 2.44 10.9
10/27/2020 12:00:00 PM 11.1 51.98 0.136 7.3 2.42 11.05
10/27/2020 12:15:00 PM 11.15 52.07 0.136 7.31 2.38 11.17
10/27/2020 12:30:00 PM 11.24 52.232 0.136 7.33 2.4 11.23
10/27/2020 12:45:00 PM 11.33 52.394 0.136 7.35 2.44 11.34
10/27/2020 1:00:00 PM 11.41 52.538 0.136 7.35 2.43 11.4
10/27/2020 1:15:00 PM 11.48 52.664 0.136 7.38 2.4 11.48
10/27/2020 1:30:00 PM 11.54 52.772 0.136 7.4 2.45 11.59
10/27/2020 1:45:00 PM 11.58 52.844 0.135 7.41 2.35 11.59
10/27/2020 2:00:00 PM 11.64 52.952 0.135 7.42 2.42 11.67
10/27/2020 2:15:00 PM 11.65 52.97 0.135 7.44 2.34 11.7
10/27/2020 2:30:00 PM 11.66 52.988 0.135 7.44 2.42 11.73
10/27/2020 2:45:00 PM 11.66 52.988 0.135 7.45 2.39 11.74
10/27/2020 3:00:00 PM 11.66 52.988 0.135 7.45 2.52 11.74
10/27/2020 3:15:00 PM 11.65 52.97 0.134 7.46 2.45 11.72
10/27/2020 3:30:00 PM 11.63 52.934 0.134 7.46 2.45 11.72
10/27/2020 3:45:00 PM 11.6 52.88 0.134 7.45 2.51 11.66
10/27/2020 4:00:00 PM 11.59 52.862 0.134 7.45 2.46 11.62
10/27/2020 4:15:00 PM 11.58 52.844 0.134 7.45 2.45 11.6
10/27/2020 4:30:00 PM 11.57 52.826 0.134 7.44 2.54 11.57
10/27/2020 4:45:00 PM 11.57 52.826 0.134 7.44 2.37 11.51
10/27/2020 5:00:00 PM 11.57 52.826 0.134 7.43 2.46 11.44
10/27/2020 5:15:00 PM 11.57 52.826 0.134 7.41 2.48 11.37
10/27/2020 5:30:00 PM 11.57 52.826 0.134 7.41 2.72 11.31
10/27/2020 5:45:00 PM 11.57 52.826 0.134 7.39 2.53 11.21
10/27/2020 6:00:00 PM 11.56 52.808 0.134 7.38 2.33 11.1
10/27/2020 6:15:00 PM 11.55 52.79 0.134 7.36 2.4 10.99
10/27/2020 6:30:00 PM 11.54 52.772 0.134 7.35 2.42 10.88
10/27/2020 6:45:00 PM 11.52 52.736 0.134 7.33 2.5 10.81
10/27/2020 7:00:00 PM 11.51 52.718 0.134 7.31 2.59 10.73
10/27/2020 7:15:00 PM 11.49 52.682 0.134 7.31 2.56 10.66
10/27/2020 7:30:00 PM 11.48 52.664 0.134 7.3 2.62 10.6
10/27/2020 7:45:00 PM 11.46 52.628 0.134 7.28 2.63 10.57
10/27/2020 8:00:00 PM 11.43 52.574 0.135 7.28 2.62 10.52
10/27/2020 8:15:00 PM 11.41 52.538 0.135 7.26 2.53 10.47
10/27/2020 8:30:00 PM 11.39 52.502 0.135 7.27 2.5 10.44
10/27/2020 8:45:00 PM 11.36 52.448 0.135 7.27 2.57 10.39
10/27/2020 9:00:00 PM 11.34 52.412 0.135 7.26 2.61 10.36
10/27/2020 9:15:00 PM 11.3 52.34 0.135 7.24 2.49 10.3
10/27/2020 9:30:00 PM 11.29 52.322 0.136 7.24 2.53 10.24
10/27/2020 9:45:00 PM 11.27 52.286 0.136 7.23 2.67 10.22
10/27/2020 10:00:00 PM 11.24 52.232 0.136 7.23 2.66 10.17
10/27/2020 10:15:00 PM 11.21 52.178 0.136 7.23 2.98 10.14
10/27/2020 10:30:00 PM 11.18 52.124 0.136 7.22 2.72 10.1
10/27/2020 10:45:00 PM 11.16 52.088 0.136 7.21 2.81 10.05
10/27/2020 11:00:00 PM 11.13 52.034 0.136 7.2 2.89 10.02
10/27/2020 11:15:00 PM 11.1 51.98 0.136 7.2 2.92 9.98
10/27/2020 11:30:00 PM 11.07 51.926 0.136 7.2 2.74 9.96
10/27/2020 11:45:00 PM 11.05 51.89 0.136 7.19 2.72 9.93
10/28/2020 12:00:00 AM 11.02 51.836 0.137 7.19 2.82 9.9
10/28/2020 12:15:00 AM 11 51.8 0.137 7.18 2.73 9.87
10/28/2020 12:30:00 AM 10.98 51.764 0.137 7.17 2.79 9.85
10/28/2020 12:45:00 AM 10.96 51.728 0.137 7.17 2.72 9.83
10/28/2020 1:00:00 AM 10.94 51.692 0.137 7.18 2.72 9.8
10/28/2020 1:15:00 AM 10.92 51.656 0.137 7.17 2.77 9.79
10/28/2020 1:30:00 AM 10.9 51.62 0.137 7.17 2.79 9.78
10/28/2020 1:45:00 AM 10.89 51.602 0.137 7.16 2.83 9.74
10/28/2020 2:00:00 AM 10.86 51.548 0.137 7.15 2.71 9.74
10/28/2020 2:15:00 AM 10.84 51.512 0.137 7.16 2.73 9.74
10/28/2020 2:30:00 AM 10.82 51.476 0.136 7.16 2.89 9.72
10/28/2020 2:45:00 AM 10.79 51.422 0.136 7.14 3.22 9.75
10/28/2020 3:00:00 AM 10.78 51.404 0.136 7.15 3.05 9.7
10/28/2020 3:15:00 AM 10.76 51.368 0.136 7.14 3.36 9.71
10/28/2020 3:30:00 AM 10.73 51.314 0.136 7.14 3.16 9.72
10/28/2020 3:45:00 AM 10.71 51.278 0.136 7.14 3.83 9.73
10/28/2020 4:00:00 AM 10.69 51.242 0.137 7.14 4.23 9.72
10/28/2020 4:15:00 AM 10.67 51.206 0.137 7.13 3.72 9.72
10/28/2020 4:30:00 AM 10.66 51.188 0.137 7.13 3.97 9.71
10/28/2020 4:45:00 AM 10.64 51.152 0.137 7.1 3.96 9.71
10/28/2020 5:00:00 AM 10.63 51.134 0.137 7.13 4.23 9.72
10/28/2020 5:15:00 AM 10.61 51.098 0.137 7.13 4.72 9.73
10/28/2020 5:30:00 AM 10.59 51.062 0.137 7.13 4.41 9.73
10/28/2020 5:45:00 AM 10.58 51.044 0.137 7.11 4.2 9.74
10/28/2020 6:00:00 AM 10.57 51.026 0.137 7.11 5 9.76
10/28/2020 6:15:00 AM 10.56 51.008 0.137 7.13 5.93 9.76
10/28/2020 6:30:00 AM 10.55 50.99 0.137 7.12 6.49 9.76
10/28/2020 6:45:00 AM 10.55 50.99 0.138 7.12 6.76 9.77
10/28/2020 7:00:00 AM 10.54 50.972 0.138 7.12 6 9.76
10/28/2020 7:15:00 AM 10.53 50.954 0.136 7.13 5.15 9.78
10/28/2020 7:30:00 AM 10.52 50.936 0.136 7.12 5.11 9.79
10/28/2020 7:45:00 AM 10.52 50.936 0.136 7.13 4.66 9.78
10/28/2020 8:00:00 AM 10.52 50.936 0.136 7.12 4.48 9.8
10/28/2020 8:15:00 AM 10.52 50.936 0.136 7.13 3.96 9.82
10/28/2020 8:30:00 AM 10.53 50.954 0.135 7.14 3.53 9.87
10/28/2020 8:45:00 AM 10.53 50.954 0.135 7.13 3.36 9.91
10/28/2020 9:00:00 AM 10.54 50.972 0.136 7.13 3.42 9.95
10/28/2020 9:15:00 AM 10.55 50.99 0.135 7.15 3.09 10.02
10/28/2020 9:30:00 AM 10.57 51.026 0.135 7.16 3.43 10.11
10/28/2020 9:45:00 AM 10.6 51.08 0.135 7.17 3.84 10.21
10/28/2020 10:00:00 AM 10.64 51.152 0.135 7.19 3.79 10.36
10/28/2020 10:15:00 AM 10.68 51.224 0.135 7.2 3.49 10.49
10/28/2020 10:30:00 AM 10.73 51.314 0.135 7.22 3.44 10.61
10/28/2020 10:45:00 AM 10.75 51.35 0.135 7.23 3.34 10.68
10/28/2020 11:00:00 AM 10.8 51.44 0.135 7.24 3.26 10.75
10/28/2020 11:15:00 AM 10.88 51.584 0.135 7.25 3.63 10.87
10/28/2020 11:30:00 AM 10.96 51.728 0.134 7.28 3.48 10.97
10/28/2020 11:45:00 AM 11 51.8 0.134 7.29 3.65 11.03
10/28/2020 12:00:00 PM 11.04 51.872 0.135 7.29 4.51 11.08
10/28/2020 12:15:00 PM 11.07 51.926 0.135 7.3 3.62 11.14
10/28/2020 12:30:00 PM 11.08 51.944 0.135 7.31 3.66 11.16
10/28/2020 12:45:00 PM 11.14 52.052 0.135 7.31 3.59 11.23
10/28/2020 1:00:00 PM 11.22 52.196 0.135 7.35 3.71 11.32
10/28/2020 1:15:00 PM 11.31 52.358 0.135 7.37 3.66 11.4
10/28/2020 1:30:00 PM 11.38 52.484 0.135 7.38 3.59 11.47
10/28/2020 1:45:00 PM 11.37 52.466 0.135 7.38 3.55 11.48
10/28/2020 2:00:00 PM 11.36 52.448 0.135 7.38 3.47 11.42
10/28/2020 2:15:00 PM 11.37 52.466 0.136 7.37 3.61 11.4
10/28/2020 2:30:00 PM 11.36 52.448 0.136 7.37 3.51 11.36
10/28/2020 2:45:00 PM 11.36 52.448 0.136 7.38 3.31 11.36
10/28/2020 3:00:00 PM 11.39 52.502 0.136 7.38 3.42 11.42
10/28/2020 3:15:00 PM 11.42 52.556 0.136 7.4 3.52 11.46
10/28/2020 3:30:00 PM 11.46 52.628 0.136 7.42 3.45 11.55
10/28/2020 3:45:00 PM 11.51 52.718 0.136 7.44 3.53 11.61
10/28/2020 4:00:00 PM 11.53 52.754 0.137 7.45 3.59 11.64
10/28/2020 4:15:00 PM 11.54 52.772 0.137 7.45 3.46 11.62
10/28/2020 4:30:00 PM 11.56 52.808 0.137 7.46 3.37 11.6
10/28/2020 4:45:00 PM 11.57 52.826 0.137 7.43 3.44 11.59
10/28/2020 5:00:00 PM 11.54 52.772 0.138 7.44 3.32 11.45
10/28/2020 5:15:00 PM 11.5 52.7 0.138 7.41 3.33 11.36
10/28/2020 5:30:00 PM 11.45 52.61 0.138 7.4 3.39 11.28
10/28/2020 5:45:00 PM 11.39 52.502 0.138 7.39 3.55 11.19
10/28/2020 6:00:00 PM 11.33 52.394 0.138 7.37 3.71 11.1
10/28/2020 6:15:00 PM 11.26 52.268 0.138 7.34 3.53 11
10/28/2020 6:30:00 PM 11.2 52.16 0.138 7.33 3.53 10.93
10/28/2020 6:45:00 PM 11.14 52.052 0.137 7.32 3.62 10.86
10/28/2020 7:00:00 PM 11.07 51.926 0.137 7.3 3.66 10.8
10/28/2020 7:15:00 PM 11.01 51.818 0.137 7.3 3.63 10.76
10/28/2020 7:30:00 PM 10.94 51.692 0.136 7.27 3.93 10.7
10/28/2020 7:45:00 PM 10.87 51.566 0.136 7.27 3.4 10.64
10/28/2020 8:00:00 PM 10.81 51.458 0.136 7.26 3.49 10.59
10/28/2020 8:15:00 PM 10.75 51.35 0.135 7.23 3.87 10.53
10/28/2020 8:30:00 PM 10.68 51.224 0.135 7.24 3.6 10.48
10/28/2020 8:45:00 PM 10.61 51.098 0.134 7.23 4.01 10.44
10/28/2020 9:00:00 PM 10.55 50.99 0.134 7.23 3.56 10.4
10/28/2020 9:15:00 PM 10.5 50.9 0.134 7.2 4.1 10.37
10/28/2020 9:30:00 PM 10.46 50.828 0.133 7.21 3.83 10.34
10/28/2020 9:45:00 PM 10.42 50.756 0.133 7.19 3.61 10.32
10/28/2020 10:00:00 PM 10.39 50.702 0.133 7.18 3.66 10.31
10/28/2020 10:15:00 PM 10.36 50.648 0.132 7.19 3.69 10.31
10/28/2020 10:30:00 PM 10.32 50.576 0.132 7.19 3.9 10.31
10/28/2020 10:45:00 PM 10.3 50.54 0.132 7.19 3.54 10.32
10/28/2020 11:00:00 PM 10.27 50.486 0.132 7.18 3.63 10.33
10/28/2020 11:15:00 PM 10.26 50.468 0.132 7.19 3.8 10.34
10/28/2020 11:30:00 PM 10.25 50.45 0.132 7.19 3.73 10.34
10/28/2020 11:45:00 PM 10.24 50.432 0.132 7.18 4.25 10.35
10/29/2020 12:00:00 AM 10.25 50.45 0.132 7.19 3.91 10.35
10/29/2020 12:15:00 AM 10.25 50.45 0.132 7.19 3.67 10.36
10/29/2020 12:30:00 AM 10.25 50.45 0.133 7.18 3.65 10.36
10/29/2020 12:45:00 AM 10.25 50.45 0.133 7.19 3.8 10.36
10/29/2020 1:00:00 AM 10.25 50.45 0.133 7.19 3.79 10.36
10/29/2020 1:15:00 AM 10.24 50.432 0.133 7.19 3.68 10.36
10/29/2020 1:30:00 AM 10.24 50.432 0.133 7.19 3.8 10.36
10/29/2020 1:45:00 AM 10.23 50.414 0.133 7.18 3.64 10.35
10/29/2020 2:00:00 AM 10.23 50.414 0.133 7.18 3.35 10.35
10/29/2020 2:15:00 AM 10.22 50.396 0.133 7.19 3.51 10.34
10/29/2020 2:30:00 AM 10.22 50.396 0.133 7.18 3.62 10.33
10/29/2020 2:45:00 AM 10.2 50.36 0.133 7.18 3.26 10.33
10/29/2020 3:00:00 AM 10.19 50.342 0.133 7.18 3.47 10.32
10/29/2020 3:15:00 AM 10.17 50.306 0.133 7.18 3.22 10.32
10/29/2020 3:30:00 AM 10.15 50.27 0.133 7.16 3.53 10.31
10/29/2020 3:45:00 AM 10.14 50.252 0.133 7.18 3.47 10.3
10/29/2020 4:00:00 AM 10.12 50.216 0.133 7.18 3.46 10.3
10/29/2020 4:15:00 AM 10.1 50.18 0.133 7.18 3.31 10.3
10/29/2020 4:30:00 AM 10.07 50.126 0.133 7.16 3.14 10.29
10/29/2020 4:45:00 AM 10.05 50.09 0.133 7.18 3.52 10.29
10/29/2020 5:00:00 AM 10.03 50.054 0.133 7.17 3.1 10.28
10/29/2020 5:15:00 AM 10.01 50.018 0.133 7.17 3.2 10.29
10/29/2020 5:30:00 AM 9.99 49.982 0.133 7.16 3.28 10.28
10/29/2020 5:45:00 AM 9.97 49.946 0.133 7.17 3.42 10.28
10/29/2020 6:00:00 AM 9.95 49.91 0.133 7.13 3.46 10.28
10/29/2020 6:15:00 AM 9.92 49.856 0.133 7.17 3.49 10.29
10/29/2020 6:30:00 AM 9.9 49.82 0.133 7.17 3.32 10.28
10/29/2020 6:45:00 AM 9.88 49.784 0.133 7.15 3.5 10.28
10/29/2020 7:00:00 AM 9.86 49.748 0.133 7.16 3.43 10.29
10/29/2020 7:15:00 AM 9.85 49.73 0.132 7.16 3.41 10.29
10/29/2020 7:30:00 AM 9.83 49.694 0.132 7.16 3.43 10.3
10/29/2020 7:45:00 AM 9.81 49.658 0.132 7.16 3.31 10.31
10/29/2020 8:00:00 AM 9.8 49.64 0.132 7.15 3.38 10.31
10/29/2020 8:15:00 AM 9.78 49.604 0.132 7.17 3.83 10.34
10/29/2020 8:30:00 AM 9.77 49.586 0.132 7.15 4.02 10.36
10/29/2020 8:45:00 AM 9.76 49.568 0.132 7.17 4.3 10.4
10/29/2020 9:00:00 AM 9.75 49.55 0.131 7.16 3.98 10.43
10/29/2020 9:15:00 AM 9.74 49.532 0.131 7.17 4.12 10.46
10/29/2020 9:30:00 AM 9.73 49.514 0.131 7.18 4.48 10.48
10/29/2020 9:45:00 AM 9.72 49.496 0.131 7.18 6.98 10.52
10/29/2020 10:00:00 AM 9.7 49.46 0.131 7.18 10.61 10.56
10/29/2020 10:15:00 AM 9.69 49.442 0.132 7.19 13.64 10.59
10/29/2020 10:30:00 AM 9.67 49.406 0.132 7.2 23.02 10.63
10/29/2020 10:45:00 AM 9.67 49.406 0.133 7.2 20.61 10.66
10/29/2020 11:00:00 AM 9.65 49.37 0.134 7.18 28.51 10.71
10/29/2020 11:15:00 AM 9.66 49.388 0.133 7.22 26.76 10.75
10/29/2020 11:30:00 AM 9.67 49.406 0.133 7.19 25.85 10.78
10/29/2020 11:45:00 AM 9.66 49.388 0.132 7.23 30.97 10.82
10/29/2020 12:00:00 PM 9.67 49.406 0.133 7.24 31.62 10.86
10/29/2020 12:15:00 PM 9.7 49.46 0.134 7.22 20.84 10.9
10/29/2020 12:30:00 PM 9.72 49.496 0.136 7.26 17.58 10.92
10/29/2020 12:45:00 PM 9.73 49.514 0.137 7.24 27.51 10.92
10/29/2020 1:00:00 PM 9.75 49.55 0.139 7.27 21.32 10.93
10/29/2020 1:15:00 PM 9.78 49.604 0.141 7.27 23.16 10.94
10/29/2020 1:30:00 PM 9.79 49.622 0.143 7.26 35.56 10.92
10/29/2020 1:45:00 PM 9.8 49.64 0.146 7.28 20.46 10.91
10/29/2020 2:00:00 PM 9.81 49.658 0.149 7.29 24.91 10.92
10/29/2020 2:15:00 PM 9.81 49.658 0.151 7.26 25.53 10.91
10/29/2020 2:30:00 PM 9.77 49.586 0.152 7.29 26.37 10.92
10/29/2020 2:45:00 PM 9.75 49.55 0.153 7.25 26.94 10.91
10/29/2020 3:00:00 PM 9.72 49.496 0.152 7.28 24.8 10.91
10/29/2020 3:15:00 PM 9.69 49.442 0.151 7.27 21.95 10.89
10/29/2020 3:30:00 PM 9.66 49.388 0.149 7.28 24.82 10.87
10/29/2020 3:45:00 PM 9.65 49.37 0.147 7.24 20.07 10.85
10/29/2020 4:00:00 PM 9.63 49.334 0.144 7.27 18.48 10.88
10/29/2020 4:15:00 PM 9.61 49.298 0.141 7.24 19.25 10.89
10/29/2020 4:30:00 PM 9.6 49.28 0.139 7.27 19.14 10.91
10/29/2020 4:45:00 PM 9.59 49.262 0.136 7.23 22.19 10.91
10/29/2020 5:00:00 PM 9.59 49.262 0.134 7.25 26.36 10.91
10/29/2020 5:15:00 PM 9.59 49.262 0.133 7.22 27.45 10.89
10/29/2020 5:30:00 PM 9.56 49.208 0.131 7.23 26.4 10.88
10/29/2020 5:45:00 PM 9.54 49.172 0.129 7.21 27.78 10.72
10/29/2020 6:00:00 PM 9.48 49.064 0.128 7.21 28.53 10.78
10/29/2020 6:15:00 PM 9.45 49.01 0.127 7.15 33.72 10.72
10/29/2020 6:30:00 PM 9.43 48.974 0.125 7.17 28.09 10.62
10/29/2020 6:45:00 PM 9.41 48.938 0.123 7.15 26.07 10.73
10/29/2020 7:00:00 PM 9.41 48.938 0.121 7.18 29.76 10.72
10/29/2020 7:15:00 PM 9.41 48.938 0.117 7.18 73.8 10.94
10/29/2020 7:30:00 PM 9.41 48.938 0.115 7.22 46.68 10.98
10/29/2020 7:45:00 PM 9.4 48.92 0.112 7.18 56.41 10.98
10/29/2020 8:00:00 PM 9.38 48.884 0.11 7.2 42.38 10.97
10/29/2020 8:15:00 PM 9.36 48.848 0.108 7.17 93.74 10.91
10/29/2020 8:30:00 PM 9.33 48.794 0.107 7.18 48.48 10.97
10/29/2020 8:45:00 PM 9.3 48.74 0.106 7.12 54.53 10.94
10/29/2020 9:00:00 PM 9.28 48.704 0.104 7.19 52.75 10.99
10/29/2020 9:15:00 PM 9.25 48.65 0.103 7.11 50.79 10.99
10/29/2020 9:30:00 PM 9.23 48.614 0.102 7.11 57.46 10.98
10/29/2020 9:45:00 PM 9.21 48.578 0.101 7.11 48.03 10.99
10/29/2020 10:00:00 PM 9.2 48.56 0.1 7.11 55.09 10.99
10/29/2020 10:15:00 PM 9.18 48.524 0.1 7.08 43.74 10.98
10/29/2020 10:30:00 PM 9.16 48.488 0.099 7.08 48.43 10.97
10/29/2020 10:45:00 PM 9.14 48.452 0.099 7.08 43.24 10.99
10/29/2020 11:00:00 PM 9.12 48.416 0.099 7.08 38.82 10.99
10/29/2020 11:15:00 PM 9.1 48.38 0.099 7.03 50.82 10.99
10/29/2020 11:30:00 PM 9.09 48.362 0.1 7.06 37.43 10.96
10/29/2020 11:45:00 PM 9.07 48.326 0.101 7.04 34.47 10.97
10/30/2020 12:00:00 AM 9.06 48.308 0.102 7.06 36.41 10.96
10/30/2020 12:15:00 AM 9.04 48.272 0.102 7.05 34.19 10.98
10/30/2020 12:30:00 AM 9.03 48.254 0.102 7.06 30.95 10.99
10/30/2020 12:45:00 AM 9.02 48.236 0.102 7.05 30.87 10.95
10/30/2020 1:00:00 AM 9 48.2 0.103 7.03 27.41 10.93
10/30/2020 1:15:00 AM 8.99 48.182 0.102 7.03 28.53 10.95
10/30/2020 1:30:00 AM 8.97 48.146 0.102 7.03 33.06 10.76
10/30/2020 1:45:00 AM 8.95 48.11 0.101 7.04 28.73 10.92
10/30/2020 2:00:00 AM 8.93 48.074 0.102 7.05 30.64 10.95
10/30/2020 2:15:00 AM 8.91 48.038 0.102 7.04 24.55 10.96
10/30/2020 2:30:00 AM 8.89 48.002 0.102 7.01 24.93 10.96
10/30/2020 2:45:00 AM 8.87 47.966 0.101 7.05 23.19 10.99
10/30/2020 3:00:00 AM 8.85 47.93 0.101 7.05 36.61 10.99
10/30/2020 3:15:00 AM 8.83 47.894 0.1 7.05 19.93 10.99
10/30/2020 3:30:00 AM 8.82 47.876 0.1 7.03 21.4 11
10/30/2020 3:45:00 AM 8.79 47.822 0.086 7.01 21.62 10.91
10/30/2020 4:00:00 AM 8.77 47.786 0.1 7.05 21.74 10.99
10/30/2020 4:15:00 AM 8.74 47.732 0.099 7.05 20.93 11.03
10/30/2020 4:30:00 AM 8.72 47.696 0.099 7.03 20.32 11.01
10/30/2020 4:45:00 AM 8.69 47.642 0.099 7.05 18.6 11.05
10/30/2020 5:00:00 AM 8.67 47.606 0.099 7.03 18.32 11.04
10/30/2020 5:15:00 AM 8.65 47.57 0.099 7.05 21.6 11.03
10/30/2020 5:30:00 AM 8.6 47.48 0.099 7.04 30.29 11.04
10/30/2020 5:45:00 AM 8.54 47.372 0.099 7.03 18.15 11.07
10/30/2020 6:00:00 AM 8.44 47.192 0.099 7.04 28.6 11.1
10/30/2020 6:15:00 AM 8.36 47.048 0.1 7.07 20.6 11.08
10/30/2020 6:30:00 AM 8.3 46.94 0.1 6.99 20.24 11.08
10/30/2020 6:45:00 AM 8.24 46.832 0.1 7.04 18.78 11.13
10/30/2020 7:00:00 AM 8.2 46.76 0.1 7.02 17.99 11.15
10/30/2020 7:15:00 AM 8.17 46.706 0.1 7.04 18.1 11.19
10/30/2020 7:30:00 AM 8.14 46.652 0.1 7.01 21.04 11.2
10/30/2020 7:45:00 AM 8.12 46.616 0.099 7.02 17.2 11.18
10/30/2020 8:00:00 AM 8.09 46.562 0.1 7.01 16.43 11.19
10/30/2020 8:15:00 AM 8.07 46.526 0.099 7.03 18.43 11.17
10/30/2020 8:30:00 AM 8.05 46.49 0.099 7.02 17.83 11.22
10/30/2020 8:45:00 AM 8.04 46.472 0.099 7.02 17.55 11.22
10/30/2020 9:00:00 AM 8.03 46.454 0.099 7.02 17.68 11.18
10/30/2020 9:15:00 AM 8.02 46.436 0.099 7.01 18.04 11.24
10/30/2020 9:30:00 AM 8.01 46.418 0.099 7.03 16.38 11.27
10/30/2020 9:45:00 AM 8 46.4 0.098 7.02 15.86 11.25
10/30/2020 10:00:00 AM 7.99 46.382 0.098 7.04 14.58 11.3
10/30/2020 10:15:00 AM 8.01 46.418 0.098 7.01 13.36 11.34
10/30/2020 10:30:00 AM 8.01 46.418 0.098 7.02 13.45 11.34
10/30/2020 10:45:00 AM 8.02 46.436 0.099 6.99 14.42 11.3
10/30/2020 11:00:00 AM 8.02 46.436 0.098 7.04 13.29 11.33
10/30/2020 11:15:00 AM 8.02 46.436 0.099 6.99 13.9 11.34
10/30/2020 11:30:00 AM 8.04 46.472 0.099 7.02 13.13 11.4
10/30/2020 11:45:00 AM 8.07 46.526 0.099 7.04 12.48 11.35
10/30/2020 12:00:00 PM 8.08 46.544 0.1 6.98 12.46 11.37
10/30/2020 12:15:00 PM 8.09 46.562 0.1 7.03 13.12 11.4
10/30/2020 12:30:00 PM 8.11 46.598 0.1 7.03 12.94 11.37
10/30/2020 12:45:00 PM 8.11 46.598 0.099 7.03 12.02 11.35
10/30/2020 1:00:00 PM 8.11 46.598 0.1 7.04 11.97 11.41
10/30/2020 1:15:00 PM 8.15 46.67 0.099 7 11.62 11.45
10/30/2020 1:30:00 PM 8.18 46.724 0.1 7.03 10.86 11.48
10/30/2020 1:45:00 PM 8.21 46.778 0.1 7.05 11.28 11.49
10/30/2020 2:00:00 PM 8.29 46.922 0.1 7.02 10.99 11.46
10/30/2020 2:15:00 PM 8.37 47.066 0.1 7.06 9.91 11.46
10/30/2020 2:30:00 PM 8.4 47.12 0.1 7.07 10.23 11.42
10/30/2020 2:45:00 PM 8.4 47.12 0.1 7.06 10.65 11.46
10/30/2020 3:00:00 PM 8.45 47.21 0.1 7.07 10.27 11.45
10/30/2020 3:15:00 PM 8.49 47.282 0.1 7.07 9.85 11.46
10/30/2020 3:30:00 PM 8.5 47.3 0.1 7.05 10.28 11.49
10/30/2020 3:45:00 PM 8.47 47.246 0.1 7.05 10.23 11.46
10/30/2020 4:00:00 PM 8.43 47.174 0.1 7.05 9.06 11.42
10/30/2020 4:15:00 PM 8.44 47.192 0.1 7.07 9.51 11.49
10/30/2020 4:30:00 PM 8.44 47.192 0.1 7.06 9.9 11.44
10/30/2020 4:45:00 PM 8.41 47.138 0.1 7.02 8.85 11.43
10/30/2020 5:00:00 PM 8.36 47.048 0.1 7.04 9.99 11.46
10/30/2020 5:15:00 PM 8.33 46.994 0.1 7.04 8.58 11.43
10/30/2020 5:30:00 PM 8.31 46.958 0.1 7.03 9.53 11.4
10/30/2020 5:45:00 PM 8.3 46.94 0.1 7.03 12.06 11.35
10/30/2020 6:00:00 PM 8.28 46.904 0.1 7.03 10.13 11.41
10/30/2020 6:15:00 PM 8.24 46.832 0.099 7.03 8.89 11.43
10/30/2020 6:30:00 PM 8.22 46.796 0.1 7.03 13.63 11.28
10/30/2020 6:45:00 PM 8.18 46.724 0.1 7.01 9.06 11.39
10/30/2020 7:00:00 PM 8.14 46.652 0.1 7.04 9.52 11.39
10/30/2020 7:15:00 PM 8.09 46.562 0.099 7.02 9.22 11.39
10/30/2020 7:30:00 PM 8.05 46.49 0.099 7.02 9.55 11.37
10/30/2020 7:45:00 PM 8.01 46.418 0.099 7.02 9.05 11.39
10/30/2020 8:00:00 PM 7.97 46.346 0.1 7.02 9.09 11.37
10/30/2020 8:15:00 PM 7.94 46.292 0.1 7 8.59 11.37
10/30/2020 8:30:00 PM 7.9 46.22 0.1 7.02 9.56 11.39
10/30/2020 8:45:00 PM 7.88 46.184 0.1 6.99 8.88 11.36
10/30/2020 9:00:00 PM 7.85 46.13 0.1 7.01 9.45 11.38
10/30/2020 9:15:00 PM 7.83 46.094 0.1 6.99 9.34 11.34
10/30/2020 9:30:00 PM 7.79 46.022 0.1 6.99 8.07 11.37
10/30/2020 9:45:00 PM 7.75 45.95 0.1 6.98 7.97 11.42
10/30/2020 10:00:00 PM 7.72 45.896 0.101 7 7.95 11.42
10/30/2020 10:15:00 PM 7.68 45.824 0.1 6.97 8.5 11.42
10/30/2020 10:30:00 PM 7.65 45.77 0.1 7 7.81 11.42
10/30/2020 10:45:00 PM 7.63 45.734 0.101 7 8.42 11.42
10/30/2020 11:00:00 PM 7.6 45.68 0.101 6.95 8.59 11.44
10/30/2020 11:15:00 PM 7.57 45.626 0.101 7 7.72 11.45
10/30/2020 11:30:00 PM 7.55 45.59 0.101 6.98 7.76 11.45
10/30/2020 11:45:00 PM 7.53 45.554 0.101 6.99 7.81 11.43
10/31/2020 12:00:00 AM 7.5 45.5 0.101 6.94 7.84 11.46
10/31/2020 12:15:00 AM 7.47 45.446 0.101 6.98 7.93 11.47
10/31/2020 12:30:00 AM 7.44 45.392 0.101 6.95 8.56 11.46
10/31/2020 12:45:00 AM 7.42 45.356 0.101 6.97 8.1 11.47
10/31/2020 1:00:00 AM 7.39 45.302 0.101 6.98 7.9 11.51
10/31/2020 1:15:00 AM 7.36 45.248 0.101 6.98 7.83 11.48
10/31/2020 1:30:00 AM 7.32 45.176 0.101 6.94 7.51 11.46
10/31/2020 1:45:00 AM 7.28 45.104 0.101 6.98 8.39 11.49
10/31/2020 2:00:00 AM 7.24 45.032 0.101 6.98 6.96 11.47
10/31/2020 2:15:00 AM 7.2 44.96 0.101 6.96 13.59 11.38
10/31/2020 2:30:00 AM 7.15 44.87 0.102 6.96 9.74 11.5
10/31/2020 2:45:00 AM 7.11 44.798 0.102 6.98 7.06 11.5
10/31/2020 3:00:00 AM 7.06 44.708 0.102 6.93 7.07 11.55
10/31/2020 3:15:00 AM 7.03 44.654 0.102 6.94 7 11.52
10/31/2020 3:30:00 AM 6.98 44.564 0.102 6.97 6.65 11.56
10/31/2020 3:45:00 AM 6.95 44.51 0.102 6.93 6.8 11.56
10/31/2020 4:00:00 AM 6.91 44.438 0.102 6.98 6.95 11.56
10/31/2020 4:15:00 AM 6.87 44.366 0.102 6.97 6.8 11.56
10/31/2020 4:30:00 AM 6.83 44.294 0.102 6.97 6.26 11.53
10/31/2020 4:45:00 AM 6.78 44.204 0.102 6.98 6.32 11.58
10/31/2020 5:00:00 AM 6.76 44.168 0.102 6.98 6.36 11.61
10/31/2020 5:15:00 AM 6.72 44.096 0.102 6.97 6.95 11.61
10/31/2020 5:30:00 AM 6.69 44.042 0.103 6.97 6.75 11.56
10/31/2020 5:45:00 AM 6.65 43.97 0.103 6.92 6.19 11.61
10/31/2020 6:00:00 AM 6.61 43.898 0.103 6.97 6.55 11.6
10/31/2020 6:15:00 AM 6.58 43.844 0.103 6.96 6 11.62
10/31/2020 6:30:00 AM 6.54 43.772 0.103 6.96 6.47 11.65
10/31/2020 6:45:00 AM 6.51 43.718 0.103 6.93 6.36 11.6
10/31/2020 7:00:00 AM 6.46 43.628 0.103 6.97 5.74 11.68
10/31/2020 7:15:00 AM 6.45 43.61 0.103 6.97 6.26 11.63
10/31/2020 7:30:00 AM 6.4 43.52 0.103 6.95 6.11 11.67
10/31/2020 7:45:00 AM 6.38 43.484 0.103 6.97 5.49 11.67
10/31/2020 8:00:00 AM 6.32 43.376 0.104 6.96 5.5 11.75
10/31/2020 8:15:00 AM 6.3 43.34 0.104 6.97 8.87 11.69
10/31/2020 8:30:00 AM 6.28 43.304 0.104 6.98 8.89 11.72
10/31/2020 8:45:00 AM 6.27 43.286 0.104 6.98 6.57 11.81
10/31/2020 9:00:00 AM 6.24 43.232 0.104 6.95 6.04 11.89
10/31/2020 9:15:00 AM 6.23 43.214 0.104 6.99 5.63 11.87
10/31/2020 9:30:00 AM 6.24 43.232 0.104 6.96 5.45 11.93
10/31/2020 9:45:00 AM 6.24 43.232 0.104 7 5.7 11.97
10/31/2020 10:00:00 AM 6.27 43.286 0.104 7.01 5.54 11.97
10/31/2020 10:15:00 AM 6.3 43.34 0.104 7 5.56 11.98
10/31/2020 10:30:00 AM 6.33 43.394 0.104 7 5.64 12.03
10/31/2020 10:45:00 AM 6.4 43.52 0.104 7.02 5.47 12.05
10/31/2020 11:00:00 AM 6.51 43.718 0.104 7.03 5.2 12.09
10/31/2020 11:15:00 AM 6.66 43.988 0.105 7.01 5.62 12.08
10/31/2020 11:30:00 AM 6.66 43.988 0.105 7.02 5.7 12.05
10/31/2020 11:45:00 AM 6.74 44.132 0.105 7.01 4.9 12.11
10/31/2020 12:00:00 PM 6.91 44.438 0.105 7.04 5.05 12.1
10/31/2020 12:15:00 PM 6.95 44.51 0.105 7.04 5.27 12.15
10/31/2020 12:30:00 PM 6.99 44.582 0.105 7.04 5.14 12.16
10/31/2020 12:45:00 PM 7.05 44.69 0.105 7.04 5.31 12.16
10/31/2020 1:00:00 PM 7.09 44.762 0.105 7.05 5.22 12.16
10/31/2020 1:15:00 PM 7.12 44.816 0.105 7.01 5.13 12.16
10/31/2020 1:30:00 PM 7.16 44.888 0.105 7.04 4.76 12.17
10/31/2020 1:45:00 PM 7.18 44.924 0.105 7.06 5.07 12.17
10/31/2020 2:00:00 PM 7.19 44.942 0.105 7.05 5.05 12.18
10/31/2020 2:15:00 PM 7.23 45.014 0.105 7.06 4.67 12.17
10/31/2020 2:30:00 PM 7.26 45.068 0.105 7.06 4.71 12.18
10/31/2020 2:45:00 PM 7.28 45.104 0.105 7.06 4.46 12.17
10/31/2020 3:00:00 PM 7.3 45.14 0.105 7.03 4.64 12.18
10/31/2020 3:15:00 PM 7.34 45.212 0.106 7.07 4.66 12.16
10/31/2020 3:30:00 PM 7.38 45.284 0.106 7.05 4.69 12.14
10/31/2020 3:45:00 PM 7.43 45.374 0.106 7.07 4.88 12.14
10/31/2020 4:00:00 PM 7.46 45.428 0.106 7.04 4.64 12.13
10/31/2020 4:15:00 PM 7.46 45.428 0.106 7.07 4.53 12.1
10/31/2020 4:30:00 PM 7.47 45.446 0.106 7.06 4.5 12.1
10/31/2020 4:45:00 PM 7.46 45.428 0.106 7.06 4.58 12.08
10/31/2020 5:00:00 PM 7.43 45.374 0.106 7.05 4.71 12.06
10/31/2020 5:15:00 PM 7.39 45.302 0.106 7.06 4.46 12.03
10/31/2020 5:30:00 PM 7.36 45.248 0.106 7.05 4.71 11.99
10/31/2020 5:45:00 PM 7.33 45.194 0.106 7.06 4.7 11.95
10/31/2020 6:00:00 PM 7.3 45.14 0.106 7.04 4.4 11.93
10/31/2020 6:15:00 PM 7.28 45.104 0.106 7.05 4.62 11.89
10/31/2020 6:30:00 PM 7.26 45.068 0.107 7.01 4.59 11.82
10/31/2020 6:45:00 PM 7.24 45.032 0.107 7.04 4.16 11.82
10/31/2020 7:00:00 PM 7.22 44.996 0.107 7.04 4.56 11.78
10/31/2020 7:15:00 PM 7.19 44.942 0.107 7.03 4.51 11.78
10/31/2020 7:30:00 PM 7.16 44.888 0.107 7.03 4.33 11.76
10/31/2020 7:45:00 PM 7.14 44.852 0.107 7.03 4.37 11.73
10/31/2020 8:00:00 PM 7.11 44.798 0.107 7.02 4.91 11.72
10/31/2020 8:15:00 PM 7.09 44.762 0.107 7.03 4.47 11.71
10/31/2020 8:30:00 PM 7.07 44.726 0.107 7.02 4.22 11.69
10/31/2020 8:45:00 PM 7.05 44.69 0.107 7 4.52 11.68
10/31/2020 9:00:00 PM 7.04 44.672 0.107 7 4.66 11.67
10/31/2020 9:15:00 PM 7.02 44.636 0.107 7.01 4.65 11.65
10/31/2020 9:30:00 PM 6.99 44.582 0.108 7.02 4.63 11.65
10/31/2020 9:45:00 PM 6.97 44.546 0.108 7.01 4.76 11.65
10/31/2020 10:00:00 PM 6.94 44.492 0.108 7.02 4.42 11.64
10/31/2020 10:15:00 PM 6.91 44.438 0.108 7.02 4.81 11.64
10/31/2020 10:30:00 PM 6.87 44.366 0.108 7.01 4.54 11.64
10/31/2020 10:45:00 PM 6.84 44.312 0.108 6.96 4.65 11.63
10/31/2020 11:00:00 PM 6.8 44.24 0.108 7.01 4.74 11.63
10/31/2020 11:15:00 PM 6.76 44.168 0.108 7 4.49 11.64
10/31/2020 11:30:00 PM 6.72 44.096 0.108 7.01 4.72 11.65
10/31/2020 11:45:00 PM 6.68 44.024 0.108 7 4.8 11.64
11/1/2020 12:00:00 AM 6.63 43.934 0.109 7.01 4.54 11.66
11/1/2020 12:15:00 AM 6.59 43.862 0.109 7.01 4.63 11.65
11/1/2020 12:30:00 AM 6.55 43.79 0.109 6.97 4.58 11.67
11/1/2020 12:45:00 AM 6.51 43.718 0.109 7.01 4.64 11.66
11/1/2020 1:00:00 AM 6.47 43.646 0.109 7 4.42 11.68
11/1/2020 1:15:00 AM 6.44 43.592 0.109 7 4.62 11.68
11/1/2020 1:30:00 AM 6.4 43.52 0.109 7 4.69 11.69
11/1/2020 1:45:00 AM 6.36 43.448 0.109 7 4.63 11.69
11/1/2020 2:00:00 AM 6.33 43.394 0.109 7 4.54 11.7
11/1/2020 2:15:00 AM 6.29 43.322 0.109 7 4.32 11.72
11/1/2020 2:30:00 AM 6.27 43.286 0.11 7.01 4.59 11.72
11/1/2020 2:45:00 AM 6.25 43.25 0.11 6.99 4.55 11.72
11/1/2020 3:00:00 AM 6.25 43.25 0.11 7.01 4.21 11.72
11/1/2020 3:15:00 AM 6.24 43.232 0.11 7.01 4.38 11.73
11/1/2020 3:30:00 AM 6.24 43.232 0.11 7.01 4.66 11.73
11/1/2020 3:45:00 AM 6.24 43.232 0.11 7.01 4.3 11.74
11/1/2020 4:00:00 AM 6.24 43.232 0.11 7.01 4.42 11.74
11/1/2020 4:15:00 AM 6.23 43.214 0.11 7.01 4.25 11.74
11/1/2020 4:30:00 AM 6.23 43.214 0.11 7.01 4.17 11.74
11/1/2020 4:45:00 AM 6.23 43.214 0.11 7 4.6 11.74
11/1/2020 5:00:00 AM 6.22 43.196 0.11 6.98 4.41 11.73
11/1/2020 5:15:00 AM 6.22 43.196 0.11 7 4.54 11.74
11/1/2020 5:30:00 AM 6.23 43.214 0.11 7.01 4.2 11.74
11/1/2020 5:45:00 AM 6.24 43.232 0.11 7.01 4.44 11.72
11/1/2020 6:00:00 AM 6.24 43.232 0.11 7 4.42 11.73
11/1/2020 6:15:00 AM 6.24 43.232 0.11 7 4.88 11.73
11/1/2020 6:30:00 AM 6.25 43.25 0.11 7.01 4.16 11.71
11/1/2020 6:45:00 AM 6.26 43.268 0.11 7.01 4.3 11.72
11/1/2020 7:00:00 AM 6.27 43.286 0.11 7 4.16 11.73
11/1/2020 7:15:00 AM 6.29 43.322 0.11 7.01 6.31 11.7
11/1/2020 7:30:00 AM 6.31 43.358 0.11 7.02 3.98 11.74
11/1/2020 7:45:00 AM 6.33 43.394 0.111 7.02 4.15 11.76
11/1/2020 8:00:00 AM 6.35 43.43 0.111 7.01 4.29 11.78
11/1/2020 8:15:00 AM 6.38 43.484 0.111 7.03 4.12 11.79
11/1/2020 8:30:00 AM 6.41 43.538 0.111 7.03 4.2 11.82
11/1/2020 8:45:00 AM 6.44 43.592 0.112 7.01 4.19 11.84
11/1/2020 9:00:00 AM 6.46 43.628 0.112 7.04 4.49 11.85
11/1/2020 9:15:00 AM 6.49 43.682 0.112 7.04 4.09 11.86
11/1/2020 9:30:00 AM 6.53 43.754 0.111 7.02 4.16 11.89
11/1/2020 9:45:00 AM 6.57 43.826 0.112 7.06 4.04 11.91
11/1/2020 10:00:00 AM 6.64 43.952 0.111 7.05 3.89 11.94
11/1/2020 10:15:00 AM 6.73 44.114 0.111 7.04 3.81 11.96
11/1/2020 10:30:00 AM 6.81 44.258 0.111 7.06 3.75 11.98
11/1/2020 10:45:00 AM 6.85 44.33 0.111 7.07 3.95 11.98
11/1/2020 11:00:00 AM 6.89 44.402 0.111 7.08 3.73 12
11/1/2020 11:15:00 AM 6.91 44.438 0.111 7.07 3.58 11.97
11/1/2020 11:30:00 AM 6.93 44.474 0.111 7.07 3.67 11.93
11/1/2020 11:45:00 AM 6.97 44.546 0.111 7.07 3.83 11.93
11/1/2020 12:00:00 PM 7 44.6 0.111 7.08 4.19 11.92
11/1/2020 12:15:00 PM 7.02 44.636 0.111 7.08 4.13 11.89
11/1/2020 12:30:00 PM 7.05 44.69 0.111 7.07 4.54 11.9
11/1/2020 12:45:00 PM 7.06 44.708 0.111 7.08 5.04 11.89
11/1/2020 1:00:00 PM 7.09 44.762 0.112 7.08 8.68 11.86
11/1/2020 1:15:00 PM 7.13 44.834 0.111 7.08 5.91 11.88
11/1/2020 1:30:00 PM 7.2 44.96 0.111 7.08 4.21 11.89
11/1/2020 1:45:00 PM 7.26 45.068 0.111 7.08 4.19 11.9
11/1/2020 2:00:00 PM 7.33 45.194 0.111 7.1 3.95 11.91
11/1/2020 2:15:00 PM 7.39 45.302 0.111 7.11 4.25 11.91
11/1/2020 2:30:00 PM 7.43 45.374 0.111 7.1 4.76 11.88
11/1/2020 2:45:00 PM 7.46 45.428 0.112 7.1 4.62 11.84
11/1/2020 3:00:00 PM 7.49 45.482 0.112 7.09 7.71 11.8
11/1/2020 3:15:00 PM 7.51 45.518 0.112 7.09 9.43 11.76
11/1/2020 3:30:00 PM 7.53 45.554 0.112 7.07 11.27 11.72
11/1/2020 3:45:00 PM 7.55 45.59 0.112 7.08 6.58 11.67
11/1/2020 4:00:00 PM 7.56 45.608 0.113 7.08 4.97 11.65
11/1/2020 4:15:00 PM 7.57 45.626 0.113 7.07 5.69 11.62
11/1/2020 4:30:00 PM 7.55 45.59 0.114 7.08 6.28 11.58
11/1/2020 4:45:00 PM 7.55 45.59 0.114 7.08 6.59 11.56
11/1/2020 5:00:00 PM 7.55 45.59 0.115 7.06 7.08 11.54
11/1/2020 5:15:00 PM 7.54 45.572 0.116 7.07 6.21 11.51
11/1/2020 5:30:00 PM 7.53 45.554 0.116 7.07 6.59 11.48
11/1/2020 5:45:00 PM 7.52 45.536 0.117 7.07 5.92 11.46
11/1/2020 6:00:00 PM 7.51 45.518 0.117 7.07 6.01 11.44
11/1/2020 6:15:00 PM 7.51 45.518 0.118 7.07 5.64 11.42
11/1/2020 6:30:00 PM 7.52 45.536 0.118 7.07 5.19 11.42
11/1/2020 6:45:00 PM 7.52 45.536 0.118 7.07 5.54 11.41
11/1/2020 7:00:00 PM 7.5 45.5 0.118 7.07 5.43 11.4
11/1/2020 7:15:00 PM 7.49 45.482 0.118 7.06 5.35 11.39
11/1/2020 7:30:00 PM 7.48 45.464 0.118 7.07 5.03 11.37
11/1/2020 7:45:00 PM 7.47 45.446 0.118 7.07 4.73 11.37
11/1/2020 8:00:00 PM 7.45 45.41 0.118 7.07 4.79 11.37
11/1/2020 8:15:00 PM 7.3 45.14 0.118 7.06 7.26 11.39
11/1/2020 8:30:00 PM 7.29 45.122 0.117 7.07 5.5 11.36
11/1/2020 8:45:00 PM 7.26 45.068 0.117 7.06 5.25 11.37
11/1/2020 9:00:00 PM 7.2 44.96 0.117 7.07 5.02 11.38
11/1/2020 9:15:00 PM 7.16 44.888 0.117 7.07 5.84 11.37
11/1/2020 9:30:00 PM 7.13 44.834 0.117 7.07 4.69 11.34
11/1/2020 9:45:00 PM 7.09 44.762 0.117 7.05 4.86 11.41
11/1/2020 10:00:00 PM 7.07 44.726 0.117 7.06 5.02 11.39
11/1/2020 10:15:00 PM 7.03 44.654 0.117 7.07 5.26 11.4
11/1/2020 10:30:00 PM 7 44.6 0.117 7.04 5.42 11.42
11/1/2020 10:45:00 PM 6.96 44.528 0.117 7.07 5.21 11.44
11/1/2020 11:00:00 PM 6.92 44.456 0.117 7.07 5.46 11.42
11/1/2020 11:15:00 PM 6.9 44.42 0.117 7.06 5.24 11.41
11/1/2020 11:30:00 PM 6.87 44.366 0.117 7.03 5.73 11.39
11/1/2020 11:45:00 PM 6.84 44.312 0.117 7.06 6.04 11.4
11/2/2020 12:00:00 AM 6.8 44.24 0.117 7.06 6 11.45
11/2/2020 12:15:00 AM 6.79 44.222 0.117 7.06 6.62 11.41
11/2/2020 12:30:00 AM 6.76 44.168 0.117 7.05 5.44 11.41
11/2/2020 12:45:00 AM 6.74 44.132 0.117 7.06 5.74 11.44
11/2/2020 1:00:00 AM 6.71 44.078 0.117 7.05 5.84 11.43
11/2/2020 1:15:00 AM 6.68 44.024 0.117 7.05 6.26 11.47
11/2/2020 1:30:00 AM 6.65 43.97 0.116 7.05 5.71 11.47
11/2/2020 1:45:00 AM 6.63 43.934 0.116 7.05 6.46 11.47
11/2/2020 2:00:00 AM 6.6 43.88 0.116 7.05 5.54 11.49
11/2/2020 2:15:00 AM 6.57 43.826 0.116 7.06 6.14 11.48
11/2/2020 2:30:00 AM 6.55 43.79 0.115 7.05 5.83 11.5
11/2/2020 2:45:00 AM 6.53 43.754 0.115 7.06 5.99 11.54
11/2/2020 3:00:00 AM 6.52 43.736 0.115 7.01 5.66 11.51
11/2/2020 3:15:00 AM 6.48 43.664 0.115 7.04 6.04 11.51
11/2/2020 3:30:00 AM 6.44 43.592 0.114 7.06 7.57 11.54
11/2/2020 3:45:00 AM 6.41 43.538 0.114 7.05 7.35 11.56
11/2/2020 4:00:00 AM 6.38 43.484 0.114 7.05 5.22 11.55
11/2/2020 4:15:00 AM 6.35 43.43 0.113 7.05 5.42 11.58
11/2/2020 4:30:00 AM 6.31 43.358 0.113 7.05 5.24 11.58
11/2/2020 4:45:00 AM 6.28 43.304 0.113 7.04 5.35 11.58
11/2/2020 5:00:00 AM 6.24 43.232 0.113 7.03 5.13 11.6
11/2/2020 5:15:00 AM 6.2 43.16 0.113 7.05 6.32 11.64
11/2/2020 5:30:00 AM 6.17 43.106 0.113 7.05 5.42 11.65
11/2/2020 5:45:00 AM 6.13 43.034 0.112 7.04 4.87 11.66
11/2/2020 6:00:00 AM 6.1 42.98 0.112 7.03 4.77 11.68
11/2/2020 6:15:00 AM 6.06 42.908 0.112 7.05 5.07 11.69
11/2/2020 6:30:00 AM 6.02 42.836 0.112 7.05 4.88 11.71
11/2/2020 6:45:00 AM 5.98 42.764 0.112 7.05 5.31 11.72
11/2/2020 7:00:00 AM 5.94 42.692 0.112 7.05 5 11.74
11/2/2020 7:15:00 AM 5.91 42.638 0.112 7.05 4.79 11.76
11/2/2020 7:30:00 AM 5.88 42.584 0.112 7.05 4.73 11.82
11/2/2020 7:45:00 AM 5.85 42.53 0.112 7.05 4.68 11.86
11/2/2020 8:00:00 AM 5.81 42.458 0.112 7.05 4.99 11.89
11/2/2020 8:15:00 AM 5.79 42.422 0.112 7.05 4.88 11.96
11/2/2020 8:30:00 AM 5.78 42.404 0.112 7.07 4.65 12.01
11/2/2020 8:45:00 AM 5.78 42.404 0.112 7.08 4.41 12.05
11/2/2020 9:00:00 AM 5.76 42.368 0.112 7.08 4.45 12.1
11/2/2020 9:15:00 AM 5.77 42.386 0.111 7.09 4.54 12.13
11/2/2020 9:30:00 AM 5.71 42.278 0.111 7.09 4.85 12.16
11/2/2020 9:45:00 AM 5.71 42.278 0.111 7.09 4.21 12.19
11/2/2020 10:00:00 AM 5.75 42.35 0.111 7.1 4.33 12.23
11/2/2020 10:15:00 AM 5.77 42.386 0.112 7.08 4.49 12.25
11/2/2020 10:30:00 AM 5.81 42.458 0.112 7.1 4.69 12.29
11/2/2020 10:45:00 AM 5.89 42.602 0.112 7.11 4.3 12.32
11/2/2020 11:00:00 AM 5.95 42.71 0.112 7.12 4.4 12.35
11/2/2020 11:15:00 AM 5.99 42.782 0.112 7.12 4.27 12.33
11/2/2020 11:30:00 AM 6.09 42.962 0.111 7.12 4.44 12.39
11/2/2020 11:45:00 AM 6.16 43.088 0.111 7.14 4.22 12.4
11/2/2020 12:00:00 PM 6.27 43.286 0.111 7.14 4.31 12.4
11/2/2020 12:15:00 PM 6.41 43.538 0.112 7.15 4.29 12.41
11/2/2020 12:30:00 PM 6.49 43.682 0.112 7.14 4.35 12.4
11/2/2020 12:45:00 PM 6.5 43.7 0.111 7.15 4.37 12.4
11/2/2020 1:00:00 PM 6.55 43.79 0.112 7.1 4.06 12.4
11/2/2020 1:15:00 PM 6.59 43.862 0.111 7.13 4.32 12.4
11/2/2020 1:30:00 PM 6.64 43.952 0.111 7.14 4.16 12.38
11/2/2020 1:45:00 PM 6.68 44.024 0.112 7.14 4.06 12.38
11/2/2020 2:00:00 PM 6.72 44.096 0.111 7.15 4.03 12.36
11/2/2020 2:15:00 PM 6.73 44.114 0.111 7.15 3.99 12.36
11/2/2020 2:30:00 PM 6.73 44.114 0.111 7.14 4.04 12.35
11/2/2020 2:45:00 PM 6.71 44.078 0.111 7.15 4.06 12.35
11/2/2020 3:00:00 PM 6.67 44.006 0.111 7.14 3.96 12.32
11/2/2020 3:15:00 PM 6.63 43.934 0.111 7.14 3.82 12.31
11/2/2020 3:30:00 PM 6.59 43.862 0.111 7.13 3.98 12.29
11/2/2020 3:45:00 PM 6.55 43.79 0.111 7.14 3.98 12.27
11/2/2020 4:00:00 PM 6.53 43.754 0.112 7.12 3.8 12.25
11/2/2020 4:15:00 PM 6.49 43.682 0.112 7.12 3.98 12.21
11/2/2020 4:30:00 PM 6.46 43.628 0.112 7.12 3.87 12.18
11/2/2020 4:45:00 PM 6.43 43.574 0.112 7.11 3.74 12.13
11/2/2020 5:00:00 PM 6.41 43.538 0.112 7.11 3.89 12.11
11/2/2020 5:15:00 PM 6.4 43.52 0.112 7.11 3.75 12.07
11/2/2020 5:30:00 PM 6.39 43.502 0.112 7.09 3.76 12.03
11/2/2020 5:45:00 PM 6.39 43.502 0.112 7.1 4.14 11.99
11/2/2020 6:00:00 PM 6.38 43.484 0.112 7.09 3.88 11.97
11/2/2020 6:15:00 PM 6.37 43.466 0.112 7.08 3.72 11.94
11/2/2020 6:30:00 PM 6.35 43.43 0.112 7.08 3.93 11.92
11/2/2020 6:45:00 PM 6.33 43.394 0.112 7.07 3.94 11.92
11/2/2020 7:00:00 PM 6.31 43.358 0.112 7.06 5.66 11.86
11/2/2020 7:15:00 PM 6.31 43.358 0.112 7.07 4.14 11.88
11/2/2020 7:30:00 PM 6.3 43.34 0.112 7.08 3.91 11.86
11/2/2020 7:45:00 PM 6.29 43.322 0.112 7.05 3.93 11.86
11/2/2020 8:00:00 PM 6.29 43.322 0.112 7.07 3.86 11.83
11/2/2020 8:15:00 PM 6.3 43.34 0.112 7.06 3.89 11.83
11/2/2020 8:30:00 PM 6.3 43.34 0.112 7.07 3.95 11.8
11/2/2020 8:45:00 PM 6.31 43.358 0.112 7.06 3.87 11.78
11/2/2020 9:00:00 PM 6.31 43.358 0.112 7.04 3.86 11.76
11/2/2020 9:15:00 PM 6.31 43.358 0.112 7.06 3.69 11.74
11/2/2020 9:30:00 PM 6.31 43.358 0.112 7.06 3.98 11.73
11/2/2020 9:45:00 PM 6.32 43.376 0.112 7.06 3.95 11.72
11/2/2020 10:00:00 PM 6.32 43.376 0.113 7.02 3.81 11.71
11/2/2020 10:15:00 PM 6.31 43.358 0.112 7.05 4 11.7
11/2/2020 10:30:00 PM 6.29 43.322 0.113 7.04 3.82 11.7
11/2/2020 10:45:00 PM 6.27 43.286 0.113 7.05 3.79 11.7
11/2/2020 11:00:00 PM 6.26 43.268 0.113 7.05 3.89 11.69
11/2/2020 11:15:00 PM 6.25 43.25 0.113 7.05 3.92 11.68
11/2/2020 11:30:00 PM 6.24 43.232 0.113 7.02 3.8 11.68
11/2/2020 11:45:00 PM 6.23 43.214 0.113 7.04 4.33 11.69
11/3/2020 12:00:00 AM 6.21 43.178 0.113 7.01 3.89 11.68
11/3/2020 12:15:00 AM 6.19 43.142 0.113 7.04 3.88 11.68
11/3/2020 12:30:00 AM 6.18 43.124 0.113 7.04 3.89 11.69
11/3/2020 12:45:00 AM 6.17 43.106 0.113 7.02 3.87 11.67
11/3/2020 1:00:00 AM 6.16 43.088 0.113 7.03 3.74 11.68
11/3/2020 1:15:00 AM 6.14 43.052 0.113 7.04 3.74 11.67
11/3/2020 1:30:00 AM 6.13 43.034 0.113 7.04 3.68 11.67
11/3/2020 1:45:00 AM 6.12 43.016 0.113 7.04 3.71 11.68
11/3/2020 2:00:00 AM 6.1 42.98 0.113 7.04 3.67 11.68
11/3/2020 2:15:00 AM 6.09 42.962 0.113 7 3.95 11.68
11/3/2020 2:30:00 AM 6.08 42.944 0.113 7.04 3.67 11.68
11/3/2020 2:45:00 AM 6.06 42.908 0.113 7.03 4.13 11.69
11/3/2020 3:00:00 AM 6.03 42.854 0.113 7.04 3.8 11.7
11/3/2020 3:15:00 AM 6.02 42.836 0.114 7.04 3.94 11.7
11/3/2020 3:30:00 AM 6.01 42.818 0.114 7.04 3.98 11.7
11/3/2020 3:45:00 AM 6 42.8 0.113 7.04 3.69 11.7
11/3/2020 4:00:00 AM 5.98 42.764 0.114 7.04 3.63 11.71
11/3/2020 4:15:00 AM 5.96 42.728 0.114 7.03 3.81 11.71
11/3/2020 4:30:00 AM 5.97 42.746 0.114 7.04 3.87 11.71
11/3/2020 4:45:00 AM 5.97 42.746 0.114 7 3.83 11.71
11/3/2020 5:00:00 AM 5.97 42.746 0.114 7.04 3.71 11.7
11/3/2020 5:15:00 AM 5.97 42.746 0.114 7.03 4.08 11.72
11/3/2020 5:30:00 AM 5.97 42.746 0.114 7.04 3.82 11.73
11/3/2020 5:45:00 AM 5.98 42.764 0.114 7.03 3.71 11.73
11/3/2020 6:00:00 AM 5.98 42.764 0.114 7 3.75 11.73
11/3/2020 6:15:00 AM 5.98 42.764 0.114 7.04 3.61 11.72
11/3/2020 6:30:00 AM 5.98 42.764 0.114 7.04 3.73 11.73
11/3/2020 6:45:00 AM 5.99 42.782 0.114 7.04 3.44 11.73
11/3/2020 7:00:00 AM 6 42.8 0.114 7.02 3.82 11.73
11/3/2020 7:15:00 AM 6 42.8 0.114 7.04 3.64 11.75
11/3/2020 7:30:00 AM 6 42.8 0.114 7.04 3.62 11.76
11/3/2020 7:45:00 AM 6.01 42.818 0.114 7.03 3.56 11.77
11/3/2020 8:00:00 AM 6.02 42.836 0.114 7.04 3.63 11.78
11/3/2020 8:15:00 AM 6.03 42.854 0.114 7.04 3.5 11.79
11/3/2020 8:30:00 AM 6.03 42.854 0.114 7.05 3.49 11.81
11/3/2020 8:45:00 AM 6.04 42.872 0.114 7.04 3.63 11.84
11/3/2020 9:00:00 AM 6.05 42.89 0.114 7.05 3.38 11.86
11/3/2020 9:15:00 AM 6.05 42.89 0.114 7.04 3.64 11.88
11/3/2020 9:30:00 AM 6.06 42.908 0.114 7.06 3.6 11.9
11/3/2020 9:45:00 AM 6.07 42.926 0.114 7.06 3.44 11.94
11/3/2020 10:00:00 AM 6.08 42.944 0.114 7.06 3.49 11.95
11/3/2020 10:15:00 AM 6.09 42.962 0.114 7.07 3.56 12
11/3/2020 10:30:00 AM 6.12 43.016 0.114 7.08 3.36 12.04
11/3/2020 10:45:00 AM 6.14 43.052 0.114 7.08 3.48 12.07
11/3/2020 11:00:00 AM 6.16 43.088 0.114 7.08 3.46 12.09
11/3/2020 11:15:00 AM 6.21 43.178 0.114 7.09 3.5 12.13
11/3/2020 11:30:00 AM 6.31 43.358 0.114 7.1 3.72 12.18
11/3/2020 11:45:00 AM 6.36 43.448 0.114 7.08 3.47 12.21
11/3/2020 12:00:00 PM 6.38 43.484 0.114 7.11 3.45 12.22
11/3/2020 12:15:00 PM 6.4 43.52 0.114 7.11 3.5 12.23
11/3/2020 12:30:00 PM 6.43 43.574 0.114 7.1 3.51 12.25
11/3/2020 12:45:00 PM 6.45 43.61 0.114 7.12 3.29 12.24
11/3/2020 1:00:00 PM 6.47 43.646 0.114 7.08 3.42 12.25
11/3/2020 1:15:00 PM 6.5 43.7 0.114 7.12 3.57 12.26
11/3/2020 1:30:00 PM 6.53 43.754 0.114 7.12 3.6 12.3
11/3/2020 1:45:00 PM 6.57 43.826 0.114 7.13 3.32 12.32
11/3/2020 2:00:00 PM 6.62 43.916 0.114 7.14 3.34 12.33
11/3/2020 2:15:00 PM 6.71 44.078 0.114 7.14 3.51 12.36
11/3/2020 2:30:00 PM 6.76 44.168 0.114 7.1 3.22 12.37
11/3/2020 2:45:00 PM 6.8 44.24 0.114 7.16 3.17 12.41
11/3/2020 3:00:00 PM 6.83 44.294 0.114 7.14 3.31 12.4
11/3/2020 3:15:00 PM 6.86 44.348 0.114 7.16 3.28 12.4
11/3/2020 3:30:00 PM 6.88 44.384 0.114 7.15 3.36 12.38
11/3/2020 3:45:00 PM 6.89 44.402 0.114 7.15 3.17 12.37
11/3/2020 4:00:00 PM 6.89 44.402 0.114 7.15 3.35 12.34
11/3/2020 4:15:00 PM 6.88 44.384 0.114 7.15 3.3 12.32
11/3/2020 4:30:00 PM 6.87 44.366 0.114 7.14 3.33 12.28
11/3/2020 4:45:00 PM 6.83 44.294 0.114 7.13 3.46 12.23
11/3/2020 5:00:00 PM 6.79 44.222 0.114 7.13 3.12 12.18
11/3/2020 5:15:00 PM 6.75 44.15 0.114 7.12 3.09 12.11
11/3/2020 5:30:00 PM 6.73 44.114 0.114 7.11 3.3 12.08
11/3/2020 5:45:00 PM 6.7 44.06 0.114 7.11 3.37 12.03
11/3/2020 6:00:00 PM 6.68 44.024 0.114 7.09 3.17 12.01
11/3/2020 6:15:00 PM 6.66 43.988 0.114 7.11 3.36 11.99
11/3/2020 6:30:00 PM 6.64 43.952 0.114 7.08 3.37 11.96
11/3/2020 6:45:00 PM 6.61 43.898 0.114 7.07 3.27 11.95
11/3/2020 7:00:00 PM 6.59 43.862 0.115 7.07 3.49 11.92
11/3/2020 7:15:00 PM 6.57 43.826 0.115 7.09 3.4 11.91
11/3/2020 7:30:00 PM 6.55 43.79 0.115 7.08 3.35 11.89
11/3/2020 7:45:00 PM 6.52 43.736 0.115 7.08 3.31 11.88
11/3/2020 8:00:00 PM 6.49 43.682 0.115 7.07 3.33 11.88
11/3/2020 8:15:00 PM 6.47 43.646 0.115 7.08 3.43 11.86
11/3/2020 8:30:00 PM 6.44 43.592 0.115 7.02 3.22 11.86
11/3/2020 8:45:00 PM 6.41 43.538 0.115 7.08 3.27 11.86
11/3/2020 9:00:00 PM 6.38 43.484 0.115 7.07 3.36 11.85
11/3/2020 9:15:00 PM 6.35 43.43 0.115 7.06 3.44 11.85
11/3/2020 9:30:00 PM 6.32 43.376 0.115 7.06 3.43 11.83
11/3/2020 9:45:00 PM 6.29 43.322 0.115 7.07 3.37 11.83
11/3/2020 10:00:00 PM 6.26 43.268 0.115 7.05 3.33 11.81
11/3/2020 10:15:00 PM 6.23 43.214 0.115 7.05 3.24 11.82
11/3/2020 10:30:00 PM 6.19 43.142 0.115 7.05 3.53 11.82
11/3/2020 10:45:00 PM 6.16 43.088 0.115 7.05 3.41 11.82
11/3/2020 11:00:00 PM 6.13 43.034 0.115 7.06 3.42 11.82
11/3/2020 11:15:00 PM 6.09 42.962 0.115 7.05 3.39 11.83
11/3/2020 11:30:00 PM 6.06 42.908 0.115 7.03 3.32 11.84
11/3/2020 11:45:00 PM 6.03 42.854 0.115 7.05 3.44 11.83
11/4/2020 12:00:00 AM 5.99 42.782 0.115 7.06 3.33 11.85
11/4/2020 12:15:00 AM 5.96 42.728 0.115 7.04 3.31 11.85
11/4/2020 12:30:00 AM 5.93 42.674 0.115 7.05 3.43 11.85
11/4/2020 12:45:00 AM 5.9 42.62 0.115 7.01 3.34 11.85
11/4/2020 1:00:00 AM 5.87 42.566 0.115 7.05 3.27 11.86
11/4/2020 1:15:00 AM 5.84 42.512 0.115 7.04 3.33 11.87
11/4/2020 1:30:00 AM 5.81 42.458 0.115 7.05 3.51 11.88
11/4/2020 1:45:00 AM 5.79 42.422 0.115 7.04 3.41 11.88
11/4/2020 2:00:00 AM 5.75 42.35 0.115 7.04 3.5 11.9
11/4/2020 2:15:00 AM 5.73 42.314 0.115 7.04 3.31 11.9
11/4/2020 2:30:00 AM 5.71 42.278 0.115 7.04 3.2 11.9
11/4/2020 2:45:00 AM 5.68 42.224 0.115 7.01 3.38 11.91
11/4/2020 3:00:00 AM 5.65 42.17 0.115 7.04 3.51 11.91
11/4/2020 3:15:00 AM 5.63 42.134 0.115 7.04 3.47 11.93
11/4/2020 3:30:00 AM 5.61 42.098 0.116 7.04 3.28 11.93
11/4/2020 3:45:00 AM 5.59 42.062 0.115 7.04 3.34 11.93
11/4/2020 4:00:00 AM 5.56 42.008 0.116 7.03 3.29 11.95
11/4/2020 4:15:00 AM 5.54 41.972 0.116 7.05 3.23 11.96
11/4/2020 4:30:00 AM 5.51 41.918 0.115 7.05 3.32 11.96
11/4/2020 4:45:00 AM 5.49 41.882 0.116 7.03 3.31 11.96
11/4/2020 5:00:00 AM 5.47 41.846 0.116 7.04 3.27 11.98
11/4/2020 5:15:00 AM 5.45 41.81 0.116 7.04 3.1 11.98
11/4/2020 5:30:00 AM 5.43 41.774 0.116 7.04 3.28 11.99
11/4/2020 5:45:00 AM 5.4 41.72 0.116 7.05 3.3 12
11/4/2020 6:00:00 AM 5.38 41.684 0.116 7.04 3.35 12.01
11/4/2020 6:15:00 AM 5.36 41.648 0.116 7.03 3.36 12.01
11/4/2020 6:30:00 AM 5.34 41.612 0.116 7.03 3.55 12.02
11/4/2020 6:45:00 AM 5.32 41.576 0.116 7.02 3.36 12.04
11/4/2020 7:00:00 AM 5.3 41.54 0.116 7.05 3.2 12.06
11/4/2020 7:15:00 AM 5.29 41.522 0.116 7.03 3.3 12.09
11/4/2020 7:30:00 AM 5.3 41.54 0.116 7.03 3.43 12.11
11/4/2020 7:45:00 AM 5.31 41.558 0.116 7.05 3.22 12.16
11/4/2020 8:00:00 AM 5.32 41.576 0.117 7.06 3.32 12.2
11/4/2020 8:15:00 AM 5.34 41.612 0.117 7.07 3.32 12.24
11/4/2020 8:30:00 AM 5.37 41.666 0.116 7.07 3.25 12.28
11/4/2020 8:45:00 AM 5.4 41.72 0.116 7.08 3.25 12.34
11/4/2020 9:00:00 AM 5.46 41.828 0.116 7.07 3.08 12.38
11/4/2020 9:15:00 AM 5.5 41.9 0.116 7.1 3.38 12.42
11/4/2020 9:30:00 AM 5.55 41.99 0.116 7.08 3.31 12.45
11/4/2020 9:45:00 AM 5.64 42.152 0.116 7.11 3.35 12.47
11/4/2020 10:00:00 AM 5.74 42.332 0.116 7.11 3.19 12.5
11/4/2020 10:15:00 AM 5.85 42.53 0.116 7.11 3.16 12.53
11/4/2020 10:30:00 AM 5.99 42.782 0.116 7.11 2.99 12.55
11/4/2020 10:45:00 AM 6.15 43.07 0.116 7.13 3.02 12.56
11/4/2020 11:00:00 AM 6.33 43.394 0.116 7.13 3.19 12.56
11/4/2020 11:15:00 AM 6.5 43.7 0.116 7.14 3.16 12.56
11/4/2020 11:30:00 AM 6.67 44.006 0.116 7.15 3.07 12.58
11/4/2020 11:45:00 AM 6.84 44.312 0.116 7.16 3.13 12.57
11/4/2020 12:00:00 PM 7.01 44.618 0.116 7.14 3.1 12.59
11/4/2020 12:15:00 PM 7.17 44.906 0.116 7.17 3.02 12.57
11/4/2020 12:30:00 PM 7.32 45.176 0.116 7.16 2.91 12.55
11/4/2020 12:45:00 PM 7.46 45.428 0.116 7.17 2.88 12.54
11/4/2020 1:00:00 PM 7.61 45.698 0.116 7.18 2.96 12.53
11/4/2020 1:15:00 PM 7.76 45.968 0.116 7.16 2.91 12.53
11/4/2020 1:30:00 PM 7.9 46.22 0.116 7.18 2.89 12.51
11/4/2020 1:45:00 PM 8.02 46.436 0.116 7.18 2.98 12.48
11/4/2020 2:00:00 PM 8.13 46.634 0.116 7.18 2.98 12.47
11/4/2020 2:15:00 PM 8.21 46.778 0.116 7.19 3.03 12.44
11/4/2020 2:30:00 PM 8.27 46.886 0.116 7.18 3.06 12.42
11/4/2020 2:45:00 PM 8.32 46.976 0.116 7.19 2.93 12.4
11/4/2020 3:00:00 PM 8.36 47.048 0.116 7.18 3.05 12.37
11/4/2020 3:15:00 PM 8.39 47.102 0.116 7.19 3.02 12.33
11/4/2020 3:30:00 PM 8.39 47.102 0.116 7.17 3.04 12.27
11/4/2020 3:45:00 PM 8.38 47.084 0.116 7.18 3.1 12.25
11/4/2020 4:00:00 PM 8.36 47.048 0.116 7.17 3.11 12.19
11/4/2020 4:15:00 PM 8.33 46.994 0.116 7.17 3.18 12.13
11/4/2020 4:30:00 PM 8.3 46.94 0.116 7.14 3.1 12.12
11/4/2020 4:45:00 PM 8.26 46.868 0.116 7.16 2.99 12.05
11/4/2020 5:00:00 PM 8.22 46.796 0.116 7.13 3.01 11.96
11/4/2020 5:15:00 PM 8.19 46.742 0.116 7.14 3.06 11.9
11/4/2020 5:30:00 PM 8.16 46.688 0.116 7.13 3.03 11.82
11/4/2020 5:45:00 PM 8.14 46.652 0.116 7.13 3.27 11.78
11/4/2020 6:00:00 PM 8.13 46.634 0.116 7.11 3.12 11.73
11/4/2020 6:15:00 PM 8.11 46.598 0.116 7.12 3.13 11.68
11/4/2020 6:30:00 PM 8.11 46.598 0.117 7.1 3.11 11.64
11/4/2020 6:45:00 PM 8.1 46.58 0.116 7.11 3.35 11.62
11/4/2020 7:00:00 PM 8.08 46.544 0.116 7.09 3.2 11.57
11/4/2020 7:15:00 PM 8.07 46.526 0.116 7.08 3.17 11.56
11/4/2020 7:30:00 PM 8.06 46.508 0.117 7.09 2.99 11.52
11/4/2020 7:45:00 PM 8.04 46.472 0.117 7.06 3.34 11.48
11/4/2020 8:00:00 PM 8.03 46.454 0.117 7.09 3.12 11.47
11/4/2020 8:15:00 PM 8 46.4 0.117 7.08 3.29 11.47
11/4/2020 8:30:00 PM 7.98 46.364 0.117 7.08 3.14 11.45
11/4/2020 8:45:00 PM 7.96 46.328 0.117 7.08 3.17 11.45
11/4/2020 9:00:00 PM 7.93 46.274 0.117 7.08 3.15 11.42
11/4/2020 9:15:00 PM 7.91 46.238 0.117 7.07 3.06 11.39
11/4/2020 9:30:00 PM 7.89 46.202 0.117 7.07 3.17 11.4
11/4/2020 9:45:00 PM 7.87 46.166 0.117 7.07 3.27 11.38
11/4/2020 10:00:00 PM 7.85 46.13 0.117 7.06 3.13 11.39
11/4/2020 10:15:00 PM 7.83 46.094 0.117 7.07 3.14 11.35
11/4/2020 10:30:00 PM 7.82 46.076 0.117 7.07 3.17 11.37
11/4/2020 10:45:00 PM 7.8 46.04 0.117 7.06 3.39 11.37
11/4/2020 11:00:00 PM 7.79 46.022 0.117 7.07 3.23 11.35
11/4/2020 11:15:00 PM 7.78 46.004 0.117 7.05 4.21 11.32
11/4/2020 11:30:00 PM 7.76 45.968 0.117 7.07 3.28 11.34
11/4/2020 11:45:00 PM 7.75 45.95 0.117 7.06 3.34 11.32
11/5/2020 12:00:00 AM 7.73 45.914 0.117 7.06 3.31 11.32
11/5/2020 12:15:00 AM 7.71 45.878 0.118 7.03 3.28 11.33
11/5/2020 12:30:00 AM 7.7 45.86 0.118 7.04 3.21 11.31
11/5/2020 12:45:00 AM 7.69 45.842 0.118 7.05 3.12 11.29
11/5/2020 1:00:00 AM 7.68 45.824 0.118 7.04 3.18 11.28
11/5/2020 1:15:00 AM 7.66 45.788 0.118 7.05 3.43 11.3
11/5/2020 1:30:00 AM 7.64 45.752 0.118 7.05 3.32 11.28
11/5/2020 1:45:00 AM 7.62 45.716 0.118 7.04 3.2 11.29
11/5/2020 2:00:00 AM 7.59 45.662 0.118 7.05 3.19 11.3
11/5/2020 2:15:00 AM 7.57 45.626 0.118 7.05 3.3 11.3
11/5/2020 2:30:00 AM 7.54 45.572 0.118 7.03 3.24 11.26
11/5/2020 2:45:00 AM 7.52 45.536 0.118 7.03 3.15 11.29
11/5/2020 3:00:00 AM 7.49 45.482 0.118 7.03 3.32 11.3
11/5/2020 3:15:00 AM 7.47 45.446 0.118 7.05 3.02 11.32
11/5/2020 3:30:00 AM 7.45 45.41 0.118 7.05 3.17 11.31
11/5/2020 3:45:00 AM 7.42 45.356 0.118 7.05 3.06 11.31
11/5/2020 4:00:00 AM 7.39 45.302 0.118 7.04 3.21 11.32
11/5/2020 4:15:00 AM 7.37 45.266 0.118 7.04 3.22 11.32
11/5/2020 4:30:00 AM 7.34 45.212 0.118 7.05 3.13 11.32
11/5/2020 4:45:00 AM 7.32 45.176 0.119 7.04 3.26 11.32
11/5/2020 5:00:00 AM 7.31 45.158 0.119 7.04 3.13 11.33
11/5/2020 5:15:00 AM 7.29 45.122 0.119 7.05 3.3 11.33
11/5/2020 5:30:00 AM 7.28 45.104 0.119 7.04 3.19 11.32
11/5/2020 5:45:00 AM 7.27 45.086 0.119 7.05 3.12 11.36
11/5/2020 6:00:00 AM 7.25 45.05 0.119 7.04 3.2 11.36
11/5/2020 6:15:00 AM 7.23 45.014 0.119 7.03 3.2 11.35
11/5/2020 6:30:00 AM 7.21 44.978 0.119 7.05 3.1 11.37
11/5/2020 6:45:00 AM 7.19 44.942 0.119 7.05 3.44 11.38
11/5/2020 7:00:00 AM 7.17 44.906 0.119 7.04 3.11 11.39
11/5/2020 7:15:00 AM 7.14 44.852 0.119 7.02 3.07 11.43
11/5/2020 7:30:00 AM 7.11 44.798 0.119 7.06 3.09 11.45
11/5/2020 7:45:00 AM 7.09 44.762 0.119 7.05 3.04 11.53
11/5/2020 8:00:00 AM 7.09 44.762 0.119 7.05 3.13 11.58
11/5/2020 8:15:00 AM 7.1 44.78 0.119 7.07 2.98 11.63
11/5/2020 8:30:00 AM 7.12 44.816 0.119 7.07 3.07 11.69
11/5/2020 8:45:00 AM 7.15 44.87 0.119 7.09 3.11 11.75
11/5/2020 9:00:00 AM 7.2 44.96 0.119 7.09 3.08 11.81
11/5/2020 9:15:00 AM 7.24 45.032 0.119 7.1 3.14 11.83
11/5/2020 9:30:00 AM 7.28 45.104 0.119 7.11 3.1 11.89
11/5/2020 9:45:00 AM 7.35 45.23 0.119 7.11 3.27 11.95
11/5/2020 10:00:00 AM 7.44 45.392 0.119 7.13 3.09 11.99
11/5/2020 10:15:00 AM 7.54 45.572 0.119 7.12 3.07 12.05
11/5/2020 10:30:00 AM 7.67 45.806 0.119 7.15 3.2 12.07
11/5/2020 10:45:00 AM 7.82 46.076 0.119 7.15 3.05 12.13
11/5/2020 11:00:00 AM 7.97 46.346 0.119 7.17 2.92 12.16
11/5/2020 11:15:00 AM 8.12 46.616 0.118 7.17 2.97 12.19
11/5/2020 11:30:00 AM 8.3 46.94 0.119 7.19 3.02 12.2
11/5/2020 11:45:00 AM 8.47 47.246 0.119 7.19 3.29 12.22
11/5/2020 12:00:00 PM 8.62 47.516 0.119 7.18 3.05 12.23
11/5/2020 12:15:00 PM 8.77 47.786 0.118 7.21 3.06 12.21
11/5/2020 12:30:00 PM 8.92 48.056 0.119 7.2 2.97 12.24
11/5/2020 12:45:00 PM 9.05 48.29 0.119 7.19 3.03 12.23
11/5/2020 1:00:00 PM 9.18 48.524 0.119 7.22 3.03 12.21
11/5/2020 1:15:00 PM 9.3 48.74 0.119 7.22 2.9 12.22
11/5/2020 1:30:00 PM 9.39 48.902 0.119 7.23 2.92 12.2
11/5/2020 1:45:00 PM 9.46 49.028 0.119 7.22 2.95 12.17
11/5/2020 2:00:00 PM 9.52 49.136 0.119 7.23 2.8 12.19
11/5/2020 2:15:00 PM 9.59 49.262 0.119 7.23 2.83 12.21
11/5/2020 2:30:00 PM 9.63 49.334 0.119 7.24 2.85 12.15
11/5/2020 2:45:00 PM 9.66 49.388 0.119 7.23 2.88 12.18
11/5/2020 3:00:00 PM 9.68 49.424 0.119 7.22 2.81 12.14
11/5/2020 3:15:00 PM 9.69 49.442 0.119 7.24 2.97 12.1
11/5/2020 3:30:00 PM 9.68 49.424 0.119 7.24 2.83 12.07
11/5/2020 3:45:00 PM 9.66 49.388 0.119 7.22 2.89 12.04
11/5/2020 4:00:00 PM 9.65 49.37 0.119 7.23 2.88 12
11/5/2020 4:15:00 PM 9.61 49.298 0.119 7.2 2.87 11.89
11/5/2020 4:30:00 PM 9.59 49.262 0.119 7.2 2.91 11.87
11/5/2020 4:45:00 PM 9.56 49.208 0.118 7.2 2.88 11.79
11/5/2020 5:00:00 PM 9.52 49.136 0.119 7.19 2.85 11.7
11/5/2020 5:15:00 PM 9.49 49.082 0.119 7.18 2.99 11.61
11/5/2020 5:30:00 PM 9.47 49.046 0.119 7.16 3.01 11.52
11/5/2020 5:45:00 PM 9.44 48.992 0.118 7.17 2.95 11.44
11/5/2020 6:00:00 PM 9.43 48.974 0.119 7.15 3.16 11.4
11/5/2020 6:15:00 PM 9.42 48.956 0.119 7.15 3.01 11.36
11/5/2020 6:30:00 PM 9.41 48.938 0.119 7.14 3.11 11.32
11/5/2020 6:45:00 PM 9.4 48.92 0.119 7.14 3.05 11.27
11/5/2020 7:00:00 PM 9.38 48.884 0.119 7.11 3.13 11.23
11/5/2020 7:15:00 PM 9.36 48.848 0.119 7.11 3.11 11.19
11/5/2020 7:30:00 PM 9.34 48.812 0.119 7.13 3.1 11.17
11/5/2020 7:45:00 PM 9.33 48.794 0.119 7.11 2.93 11.14
11/5/2020 8:00:00 PM 9.31 48.758 0.119 7.12 2.94 11.12
11/5/2020 8:15:00 PM 9.28 48.704 0.119 7.11 2.99 11.12
11/5/2020 8:30:00 PM 9.26 48.668 0.119 7.11 3.06 11.1
11/5/2020 8:45:00 PM 9.23 48.614 0.119 7.11 2.9 11.09
11/5/2020 9:00:00 PM 9.21 48.578 0.119 7.11 2.9 11.07
11/5/2020 9:15:00 PM 9.18 48.524 0.119 7.09 3.01 11.06
11/5/2020 9:30:00 PM 9.15 48.47 0.119 7.1 2.91 11.04
11/5/2020 9:45:00 PM 9.13 48.434 0.119 7.09 3.1 11.04
11/5/2020 10:00:00 PM 9.1 48.38 0.119 7.09 2.97 11.03
11/5/2020 10:15:00 PM 9.08 48.344 0.119 7.09 3.06 11.02
11/5/2020 10:30:00 PM 9.06 48.308 0.119 7.1 3.09 11
11/5/2020 10:45:00 PM 9.04 48.272 0.119 7.06 3.05 10.98
11/5/2020 11:00:00 PM 9.02 48.236 0.119 7.07 3.06 10.97
11/5/2020 11:15:00 PM 9 48.2 0.119 7.09 3.02 10.96
11/5/2020 11:30:00 PM 8.97 48.146 0.119 7.09 3.01 10.96
11/5/2020 11:45:00 PM 8.95 48.11 0.12 7.08 3.08 10.96
11/6/2020 12:00:00 AM 8.93 48.074 0.12 7.08 3.11 10.95
11/6/2020 12:15:00 AM 8.92 48.056 0.12 7.07 3.03 10.94
11/6/2020 12:30:00 AM 8.92 48.056 0.12 7.08 2.91 10.92
11/6/2020 12:45:00 AM 8.91 48.038 0.12 7.07 3.06 10.93
11/6/2020 1:00:00 AM 8.9 48.02 0.12 7.07 3.08 10.91
11/6/2020 1:15:00 AM 8.89 48.002 0.12 7.07 3.02 10.88
11/6/2020 1:30:00 AM 8.87 47.966 0.12 7.04 3.1 10.9
11/6/2020 1:45:00 AM 8.85 47.93 0.12 7.06 3 10.91
11/6/2020 2:00:00 AM 8.84 47.912 0.12 7.07 3.05 10.91
11/6/2020 2:15:00 AM 8.82 47.876 0.12 7.02 3.92 10.89
11/6/2020 2:30:00 AM 8.81 47.858 0.12 7.05 3.17 10.89
11/6/2020 2:45:00 AM 8.79 47.822 0.12 7.06 3.29 10.9
11/6/2020 3:00:00 AM 8.77 47.786 0.12 7.06 4.01 10.91
11/6/2020 3:15:00 AM 8.74 47.732 0.12 7.05 3.43 10.88
11/6/2020 3:30:00 AM 8.72 47.696 0.12 7.03 3.28 10.92
11/6/2020 3:45:00 AM 8.69 47.642 0.12 7.06 3.05 10.92
11/6/2020 4:00:00 AM 8.66 47.588 0.12 7.06 3.06 10.91
11/6/2020 4:15:00 AM 8.63 47.534 0.12 7.05 3.05 10.9
11/6/2020 4:30:00 AM 8.61 47.498 0.12 7.05 3.18 10.91
11/6/2020 4:45:00 AM 8.57 47.426 0.12 7.05 2.97 10.92
11/6/2020 5:00:00 AM 8.54 47.372 0.12 7.06 3.02 10.93
11/6/2020 5:15:00 AM 8.5 47.3 0.121 7.05 2.97 10.93
11/6/2020 5:30:00 AM 8.47 47.246 0.121 7.05 3.15 10.89
11/6/2020 5:45:00 AM 8.44 47.192 0.121 7.05 2.93 10.95
11/6/2020 6:00:00 AM 8.4 47.12 0.121 7.05 2.98 10.95
11/6/2020 6:15:00 AM 8.38 47.084 0.121 7.06 2.91 10.96
11/6/2020 6:30:00 AM 8.35 47.03 0.121 7.05 2.97 10.95
11/6/2020 6:45:00 AM 8.32 46.976 0.121 7.05 2.98 10.96
11/6/2020 7:00:00 AM 8.3 46.94 0.121 7.05 2.99 11
11/6/2020 7:15:00 AM 8.29 46.922 0.121 7.06 3.16 11.02
11/6/2020 7:30:00 AM 8.27 46.886 0.121 7.07 2.9 11.09
11/6/2020 7:45:00 AM 8.26 46.868 0.121 7.07 3 11.14
11/6/2020 8:00:00 AM 8.26 46.868 0.121 7.09 3.36 11.21
11/6/2020 8:15:00 AM 8.28 46.904 0.121 7.09 2.97 11.24
11/6/2020 8:30:00 AM 8.3 46.94 0.121 7.1 3.24 11.35
11/6/2020 8:45:00 AM 8.34 47.012 0.121 7.07 3.06 11.44
11/6/2020 9:00:00 AM 8.41 47.138 0.121 7.12 2.9 11.49
11/6/2020 9:15:00 AM 8.45 47.21 0.121 7.13 2.88 11.57
11/6/2020 9:30:00 AM 8.5 47.3 0.121 7.14 2.84 11.6
11/6/2020 9:45:00 AM 8.57 47.426 0.121 7.16 3.06 11.66
11/6/2020 10:00:00 AM 8.66 47.588 0.121 7.15 2.99 11.71
11/6/2020 10:15:00 AM 8.77 47.786 0.121 7.16 2.96 11.77
11/6/2020 10:30:00 AM 8.89 48.002 0.121 7.18 3 11.81
11/6/2020 10:45:00 AM 9.04 48.272 0.12 7.18 2.93 11.85
11/6/2020 11:00:00 AM 9.2 48.56 0.12 7.21 2.98 11.92
11/6/2020 11:15:00 AM 9.35 48.83 0.12 7.22 2.91 11.96
11/6/2020 11:30:00 AM 9.5 49.1 0.12 7.23 2.83 11.98
11/6/2020 11:45:00 AM 9.65 49.37 0.12 7.23 2.89 12.01
11/6/2020 12:00:00 PM 9.79 49.622 0.12 7.24 2.88 12
11/6/2020 12:15:00 PM 9.94 49.892 0.12 7.24 2.87 12.01
11/6/2020 12:30:00 PM 10.07 50.126 0.12 7.26 2.91 11.99
11/6/2020 12:45:00 PM 10.2 50.36 0.121 7.26 2.72 12.03
11/6/2020 1:00:00 PM 10.32 50.576 0.121 7.26 2.77 12.02
11/6/2020 1:15:00 PM 10.42 50.756 0.121 7.28 2.84 12.03
11/6/2020 1:30:00 PM 10.52 50.936 0.12 7.27 2.77 12.03
11/6/2020 1:45:00 PM 10.61 51.098 0.121 7.28 2.74 12.02
11/6/2020 2:00:00 PM 10.68 51.224 0.121 7.29 2.96 12.02
11/6/2020 2:15:00 PM 10.72 51.296 0.121 7.28 2.79 12.02
11/6/2020 2:30:00 PM 10.74 51.332 0.121 7.28 2.85 12.01
11/6/2020 2:45:00 PM 10.75 51.35 0.121 7.29 2.87 11.99
11/6/2020 3:00:00 PM 10.76 51.368 0.121 7.29 2.74 11.94
11/6/2020 3:15:00 PM 10.76 51.368 0.121 7.29 2.87 11.93
11/6/2020 3:30:00 PM 10.76 51.368 0.121 7.28 2.78 11.88
11/6/2020 3:45:00 PM 10.74 51.332 0.121 7.28 2.69 11.85
11/6/2020 4:00:00 PM 10.71 51.278 0.121 7.25 2.67 11.75
11/6/2020 4:15:00 PM 10.66 51.188 0.121 7.26 2.68 11.69
11/6/2020 4:30:00 PM 10.6 51.08 0.121 7.24 2.67 11.67
11/6/2020 4:45:00 PM 10.53 50.954 0.121 7.23 2.73 11.6
11/6/2020 5:00:00 PM 10.45 50.81 0.121 7.22 2.66 11.48
11/6/2020 5:15:00 PM 10.38 50.684 0.121 7.19 2.68 11.41
11/6/2020 5:30:00 PM 10.32 50.576 0.121 7.2 2.73 11.33
11/6/2020 5:45:00 PM 10.27 50.486 0.121 7.18 2.69 11.26
11/6/2020 6:00:00 PM 10.22 50.396 0.121 7.17 3.02 11.2
11/6/2020 6:15:00 PM 10.19 50.342 0.121 7.17 2.75 11.15
11/6/2020 6:30:00 PM 10.16 50.288 0.121 7.16 2.79 11.09
11/6/2020 6:45:00 PM 10.13 50.234 0.121 7.16 2.8 11.04
11/6/2020 7:00:00 PM 10.11 50.198 0.121 7.14 2.93 10.99
11/6/2020 7:15:00 PM 10.09 50.162 0.121 7.15 2.8 10.96
11/6/2020 7:30:00 PM 10.07 50.126 0.121 7.13 2.82 10.92
11/6/2020 7:45:00 PM 10.05 50.09 0.122 7.12 2.93 10.89
11/6/2020 8:00:00 PM 10.03 50.054 0.122 7.12 2.8 10.87
11/6/2020 8:15:00 PM 10.01 50.018 0.122 7.12 2.88 10.85
11/6/2020 8:30:00 PM 9.99 49.982 0.122 7.11 2.9 10.78
11/6/2020 8:45:00 PM 9.96 49.928 0.122 7.11 2.97 10.81
11/6/2020 9:00:00 PM 9.92 49.856 0.122 7.08 2.9 10.8
11/6/2020 9:15:00 PM 9.89 49.802 0.122 7.11 2.84 10.79
11/6/2020 9:30:00 PM 9.85 49.73 0.122 7.11 2.89 10.78
11/6/2020 9:45:00 PM 9.81 49.658 0.122 7.1 2.94 10.78
11/6/2020 10:00:00 PM 9.77 49.586 0.122 7.1 2.91 10.77
11/6/2020 10:15:00 PM 9.73 49.514 0.122 7.1 2.94 10.77
11/6/2020 10:30:00 PM 9.68 49.424 0.122 7.1 3.04 10.77
11/6/2020 10:45:00 PM 9.64 49.352 0.122 7.09 2.77 10.73
11/6/2020 11:00:00 PM 9.59 49.262 0.122 7.09 2.91 10.76
11/6/2020 11:15:00 PM 9.54 49.172 0.122 7.07 2.96 10.75
11/6/2020 11:30:00 PM 9.49 49.082 0.122 7.09 3.03 10.75
11/6/2020 11:45:00 PM 9.44 48.992 0.122 7.09 3.03 10.74
11/7/2020 12:00:00 AM 9.4 48.92 0.122 7.08 3.01 10.73
11/7/2020 12:15:00 AM 9.34 48.812 0.122 7.08 2.94 10.74
11/7/2020 12:30:00 AM 9.29 48.722 0.122 7.08 2.89 10.75
11/7/2020 12:45:00 AM 9.25 48.65 0.122 7.08 2.99 10.75
11/7/2020 1:00:00 AM 9.2 48.56 0.122 7.06 3.01 10.76
11/7/2020 1:15:00 AM 9.16 48.488 0.122 7.08 3.78 10.75
11/7/2020 1:30:00 AM 9.12 48.416 0.122 7.07 2.98 10.75
11/7/2020 1:45:00 AM 9.07 48.326 0.122 7.07 2.97 10.76
11/7/2020 2:00:00 AM 9.02 48.236 0.122 7.06 2.97 10.77
11/7/2020 2:15:00 AM 8.98 48.164 0.122 7.08 3.16 10.74
11/7/2020 2:30:00 AM 8.93 48.074 0.122 7.07 2.99 10.75
11/7/2020 2:45:00 AM 8.88 47.984 0.122 7.07 2.97 10.79
11/7/2020 3:00:00 AM 8.83 47.894 0.122 7.05 2.85 10.8
11/7/2020 3:15:00 AM 8.78 47.804 0.123 7.08 2.98 10.81
11/7/2020 3:30:00 AM 8.74 47.732 0.123 7.07 2.99 10.82
11/7/2020 3:45:00 AM 8.7 47.66 0.123 7.04 2.92 10.82
11/7/2020 4:00:00 AM 8.66 47.588 0.123 7.06 2.99 10.82
11/7/2020 4:15:00 AM 8.61 47.498 0.123 7.05 3.05 10.79
11/7/2020 4:30:00 AM 8.57 47.426 0.123 7.08 3.13 10.85
11/7/2020 4:45:00 AM 8.52 47.336 0.123 7.07 2.92 10.87
11/7/2020 5:00:00 AM 8.48 47.264 0.123 7.05 2.97 10.87
11/7/2020 5:15:00 AM 8.44 47.192 0.123 7.07 2.97 10.89
11/7/2020 5:30:00 AM 8.4 47.12 0.123 7.05 2.94 10.91
11/7/2020 5:45:00 AM 8.36 47.048 0.123 7.07 2.99 10.91
11/7/2020 6:00:00 AM 8.32 46.976 0.123 7.04 3 10.9
11/7/2020 6:15:00 AM 8.27 46.886 0.123 7.07 3.04 10.94
11/7/2020 6:30:00 AM 8.24 46.832 0.123 7.07 2.93 10.94
11/7/2020 6:45:00 AM 8.19 46.742 0.123 7.07 2.89 10.93
11/7/2020 7:00:00 AM 8.16 46.688 0.123 7.07 2.92 10.99
11/7/2020 7:15:00 AM 8.14 46.652 0.123 7.06 2.81 11.03
11/7/2020 7:30:00 AM 8.12 46.616 0.123 7.09 2.9 11.08
11/7/2020 7:45:00 AM 8.1 46.58 0.123 7.09 2.82 11.18
11/7/2020 8:00:00 AM 8.1 46.58 0.123 7.1 2.84 11.27
11/7/2020 8:15:00 AM 8.11 46.598 0.123 7.11 2.77 11.33
11/7/2020 8:30:00 AM 8.13 46.634 0.123 7.12 2.86 11.41
11/7/2020 8:45:00 AM 8.16 46.688 0.123 7.13 2.77 11.49
11/7/2020 9:00:00 AM 8.21 46.778 0.123 7.14 2.89 11.57
11/7/2020 9:15:00 AM 8.25 46.85 0.123 7.15 2.82 11.64
11/7/2020 9:30:00 AM 8.3 46.94 0.123 7.17 3.04 11.71
11/7/2020 9:45:00 AM 8.37 47.066 0.123 7.17 2.91 11.79
11/7/2020 10:00:00 AM 8.46 47.228 0.123 7.19 2.89 11.85
11/7/2020 10:15:00 AM 8.57 47.426 0.122 7.2 2.82 11.88
11/7/2020 10:30:00 AM 8.7 47.66 0.122 7.2 2.83 11.94
11/7/2020 10:45:00 AM 8.87 47.966 0.122 7.23 2.96 12
11/7/2020 11:00:00 AM 9.03 48.254 0.122 7.23 2.84 12.04
11/7/2020 11:15:00 AM 9.19 48.542 0.122 7.25 2.99 12.07
11/7/2020 11:30:00 AM 9.35 48.83 0.122 7.26 3 12.1
11/7/2020 11:45:00 AM 9.53 49.154 0.122 7.26 2.8 12.17
11/7/2020 12:00:00 PM 9.69 49.442 0.122 7.27 2.77 12.17
11/7/2020 12:15:00 PM 9.86 49.748 0.122 7.29 2.86 12.19
11/7/2020 12:30:00 PM 10.03 50.054 0.122 7.31 2.85 12.24
11/7/2020 12:45:00 PM 10.19 50.342 0.122 7.31 2.81 12.23
11/7/2020 1:00:00 PM 10.33 50.594 0.122 7.31 2.99 12.19
11/7/2020 1:15:00 PM 10.46 50.828 0.122 7.33 2.76 12.23
11/7/2020 1:30:00 PM 10.57 51.026 0.122 7.34 3.14 12.23
11/7/2020 1:45:00 PM 10.67 51.206 0.122 7.35 2.79 12.24
11/7/2020 2:00:00 PM 10.75 51.35 0.122 7.35 2.77 12.2
11/7/2020 2:15:00 PM 10.8 51.44 0.122 7.36 2.71 12.14
11/7/2020 2:30:00 PM 10.82 51.476 0.122 7.36 2.73 12.21
11/7/2020 2:45:00 PM 10.83 51.494 0.122 7.34 2.83 12.16
11/7/2020 3:00:00 PM 10.84 51.512 0.122 7.35 2.83 12.14
11/7/2020 3:15:00 PM 10.83 51.494 0.122 7.32 2.85 12.09
11/7/2020 3:30:00 PM 10.82 51.476 0.122 7.34 2.73 12.06
11/7/2020 3:45:00 PM 10.81 51.458 0.122 7.34 2.93 12
11/7/2020 4:00:00 PM 10.78 51.404 0.122 7.33 2.8 11.95
11/7/2020 4:15:00 PM 10.73 51.314 0.122 7.29 3.03 11.86
11/7/2020 4:30:00 PM 10.67 51.206 0.122 7.29 2.74 11.79
11/7/2020 4:45:00 PM 10.61 51.098 0.122 7.28 2.82 11.71
11/7/2020 5:00:00 PM 10.53 50.954 0.123 7.26 2.8 11.62
11/7/2020 5:15:00 PM 10.46 50.828 0.122 7.23 2.77 11.52
11/7/2020 5:30:00 PM 10.4 50.72 0.123 7.23 2.73 11.42
11/7/2020 5:45:00 PM 10.34 50.612 0.123 7.2 2.88 11.29
11/7/2020 6:00:00 PM 10.29 50.522 0.123 7.21 2.85 11.26
11/7/2020 6:15:00 PM 10.24 50.432 0.123 7.21 3.19 11.22
11/7/2020 6:30:00 PM 10.21 50.378 0.123 7.17 3.28 11.16
11/7/2020 6:45:00 PM 10.18 50.324 0.123 7.18 2.85 11.08
11/7/2020 7:00:00 PM 10.16 50.288 0.123 7.15 2.84 11.05
11/7/2020 7:15:00 PM 10.14 50.252 0.123 7.17 3.21 10.98
11/7/2020 7:30:00 PM 10.12 50.216 0.123 7.15 2.76 10.97
11/7/2020 7:45:00 PM 10.1 50.18 0.123 7.15 2.81 10.91
11/7/2020 8:00:00 PM 10.08 50.144 0.123 7.14 2.85 10.85
11/7/2020 8:15:00 PM 10.06 50.108 0.123 7.13 2.95 10.87
11/7/2020 8:30:00 PM 10.03 50.054 0.123 7.12 2.89 10.84
11/7/2020 8:45:00 PM 10.01 50.018 0.124 7.13 2.95 10.77
11/7/2020 9:00:00 PM 9.98 49.964 0.124 7.13 2.84 10.8
11/7/2020 9:15:00 PM 9.95 49.91 0.124 7.12 2.97 10.79
11/7/2020 9:30:00 PM 9.92 49.856 0.124 7.12 3 10.76
11/7/2020 9:45:00 PM 9.88 49.784 0.124 7.09 3.07 10.72
11/7/2020 10:00:00 PM 9.85 49.73 0.124 7.11 3.24 10.78
11/7/2020 10:15:00 PM 9.81 49.658 0.124 7.11 3.11 10.75
11/7/2020 10:30:00 PM 9.76 49.568 0.124 7.11 3.15 10.74
11/7/2020 10:45:00 PM 9.72 49.496 0.124 7.11 3.14 10.71
11/7/2020 11:00:00 PM 9.67 49.406 0.124 7.11 3.35 10.73
11/7/2020 11:15:00 PM 9.63 49.334 0.124 7.11 3.05 10.67
11/7/2020 11:30:00 PM 9.57 49.226 0.124 7.11 3.2 10.76
11/7/2020 11:45:00 PM 9.51 49.118 0.124 7.1 3.09 10.74
11/8/2020 12:00:00 AM 9.46 49.028 0.123 7.11 2.91 10.75
11/8/2020 12:15:00 AM 9.41 48.938 0.123 7.1 3.38 10.76
11/8/2020 12:30:00 AM 9.35 48.83 0.123 7.1 3.41 10.73
11/8/2020 12:45:00 AM 9.3 48.74 0.123 7.09 3.08 10.75
11/8/2020 1:00:00 AM 9.24 48.632 0.124 7.1 3.27 10.75
11/8/2020 1:15:00 AM 9.19 48.542 0.124 7.09 3.36 10.7
11/8/2020 1:30:00 AM 9.14 48.452 0.124 7.09 3.08 10.77
11/8/2020 1:45:00 AM 9.08 48.344 0.124 7.07 3.04 10.77
11/8/2020 2:00:00 AM 9.03 48.254 0.124 7.09 3.28 10.77
11/8/2020 2:15:00 AM 8.98 48.164 0.124 7.08 3.26 10.67
11/8/2020 2:30:00 AM 8.92 48.056 0.124 7.09 3.02 10.75
11/8/2020 2:45:00 AM 8.86 47.948 0.124 7.09 3.06 10.79
11/8/2020 3:00:00 AM 8.81 47.858 0.124 7.04 2.91 10.77
11/8/2020 3:15:00 AM 8.76 47.768 0.124 7.08 3.03 10.72
11/8/2020 3:30:00 AM 8.71 47.678 0.124 7.08 2.94 10.79
11/8/2020 3:45:00 AM 8.65 47.57 0.125 7.08 2.93 10.79
11/8/2020 4:00:00 AM 8.6 47.48 0.125 7.08 2.98 10.78
11/8/2020 4:15:00 AM 8.54 47.372 0.125 7.08 3.1 10.83
11/8/2020 4:30:00 AM 8.48 47.264 0.125 7.08 2.97 10.84
11/8/2020 4:45:00 AM 8.42 47.156 0.125 7.07 3.17 10.85
11/8/2020 5:00:00 AM 8.37 47.066 0.125 7.07 3.09 10.8
11/8/2020 5:15:00 AM 8.32 46.976 0.125 7.07 3.06 10.83
11/8/2020 5:30:00 AM 8.27 46.886 0.125 7.06 2.96 10.87
11/8/2020 5:45:00 AM 8.21 46.778 0.125 7.07 2.99 10.9
11/8/2020 6:00:00 AM 8.17 46.706 0.125 7.07 2.94 10.91
11/8/2020 6:15:00 AM 8.11 46.598 0.126 7.07 3.07 10.94
11/8/2020 6:30:00 AM 8.06 46.508 0.126 7.07 2.99 10.9
11/8/2020 6:45:00 AM 8.01 46.418 0.126 7.07 3.2 10.97
11/8/2020 7:00:00 AM 7.97 46.346 0.126 7.07 2.97 10.97
11/8/2020 7:15:00 AM 7.92 46.256 0.126 7.08 3.16 11.05
11/8/2020 7:30:00 AM 7.89 46.202 0.126 7.08 2.96 11.12
11/8/2020 7:45:00 AM 7.86 46.148 0.126 7.1 2.99 11.17
11/8/2020 8:00:00 AM 7.84 46.112 0.126 7.09 3.04 11.3
11/8/2020 8:15:00 AM 7.84 46.112 0.126 7.12 3.23 11.32
11/8/2020 8:30:00 AM 7.85 46.13 0.126 7.11 3.01 11.46
11/8/2020 8:45:00 AM 7.86 46.148 0.125 7.14 2.91 11.57
11/8/2020 9:00:00 AM 7.9 46.22 0.125 7.16 3.27 11.67
11/8/2020 9:15:00 AM 7.94 46.292 0.125 7.15 2.92 11.74
11/8/2020 9:30:00 AM 7.98 46.364 0.125 7.18 3 11.77
11/8/2020 9:45:00 AM 8.04 46.472 0.125 7.17 3.04 11.85
11/8/2020 10:00:00 AM 8.13 46.634 0.125 7.2 3.1 11.96
11/8/2020 10:15:00 AM 8.23 46.814 0.125 7.2 3.12 12.02
11/8/2020 10:30:00 AM 8.35 47.03 0.125 7.2 3.01 12.07
11/8/2020 10:45:00 AM 8.51 47.318 0.124 7.23 3.07 12.13
11/8/2020 11:00:00 AM 8.69 47.642 0.124 7.25 3.05 12.16
11/8/2020 11:15:00 AM 8.85 47.93 0.124 7.25 3.08 12.21
11/8/2020 11:30:00 AM 9.01 48.218 0.124 7.27 2.97 12.21
11/8/2020 11:45:00 AM 9.18 48.524 0.124 7.25 2.95 12.31
11/8/2020 12:00:00 PM 9.34 48.812 0.124 7.29 3.25 12.33
11/8/2020 12:15:00 PM 9.51 49.118 0.124 7.3 3.08 12.36
11/8/2020 12:30:00 PM 9.67 49.406 0.123 7.32 3.39 12.37
11/8/2020 12:45:00 PM 9.82 49.676 0.123 7.32 3.03 12.37
11/8/2020 1:00:00 PM 9.96 49.928 0.123 7.33 3.16 12.3
11/8/2020 1:15:00 PM 10.11 50.198 0.123 7.35 2.97 12.35
11/8/2020 1:30:00 PM 10.24 50.432 0.123 7.35 2.96 12.35
11/8/2020 1:45:00 PM 10.36 50.648 0.123 7.35 3.26 12.38
11/8/2020 2:00:00 PM 10.45 50.81 0.123 7.37 3.14 12.35
11/8/2020 2:15:00 PM 10.51 50.918 0.123 7.37 3.09 12.31
11/8/2020 2:30:00 PM 10.54 50.972 0.123 7.38 2.96 12.33
11/8/2020 2:45:00 PM 10.55 50.99 0.123 7.38 2.9 12.32
11/8/2020 3:00:00 PM 10.56 51.008 0.123 7.38 2.97 12.29
11/8/2020 3:15:00 PM 10.56 51.008 0.123 7.37 2.94 12.16
11/8/2020 3:30:00 PM 10.56 51.008 0.123 7.36 2.91 12.22
11/8/2020 3:45:00 PM 10.55 50.99 0.123 7.35 2.84 12.14
11/8/2020 4:00:00 PM 10.52 50.936 0.123 7.35 2.86 12.1
11/8/2020 4:15:00 PM 10.49 50.882 0.123 7.31 2.89 12.04
11/8/2020 4:30:00 PM 10.43 50.774 0.123 7.32 2.81 11.97
11/8/2020 4:45:00 PM 10.36 50.648 0.123 7.3 2.88 11.88
11/8/2020 5:00:00 PM 10.28 50.504 0.123 7.29 2.9 11.77
11/8/2020 5:15:00 PM 10.2 50.36 0.123 7.26 2.89 11.66
11/8/2020 5:30:00 PM 10.13 50.234 0.123 7.25 2.98 11.58
11/8/2020 5:45:00 PM 10.06 50.108 0.123 7.23 3 11.45
11/8/2020 6:00:00 PM 10 50 0.123 7.22 2.83 11.37
11/8/2020 6:15:00 PM 9.95 49.91 0.123 7.21 3.03 11.31
11/8/2020 6:30:00 PM 9.91 49.838 0.123 7.21 2.98 11.31
11/8/2020 6:45:00 PM 9.86 49.748 0.123 7.19 2.9 11.25
11/8/2020 7:00:00 PM 9.83 49.694 0.123 7.2 2.78 11.21
11/8/2020 7:15:00 PM 9.8 49.64 0.123 7.19 2.96 11.14
11/8/2020 7:30:00 PM 9.77 49.586 0.123 7.18 2.85 11.12
11/8/2020 7:45:00 PM 9.75 49.55 0.124 7.17 2.82 11.03
11/8/2020 8:00:00 PM 9.72 49.496 0.124 7.16 2.99 11.01
11/8/2020 8:15:00 PM 9.7 49.46 0.124 7.17 2.83 11.01
11/8/2020 8:30:00 PM 9.68 49.424 0.124 7.15 2.83 10.98
11/8/2020 8:45:00 PM 9.66 49.388 0.124 7.15 2.82 10.93
11/8/2020 9:00:00 PM 9.63 49.334 0.124 7.15 2.86 10.93
11/8/2020 9:15:00 PM 9.61 49.298 0.124 7.14 3.06 10.9
11/8/2020 9:30:00 PM 9.58 49.244 0.125 7.14 3.05 10.88
11/8/2020 9:45:00 PM 9.55 49.19 0.125 7.13 3.3 10.9
11/8/2020 10:00:00 PM 9.52 49.136 0.125 7.14 3.04 10.88
11/8/2020 10:15:00 PM 9.49 49.082 0.125 7.12 3.13 10.84
11/8/2020 10:30:00 PM 9.44 48.992 0.125 7.13 2.85 10.85
11/8/2020 10:45:00 PM 9.41 48.938 0.125 7.13 2.84 10.85
11/8/2020 11:00:00 PM 9.37 48.866 0.125 7.13 3.03 10.85
11/8/2020 11:15:00 PM 9.33 48.794 0.125 7.11 3.1 10.85
11/8/2020 11:30:00 PM 9.28 48.704 0.125 7.13 2.94 10.86
11/8/2020 11:45:00 PM 9.23 48.614 0.125 7.12 2.9 10.84
11/9/2020 12:00:00 AM 9.19 48.542 0.125 7.1 3 10.84
11/9/2020 12:15:00 AM 9.13 48.434 0.125 7.12 2.89 10.85
11/9/2020 12:30:00 AM 9.08 48.344 0.125 7.11 3.34 10.82
11/9/2020 12:45:00 AM 9.03 48.254 0.125 7.1 3.15 10.84
11/9/2020 1:00:00 AM 8.98 48.164 0.125 7.11 3.03 10.85
11/9/2020 1:15:00 AM 8.93 48.074 0.125 7.11 3.22 10.84
11/9/2020 1:30:00 AM 8.87 47.966 0.125 7.09 3.07 10.85
11/9/2020 1:45:00 AM 8.82 47.876 0.125 7.11 3.34 10.84
11/9/2020 2:00:00 AM 8.77 47.786 0.125 7.1 3.09 10.82
11/9/2020 2:15:00 AM 8.71 47.678 0.125 7.08 2.96 10.85
11/9/2020 2:30:00 AM 8.66 47.588 0.126 7.08 3.18 10.86
11/9/2020 2:45:00 AM 8.61 47.498 0.126 7.1 3.24 10.85
11/9/2020 3:00:00 AM 8.56 47.408 0.126 7.1 3.01 10.87
11/9/2020 3:15:00 AM 8.5 47.3 0.126 7.1 3.12 10.87
11/9/2020 3:30:00 AM 8.45 47.21 0.126 7.1 3.16 10.86
11/9/2020 3:45:00 AM 8.4 47.12 0.126 7.08 3.21 10.89
11/9/2020 4:00:00 AM 8.35 47.03 0.127 7.09 3.27 10.89
11/9/2020 4:15:00 AM 8.3 46.94 0.127 7.09 3.16 10.9
11/9/2020 4:30:00 AM 8.25 46.85 0.127 7.1 2.94 10.9
11/9/2020 4:45:00 AM 8.2 46.76 0.127 7.09 3.12 10.91
11/9/2020 5:00:00 AM 8.14 46.652 0.127 7.09 3.32 10.94
11/9/2020 5:15:00 AM 8.09 46.562 0.127 7.09 3.13 10.95
11/9/2020 5:30:00 AM 8.04 46.472 0.127 7.07 6.75 10.88
11/9/2020 5:45:00 AM 8 46.4 0.127 7.1 4.68 10.96
11/9/2020 6:00:00 AM 7.95 46.31 0.127 7.09 3.86 10.97
11/9/2020 6:15:00 AM 7.9 46.22 0.127 7.09 3.4 10.97
11/9/2020 6:30:00 AM 7.85 46.13 0.127 7.09 3.45 10.99
11/9/2020 6:45:00 AM 7.8 46.04 0.127 7.09 3.64 11.01
11/9/2020 7:00:00 AM 7.76 45.968 0.127 7.09 2.92 11.04
11/9/2020 7:15:00 AM 7.71 45.878 0.127 7.1 2.94 11.09
11/9/2020 7:30:00 AM 7.68 45.824 0.127 7.11 2.92 11.19
11/9/2020 7:45:00 AM 7.65 45.77 0.127 7.12 2.96 11.28
11/9/2020 8:00:00 AM 7.64 45.752 0.127 7.13 2.89 11.38
11/9/2020 8:15:00 AM 7.63 45.734 0.127 7.14 3.06 11.48
11/9/2020 8:30:00 AM 7.63 45.734 0.127 7.15 2.81 11.58
11/9/2020 8:45:00 AM 7.65 45.77 0.127 7.16 3.02 11.66
11/9/2020 9:00:00 AM 7.69 45.842 0.127 7.17 2.88 11.76
11/9/2020 9:15:00 AM 7.72 45.896 0.127 7.17 2.92 11.83
11/9/2020 9:30:00 AM 7.76 45.968 0.127 7.19 2.82 11.9
11/9/2020 9:45:00 AM 7.81 46.058 0.126 7.2 2.85 11.96
11/9/2020 10:00:00 AM 7.89 46.202 0.126 7.2 2.77 12.02
11/9/2020 10:15:00 AM 7.99 46.382 0.126 7.23 2.75 12.08
11/9/2020 10:30:00 AM 8.12 46.616 0.126 7.24 2.8 12.14
11/9/2020 10:45:00 AM 8.28 46.904 0.126 7.25 2.84 12.21
11/9/2020 11:00:00 AM 8.45 47.21 0.126 7.27 2.75 12.28
11/9/2020 11:15:00 AM 8.61 47.498 0.126 7.27 2.82 12.29
11/9/2020 11:30:00 AM 8.77 47.786 0.125 7.28 2.73 12.35
11/9/2020 11:45:00 AM 8.93 48.074 0.125 7.29 2.71 12.39
11/9/2020 12:00:00 PM 9.08 48.344 0.125 7.31 2.79 12.44
11/9/2020 12:15:00 PM 9.25 48.65 0.125 7.32 2.82 12.47
11/9/2020 12:30:00 PM 9.4 48.92 0.125 7.33 2.76 12.45
11/9/2020 12:45:00 PM 9.56 49.208 0.125 7.33 2.87 12.5
11/9/2020 1:00:00 PM 9.72 49.496 0.125 7.36 3.63 12.5
11/9/2020 1:15:00 PM 9.89 49.802 0.125 7.36 2.89 12.5
11/9/2020 1:30:00 PM 10.04 50.072 0.125 7.37 2.74 12.5
11/9/2020 1:45:00 PM 10.18 50.324 0.124 7.37 2.76 12.49
11/9/2020 2:00:00 PM 10.3 50.54 0.124 7.39 2.69 12.49
11/9/2020 2:15:00 PM 10.38 50.684 0.124 7.39 2.75 12.47
11/9/2020 2:30:00 PM 10.43 50.774 0.124 7.38 2.72 12.42
11/9/2020 2:45:00 PM 10.46 50.828 0.124 7.4 2.66 12.42
11/9/2020 3:00:00 PM 10.47 50.846 0.124 7.4 2.73 12.43
11/9/2020 3:15:00 PM 10.49 50.882 0.124 7.39 2.71 12.36
11/9/2020 3:30:00 PM 10.49 50.882 0.124 7.39 2.72 12.3
11/9/2020 3:45:00 PM 10.49 50.882 0.124 7.38 2.67 12.26
11/9/2020 4:00:00 PM 10.49 50.882 0.124 7.38 2.69 12.19
11/9/2020 4:15:00 PM 10.47 50.846 0.124 7.36 2.72 12.11
11/9/2020 4:30:00 PM 10.42 50.756 0.124 7.35 2.6 12.02
11/9/2020 4:45:00 PM 10.37 50.666 0.124 7.34 2.68 11.93
11/9/2020 5:00:00 PM 10.3 50.54 0.125 7.32 2.72 11.82
11/9/2020 5:15:00 PM 10.23 50.414 0.125 7.29 2.67 11.71
11/9/2020 5:30:00 PM 10.15 50.27 0.125 7.28 2.8 11.62
11/9/2020 5:45:00 PM 10.08 50.144 0.125 7.26 2.66 11.53
11/9/2020 6:00:00 PM 10 50 0.125 7.25 2.66 11.44
11/9/2020 6:15:00 PM 9.94 49.892 0.124 7.24 2.65 11.38
11/9/2020 6:30:00 PM 9.88 49.784 0.124 7.23 2.6 11.34
11/9/2020 6:45:00 PM 9.83 49.694 0.125 7.22 2.65 11.29
11/9/2020 7:00:00 PM 9.79 49.622 0.125 7.21 2.71 11.24
11/9/2020 7:15:00 PM 9.76 49.568 0.125 7.21 2.75 11.19
11/9/2020 7:30:00 PM 9.73 49.514 0.125 7.19 2.96 11.12
11/9/2020 7:45:00 PM 9.7 49.46 0.124 7.16 3.79 11.1
11/9/2020 8:00:00 PM 9.68 49.424 0.124 7.18 3.53 11.03
11/9/2020 8:15:00 PM 9.66 49.388 0.124 7.16 3.48 11.01
11/9/2020 8:30:00 PM 9.65 49.37 0.125 7.17 3.66 10.96
11/9/2020 8:45:00 PM 9.63 49.334 0.125 7.16 3.45 10.9
11/9/2020 9:00:00 PM 9.62 49.316 0.125 7.16 3.46 10.9
11/9/2020 9:15:00 PM 9.61 49.298 0.125 7.16 3.48 10.9
11/9/2020 9:30:00 PM 9.59 49.262 0.125 7.15 3.38 10.87
11/9/2020 9:45:00 PM 9.58 49.244 0.125 7.14 3.45 10.87
11/9/2020 10:00:00 PM 9.56 49.208 0.125 7.15 3.43 10.85
11/9/2020 10:15:00 PM 9.55 49.19 0.125 7.13 3.49 10.83
11/9/2020 10:30:00 PM 9.54 49.172 0.125 7.14 3.38 10.83
11/9/2020 10:45:00 PM 9.51 49.118 0.125 7.15 3.32 10.81
11/9/2020 11:00:00 PM 9.49 49.082 0.125 7.13 3.39 10.81
11/9/2020 11:15:00 PM 9.46 49.028 0.125 7.14 3.66 10.79
11/9/2020 11:30:00 PM 9.44 48.992 0.125 7.13 3.35 10.8
11/9/2020 11:45:00 PM 9.41 48.938 0.125 7.13 3.58 10.78
11/10/2020 12:00:00 AM 9.38 48.884 0.125 7.14 3.45 10.77
11/10/2020 12:15:00 AM 9.35 48.83 0.125 7.12 3.8 10.77
11/10/2020 12:30:00 AM 9.31 48.758 0.125 7.13 3.44 10.78
11/10/2020 12:45:00 AM 9.27 48.686 0.125 7.12 3.53 10.77
11/10/2020 1:00:00 AM 9.23 48.614 0.125 7.13 3.44 10.75
11/10/2020 1:15:00 AM 9.19 48.542 0.125 7.11 3.55 10.74
11/10/2020 1:30:00 AM 9.15 48.47 0.125 7.12 3.43 10.75
11/10/2020 1:45:00 AM 9.11 48.398 0.125 7.12 3.45 10.75
11/10/2020 2:00:00 AM 9.07 48.326 0.125 7.12 3.49 10.76
11/10/2020 2:15:00 AM 9.03 48.254 0.125 7.11 3.51 10.74
11/10/2020 2:30:00 AM 8.98 48.164 0.125 7.12 3.56 10.76
11/10/2020 2:45:00 AM 8.94 48.092 0.125 7.12 3.66 10.75
11/10/2020 3:00:00 AM 8.9 48.02 0.125 7.07 3.5 10.74
11/10/2020 3:15:00 AM 8.86 47.948 0.125 7.1 3.51 10.74
11/10/2020 3:30:00 AM 8.82 47.876 0.125 7.1 3.52 10.74
11/10/2020 3:45:00 AM 8.78 47.804 0.126 7.1 3.63 10.74
11/10/2020 4:00:00 AM 8.74 47.732 0.126 7.1 3.55 10.75
11/10/2020 4:15:00 AM 8.69 47.642 0.126 7.11 3.57 10.76
11/10/2020 4:30:00 AM 8.66 47.588 0.126 7.09 3.57 10.75
11/10/2020 4:45:00 AM 8.63 47.534 0.126 7.09 3.63 10.74
11/10/2020 5:00:00 AM 8.59 47.462 0.126 7.09 3.65 10.75
11/10/2020 5:15:00 AM 8.55 47.39 0.126 7.1 3.61 10.75
11/10/2020 5:30:00 AM 8.52 47.336 0.126 7.09 3.57 10.77
11/10/2020 5:45:00 AM 8.49 47.282 0.126 7.09 3.55 10.76
11/10/2020 6:00:00 AM 8.44 47.192 0.126 7.09 3.61 10.79
11/10/2020 6:15:00 AM 8.41 47.138 0.126 7.09 3.57 10.78
11/10/2020 6:30:00 AM 8.37 47.066 0.126 7.09 3.56 10.78
11/10/2020 6:45:00 AM 8.34 47.012 0.126 7.08 3.54 10.8
11/10/2020 7:00:00 AM 8.32 46.976 0.126 7.1 3.52 10.83
11/10/2020 7:15:00 AM 8.3 46.94 0.127 7.09 3.65 10.88
11/10/2020 7:30:00 AM 8.29 46.922 0.126 7.1 3.45 10.96
11/10/2020 7:45:00 AM 8.28 46.904 0.126 7.12 3.59 11.07
11/10/2020 8:00:00 AM 8.3 46.94 0.126 7.13 3.53 11.18
11/10/2020 8:15:00 AM 8.31 46.958 0.126 7.1 3.68 11.26
11/10/2020 8:30:00 AM 8.35 47.03 0.126 7.16 3.52 11.36
11/10/2020 8:45:00 AM 8.39 47.102 0.126 7.16 3.47 11.46
11/10/2020 9:00:00 AM 8.46 47.228 0.126 7.18 3.45 11.51
11/10/2020 9:15:00 AM 8.52 47.336 0.126 7.18 3.59 11.65
11/10/2020 9:30:00 AM 8.57 47.426 0.126 7.19 3.47 11.71
11/10/2020 9:45:00 AM 8.63 47.534 0.126 7.21 3.53 11.76
11/10/2020 10:00:00 AM 8.73 47.714 0.126 7.22 3.48 11.85
11/10/2020 10:15:00 AM 8.85 47.93 0.126 7.22 3.55 11.89
11/10/2020 10:30:00 AM 8.99 48.182 0.125 7.25 3.44 11.94
11/10/2020 10:45:00 AM 9.16 48.488 0.125 7.25 3.46 12.03
11/10/2020 11:00:00 AM 9.35 48.83 0.125 7.28 3.55 12.1
11/10/2020 11:15:00 AM 9.52 49.136 0.125 7.3 3.42 12.15
11/10/2020 11:30:00 AM 9.7 49.46 0.125 7.32 3.52 12.23
11/10/2020 11:45:00 AM 9.87 49.766 0.125 7.33 3.4 12.21
11/10/2020 12:00:00 PM 10.04 50.072 0.124 7.35 3.4 12.27
11/10/2020 12:15:00 PM 10.2 50.36 0.125 7.35 3.6 12.29
11/10/2020 12:30:00 PM 10.34 50.612 0.125 7.37 3.43 12.34
11/10/2020 12:45:00 PM 10.5 50.9 0.124 7.37 3.45 12.32
11/10/2020 1:00:00 PM 10.68 51.224 0.124 7.39 3.48 12.33
11/10/2020 1:15:00 PM 10.86 51.548 0.124 7.4 3.63 12.33
11/10/2020 1:30:00 PM 11.03 51.854 0.124 7.42 3.37 12.3
11/10/2020 1:45:00 PM 11.18 52.124 0.124 7.41 3.38 12.32
11/10/2020 2:00:00 PM 11.3 52.34 0.124 7.43 3.36 12.32
11/10/2020 2:15:00 PM 11.42 52.556 0.124 7.46 3.43 12.32
11/10/2020 2:30:00 PM 11.45 52.61 0.124 7.45 3.29 12.28
11/10/2020 2:45:00 PM 11.51 52.718 0.124 7.45 3.37 12.23
11/10/2020 3:00:00 PM 11.53 52.754 0.124 7.43 4.03 12.19
11/10/2020 3:15:00 PM 11.57 52.826 0.124 7.45 5.21 12.09
11/10/2020 3:30:00 PM 11.6 52.88 0.124 7.41 3.87 12.04
11/10/2020 3:45:00 PM 11.61 52.898 0.124 7.42 3.44 11.95
11/10/2020 4:00:00 PM 11.61 52.898 0.124 7.4 3.39 11.89
11/10/2020 4:15:00 PM 11.6 52.88 0.124 7.39 3.42 11.81
11/10/2020 4:30:00 PM 11.59 52.862 0.124 7.4 3.42 11.74
11/10/2020 4:45:00 PM 11.56 52.808 0.124 7.37 3.48 11.62
11/10/2020 5:00:00 PM 11.51 52.718 0.124 7.34 4.77 11.46
11/10/2020 5:15:00 PM 11.46 52.628 0.124 7.32 3.21 11.38
11/10/2020 5:30:00 PM 11.4 52.52 0.124 7.32 2.86 11.29
11/10/2020 5:45:00 PM 11.33 52.394 0.124 7.29 2.73 11.15
11/10/2020 6:00:00 PM 11.26 52.268 0.124 7.3 2.85 11.09
11/10/2020 6:15:00 PM 11.2 52.16 0.125 7.27 2.65 11.03
11/10/2020 6:30:00 PM 11.14 52.052 0.125 7.25 2.71 10.96
11/10/2020 6:45:00 PM 11.09 51.962 0.124 7.24 2.68 10.94
11/10/2020 7:00:00 PM 11.05 51.89 0.124 7.25 2.72 10.89
11/10/2020 7:15:00 PM 11.01 51.818 0.125 7.21 2.64 10.82
11/10/2020 7:30:00 PM 10.97 51.746 0.125 7.22 2.63 10.78
11/10/2020 7:45:00 PM 10.95 51.71 0.125 7.2 2.57 10.72
11/10/2020 8:00:00 PM 10.93 51.674 0.125 7.21 2.68 10.67
11/10/2020 8:15:00 PM 10.9 51.62 0.125 7.19 2.59 10.6
11/10/2020 8:30:00 PM 10.89 51.602 0.125 7.19 2.58 10.58
11/10/2020 8:45:00 PM 10.89 51.602 0.125 7.18 2.66 10.56
11/10/2020 9:00:00 PM 10.89 51.602 0.125 7.17 2.7 10.53
11/10/2020 9:15:00 PM 10.9 51.62 0.125 7.18 2.87 10.5
11/10/2020 9:30:00 PM 10.91 51.638 0.125 7.15 2.61 10.47
11/10/2020 9:45:00 PM 10.93 51.674 0.125 7.16 2.66 10.45
11/10/2020 10:00:00 PM 10.94 51.692 0.125 7.16 2.6 10.37
11/10/2020 10:15:00 PM 10.95 51.71 0.125 7.16 2.76 10.4
11/10/2020 10:30:00 PM 10.96 51.728 0.125 7.15 2.61 10.37
11/10/2020 10:45:00 PM 10.97 51.746 0.125 7.14 2.55 10.36
11/10/2020 11:00:00 PM 10.98 51.764 0.126 7.15 2.6 10.35
11/10/2020 11:15:00 PM 10.99 51.782 0.126 7.14 2.81 10.31
11/10/2020 11:30:00 PM 10.99 51.782 0.126 7.14 2.67 10.3
11/10/2020 11:45:00 PM 10.99 51.782 0.126 7.14 2.6 10.28
11/11/2020 12:00:00 AM 10.98 51.764 0.126 7.13 2.74 10.27
11/11/2020 12:15:00 AM 10.97 51.746 0.126 7.13 2.67 10.23
11/11/2020 12:30:00 AM 10.96 51.728 0.126 7.13 2.85 10.26
11/11/2020 12:45:00 AM 10.95 51.71 0.126 7.13 2.63 10.22
11/11/2020 1:00:00 AM 10.93 51.674 0.126 7.13 2.63 10.17
11/11/2020 1:15:00 AM 10.92 51.656 0.126 7.13 2.67 10.18
11/11/2020 1:30:00 AM 10.9 51.62 0.126 7.13 2.79 10.19
11/11/2020 1:45:00 AM 10.88 51.584 0.126 7.13 2.71 10.19
11/11/2020 2:00:00 AM 10.87 51.566 0.126 7.12 2.84 10.19
11/11/2020 2:15:00 AM 10.86 51.548 0.126 7.12 2.76 10.15
11/11/2020 2:30:00 AM 10.85 51.53 0.126 7.13 2.75 10.17
11/11/2020 2:45:00 AM 10.84 51.512 0.126 7.12 2.78 10.13
11/11/2020 3:00:00 AM 10.83 51.494 0.126 7.11 2.92 10.14
11/11/2020 3:15:00 AM 10.82 51.476 0.126 7.11 2.74 10.12
11/11/2020 3:30:00 AM 10.81 51.458 0.126 7.11 2.84 10.12
11/11/2020 3:45:00 AM 10.8 51.44 0.126 7.09 2.92 10.1
11/11/2020 4:00:00 AM 10.78 51.404 0.126 7.11 2.73 10.09
11/11/2020 4:15:00 AM 10.77 51.386 0.126 7.1 2.83 10.09
11/11/2020 4:30:00 AM 10.75 51.35 0.127 7.12 2.71 10.1
11/11/2020 4:45:00 AM 10.73 51.314 0.126 7.1 3 10.07
11/11/2020 5:00:00 AM 10.71 51.278 0.127 7.1 2.79 10.08
11/11/2020 5:15:00 AM 10.7 51.26 0.127 7.08 2.9 10.11
11/11/2020 5:30:00 AM 10.68 51.224 0.127 7.1 2.81 10.07
11/11/2020 5:45:00 AM 10.66 51.188 0.127 7.11 2.72 10.09
11/11/2020 6:00:00 AM 10.65 51.17 0.127 7.1 2.81 10.08
11/11/2020 6:15:00 AM 10.63 51.134 0.127 7.1 2.61 10.08
11/11/2020 6:30:00 AM 10.63 51.134 0.127 7.1 2.68 10.08
11/11/2020 6:45:00 AM 10.63 51.134 0.127 7.1 2.69 10.07
11/11/2020 7:00:00 AM 10.63 51.134 0.127 7.1 2.8 10.08
11/11/2020 7:15:00 AM 10.64 51.152 0.127 7.1 2.79 10.11
11/11/2020 7:30:00 AM 10.67 51.206 0.127 7.1 2.83 10.24
11/11/2020 7:45:00 AM 10.7 51.26 0.127 7.13 2.84 10.34
11/11/2020 8:00:00 AM 10.81 51.458 0.127 7.15 2.79 10.57
11/11/2020 8:15:00 AM 10.88 51.584 0.127 7.18 2.8 10.73
11/11/2020 8:30:00 AM 10.9 51.62 0.127 7.18 2.83 10.77
11/11/2020 8:45:00 AM 10.93 51.674 0.127 7.18 2.8 10.75
11/11/2020 9:00:00 AM 10.95 51.71 0.127 7.19 2.63 10.73
11/11/2020 9:15:00 AM 10.97 51.746 0.127 7.18 2.95 10.72
11/11/2020 9:30:00 AM 10.98 51.764 0.127 7.18 4.18 10.71
11/11/2020 9:45:00 AM 11.01 51.818 0.127 7.19 12.66 10.72
11/11/2020 10:00:00 AM 11.03 51.854 0.127 7.2 12.72 10.73
11/11/2020 10:15:00 AM 11.07 51.926 0.127 7.18 19.34 10.74
11/11/2020 10:30:00 AM 11.12 52.016 0.127 7.21 33.41 10.77
11/11/2020 10:45:00 AM 11.16 52.088 0.128 7.21 29.34 10.81
11/11/2020 11:00:00 AM 11.22 52.196 0.127 7.23 25.06 10.88
11/11/2020 11:15:00 AM 11.25 52.25 0.127 7.24 13.46 10.97
11/11/2020 11:30:00 AM 11.29 52.322 0.126 7.25 6.63 11.03
11/11/2020 11:45:00 AM 11.32 52.376 0.126 7.25 10.34 11.07
11/11/2020 12:00:00 PM 11.36 52.448 0.126 7.26 19.82 11.05
11/11/2020 12:15:00 PM 11.39 52.502 0.127 7.25 16.56 11.04
11/11/2020 12:30:00 PM 11.41 52.538 0.126 7.26 11.04 11.05
11/11/2020 12:45:00 PM 11.44 52.592 0.125 7.27 10.44 11.07
11/11/2020 1:00:00 PM 11.47 52.646 0.126 7.28 12.09 11.08
11/11/2020 1:15:00 PM 11.5 52.7 0.126 7.28 15.46 11.09
11/11/2020 1:30:00 PM 11.52 52.736 0.127 7.28 13.45 11.13
11/11/2020 1:45:00 PM 11.55 52.79 0.127 7.3 10.87 11.19
11/11/2020 2:00:00 PM 11.58 52.844 0.128 7.31 8.29 11.18
11/11/2020 2:15:00 PM 11.61 52.898 0.129 7.31 11.48 11.15
11/11/2020 2:30:00 PM 11.63 52.934 0.131 7.29 32.69 11.05
11/11/2020 2:45:00 PM 11.65 52.97 0.132 7.29 22.52 11.02
11/11/2020 3:00:00 PM 11.66 52.988 0.134 7.29 16.97 10.95
11/11/2020 3:15:00 PM 11.66 52.988 0.137 7.28 11.94 10.93
11/11/2020 3:30:00 PM 11.68 53.024 0.139 7.28 7.83 10.87
11/11/2020 3:45:00 PM 11.66 52.988 0.141 7.28 9.86 10.83
11/11/2020 4:00:00 PM 11.61 52.898 0.141 7.27 13.95 10.78
11/11/2020 4:15:00 PM 11.56 52.808 0.142 7.26 12.16 10.7
11/11/2020 4:30:00 PM 11.55 52.79 0.141 7.21 12.87 10.59
11/11/2020 4:45:00 PM 11.55 52.79 0.141 7.23 12.07 10.55
11/11/2020 5:00:00 PM 11.55 52.79 0.142 7.24 10.71 10.54
11/11/2020 5:15:00 PM 11.56 52.808 0.142 7.18 10.77 10.29
11/11/2020 5:30:00 PM 11.59 52.862 0.141 7.19 10.91 9.99
11/11/2020 5:45:00 PM 11.66 52.988 0.138 7.16 10.41 10.24
11/11/2020 6:00:00 PM 11.72 53.096 0.136 7.19 12.57 10.2
11/11/2020 6:15:00 PM 11.79 53.222 0.133 7.21 12.14 10.45
11/11/2020 6:30:00 PM 11.81 53.258 0.131 7.2 11.76 10.2
11/11/2020 6:45:00 PM 11.81 53.258 0.129 7.22 10.54 10.33
11/11/2020 7:00:00 PM 11.8 53.24 0.127 7.2 12.57 10.28
11/11/2020 7:15:00 PM 11.77 53.186 0.125 7.18 13.12 10.21
11/11/2020 7:30:00 PM 11.75 53.15 0.123 7.17 13.82 10.3
11/11/2020 7:45:00 PM 11.74 53.132 0.121 7.17 13.77 10.31
11/11/2020 8:00:00 PM 11.75 53.15 0.12 7.16 16.29 10.3
11/11/2020 8:15:00 PM 11.78 53.204 0.118 7.17 16.4 10.25
11/11/2020 8:30:00 PM 11.82 53.276 0.117 7.15 16.03 10.22
11/11/2020 8:45:00 PM 11.87 53.366 0.116 7.13 14.64 10.17
11/11/2020 9:00:00 PM 11.91 53.438 0.114 7.15 15.6 10.13
11/11/2020 9:15:00 PM 11.93 53.474 0.112 7.15 15.18 10.14
11/11/2020 9:30:00 PM 11.93 53.474 0.11 7.15 14.01 10.21
11/11/2020 9:45:00 PM 11.92 53.456 0.108 7.13 15.53 10.28
11/11/2020 10:00:00 PM 11.91 53.438 0.107 7.14 16.87 10.21
11/11/2020 10:15:00 PM 11.89 53.402 0.105 7.12 15.93 10.12
11/11/2020 10:30:00 PM 11.88 53.384 0.104 7.12 15.11 10.14
11/11/2020 10:45:00 PM 11.85 53.33 0.104 7.08 15.2 10.21
11/11/2020 11:00:00 PM 11.83 53.294 0.104 7.13 15.16 10.29
11/11/2020 11:15:00 PM 11.81 53.258 0.104 7.1 15.98 10.25
11/11/2020 11:30:00 PM 11.79 53.222 0.104 7.11 13.59 10.13
11/11/2020 11:45:00 PM 11.77 53.186 0.103 7.11 15.59 10.27
11/12/2020 12:00:00 AM 11.75 53.15 0.103 7.05 13.33 10.16
11/12/2020 12:15:00 AM 11.73 53.114 0.103 7.09 14.04 10.28
11/12/2020 12:30:00 AM 11.7 53.06 0.103 7.09 13.49 10.26
11/12/2020 12:45:00 AM 11.67 53.006 0.102 7.09 14.66 10.27
11/12/2020 1:00:00 AM 11.64 52.952 0.102 7.09 13.2 10.26
11/12/2020 1:15:00 AM 11.61 52.898 0.102 7.08 12.64 10.25
11/12/2020 1:30:00 AM 11.58 52.844 0.102 7.07 12.35 10.26
11/12/2020 1:45:00 AM 11.55 52.79 0.102 7.08 11.72 10.21
11/12/2020 2:00:00 AM 11.51 52.718 0.102 7.03 11.87 10.26
11/12/2020 2:15:00 AM 11.48 52.664 0.102 7.07 11.85 10.34
11/12/2020 2:30:00 AM 11.44 52.592 0.102 7.07 10.77 10.19
11/12/2020 2:45:00 AM 11.4 52.52 0.101 7.06 10.74 10.2
11/12/2020 3:00:00 AM 11.36 52.448 0.101 7.07 10.99 10.24
11/12/2020 3:15:00 AM 11.32 52.376 0.101 7.05 10.74 10.34
11/12/2020 3:30:00 AM 11.28 52.304 0.101 7.05 10.29 10.23
11/12/2020 3:45:00 AM 11.24 52.232 0.101 7.06 9.75 10.12
11/12/2020 4:00:00 AM 11.19 52.142 0.101 7.06 10.1 10.33
11/12/2020 4:15:00 AM 11.15 52.07 0.101 7.05 9.99 10.25
11/12/2020 4:30:00 AM 11.1 51.98 0.101 7.06 10.25 10.34
11/12/2020 4:45:00 AM 11.05 51.89 0.101 7.04 9.58 10.26
11/12/2020 5:00:00 AM 10.99 51.782 0.101 7.06 9.65 10.41
11/12/2020 5:15:00 AM 10.95 51.71 0.101 7.05 9.47 10.27
11/12/2020 5:30:00 AM 10.9 51.62 0.101 7.05 8.94 10.3
11/12/2020 5:45:00 AM 10.84 51.512 0.101 7.04 8.84 10.38
11/12/2020 6:00:00 AM 10.8 51.44 0.101 7.05 14.37 10.37
11/12/2020 6:15:00 AM 10.75 51.35 0.101 7.04 15.57 10.31
11/12/2020 6:30:00 AM 10.69 51.242 0.101 7.04 8.44 10.4
11/12/2020 6:45:00 AM 10.64 51.152 0.101 7.03 7.84 10.26
11/12/2020 7:00:00 AM 10.58 51.044 0.101 7.04 8.81 10.36
11/12/2020 7:15:00 AM 10.54 50.972 0.102 7.03 9.01 10.32
11/12/2020 7:30:00 AM 10.48 50.864 0.102 7.05 7.81 10.33
11/12/2020 7:45:00 AM 10.43 50.774 0.102 7.04 17.62 10.37
11/12/2020 8:00:00 AM 10.38 50.684 0.101 7.01 9.28 10.45
11/12/2020 8:15:00 AM 10.34 50.612 0.102 7.05 7.85 10.48
11/12/2020 8:30:00 AM 10.31 50.558 0.102 7.05 8.45 10.55
11/12/2020 8:45:00 AM 10.27 50.486 0.102 7.06 7.01 10.57
11/12/2020 9:00:00 AM 10.24 50.432 0.102 7.07 8.69 10.57
11/12/2020 9:15:00 AM 10.2 50.36 0.102 7.07 7.08 10.62
11/12/2020 9:30:00 AM 10.17 50.306 0.102 7.07 6.71 10.68
11/12/2020 9:45:00 AM 10.12 50.216 0.102 7.08 7.59 10.83
11/12/2020 10:00:00 AM 10.09 50.162 0.102 7.08 7.22 10.79
11/12/2020 10:15:00 AM 10.06 50.108 0.102 7.09 6.66 10.85
11/12/2020 10:30:00 AM 10.03 50.054 0.102 7.09 6.28 10.91
11/12/2020 10:45:00 AM 10 50 0.102 7.1 6.24 10.94
11/12/2020 11:00:00 AM 9.97 49.946 0.102 7.1 6.36 10.96
11/12/2020 11:15:00 AM 9.94 49.892 0.102 7.09 6.45 11.03
11/12/2020 11:30:00 AM 9.93 49.874 0.102 7.1 5.99 11.03
11/12/2020 11:45:00 AM 9.9 49.82 0.102 7.12 6.14 11.12
11/12/2020 12:00:00 PM 9.88 49.784 0.102 7.13 5.88 11.08
11/12/2020 12:15:00 PM 9.87 49.766 0.102 7.12 5.64 11.01
11/12/2020 12:30:00 PM 9.86 49.748 0.102 7.12 5.97 11.1
11/12/2020 12:45:00 PM 9.85 49.73 0.102 7.14 5.95 11.28
11/12/2020 1:00:00 PM 9.83 49.694 0.102 7.13 6.6 11.39
11/12/2020 1:15:00 PM 9.83 49.694 0.102 7.17 5.55 11.4
11/12/2020 1:30:00 PM 9.83 49.694 0.102 7.16 5.6 11.38
11/12/2020 1:45:00 PM 9.83 49.694 0.103 7.17 5.17 11.5
11/12/2020 2:00:00 PM 9.82 49.676 0.102 7.2 5.36 11.59
11/12/2020 2:15:00 PM 9.81 49.658 0.102 7.21 5.03 11.62
11/12/2020 2:30:00 PM 9.79 49.622 0.102 7.22 5.16 11.63
11/12/2020 2:45:00 PM 9.77 49.586 0.102 7.22 5.08 11.63
11/12/2020 3:00:00 PM 9.75 49.55 0.103 7.22 5.13 11.63
11/12/2020 3:15:00 PM 9.72 49.496 0.103 7.21 5.37 11.69
11/12/2020 3:30:00 PM 9.7 49.46 0.103 7.21 5.04 11.64
11/12/2020 3:45:00 PM 9.67 49.406 0.103 7.22 4.96 11.64
11/12/2020 4:00:00 PM 9.64 49.352 0.103 7.2 5.52 11.62
11/12/2020 4:15:00 PM 9.6 49.28 0.103 7.2 4.73 11.56
11/12/2020 4:30:00 PM 9.55 49.19 0.103 7.19 4.86 11.52
11/12/2020 4:45:00 PM 9.51 49.118 0.103 7.18 5.07 11.47
11/12/2020 5:00:00 PM 9.47 49.046 0.103 7.17 4.62 11.44
11/12/2020 5:15:00 PM 9.41 48.938 0.103 7.16 4.67 11.39
11/12/2020 5:30:00 PM 9.37 48.866 0.103 7.15 4.72 11.35
11/12/2020 5:45:00 PM 9.31 48.758 0.103 7.13 4.66 11.32
11/12/2020 6:00:00 PM 9.26 48.668 0.103 7.14 4.59 11.27
11/12/2020 6:15:00 PM 9.2 48.56 0.103 7.13 4.74 11.27
11/12/2020 6:30:00 PM 9.14 48.452 0.103 7.11 4.75 11.24
11/12/2020 6:45:00 PM 9.09 48.362 0.103 7.1 4.59 11.25
11/12/2020 7:00:00 PM 9.03 48.254 0.103 7.11 4.25 11.24
11/12/2020 7:15:00 PM 8.97 48.146 0.103 7.07 4.67 11.23
11/12/2020 7:30:00 PM 8.91 48.038 0.103 7.09 4.67 11.23
11/12/2020 7:45:00 PM 8.85 47.93 0.103 7.09 4.51 11.2
11/12/2020 8:00:00 PM 8.8 47.84 0.103 7.1 4.52 11.16
11/12/2020 8:15:00 PM 8.73 47.714 0.103 7.08 4.56 11.18
11/12/2020 8:30:00 PM 8.66 47.588 0.103 7.07 4.34 11.18
11/12/2020 8:45:00 PM 8.6 47.48 0.103 7.08 4.63 11.18
11/12/2020 9:00:00 PM 8.54 47.372 0.103 7.08 4.39 11.18
11/12/2020 9:15:00 PM 8.48 47.264 0.104 7.07 4.49 11.17
11/12/2020 9:30:00 PM 8.42 47.156 0.104 7.06 4.33 11.16
11/12/2020 9:45:00 PM 8.36 47.048 0.104 7.05 4.29 11.18
11/12/2020 10:00:00 PM 8.3 46.94 0.104 7.07 4.21 11.14
11/12/2020 10:15:00 PM 8.24 46.832 0.104 7.07 4.48 11.18
11/12/2020 10:30:00 PM 8.18 46.724 0.104 7.06 4.38 11.2
11/12/2020 10:45:00 PM 8.12 46.616 0.103 7.05 4.48 11.19
11/12/2020 11:00:00 PM 8.06 46.508 0.104 7.06 4.25 11.21
11/12/2020 11:15:00 PM 8 46.4 0.103 7.06 4.26 11.23
11/12/2020 11:30:00 PM 7.94 46.292 0.104 7.06 4.18 11.24
11/12/2020 11:45:00 PM 7.88 46.184 0.104 7.05 4.22 11.24
11/13/2020 12:00:00 AM 7.83 46.094 0.104 7.06 4.29 11.24
11/13/2020 12:15:00 AM 7.77 45.986 0.104 7.04 4.48 11.27
11/13/2020 12:30:00 AM 7.71 45.878 0.104 7.06 4.34 11.28
11/13/2020 12:45:00 AM 7.66 45.788 0.104 7.05 4.35 11.28
11/13/2020 1:00:00 AM 7.62 45.716 0.104 7.06 4.4 11.27
11/13/2020 1:15:00 AM 7.58 45.644 0.104 7.03 4.2 11.28
11/13/2020 1:30:00 AM 7.54 45.572 0.104 7.06 4.51 11.29
11/13/2020 1:45:00 AM 7.49 45.482 0.104 7.05 4.47 11.31
11/13/2020 2:00:00 AM 7.45 45.41 0.105 7.06 4.23 11.31
11/13/2020 2:15:00 AM 7.41 45.338 0.105 7.05 4.14 11.33
11/13/2020 2:30:00 AM 7.37 45.266 0.105 7.05 4.42 11.34
11/13/2020 2:45:00 AM 7.33 45.194 0.105 7.06 4.29 11.35
11/13/2020 3:00:00 AM 7.29 45.122 0.105 7.05 5.04 11.36
11/13/2020 3:15:00 AM 7.25 45.05 0.105 7.05 5.41 11.37
11/13/2020 3:30:00 AM 7.2 44.96 0.105 7.06 4.05 11.38
11/13/2020 3:45:00 AM 7.16 44.888 0.105 7.05 4.69 11.4
11/13/2020 4:00:00 AM 7.13 44.834 0.105 7.05 4.23 11.4
11/13/2020 4:15:00 AM 7.1 44.78 0.105 7.06 4.61 11.41
11/13/2020 4:30:00 AM 7.07 44.726 0.106 7.05 4.08 11.4
11/13/2020 4:45:00 AM 7.04 44.672 0.105 7.04 4.15 11.42
11/13/2020 5:00:00 AM 7.02 44.636 0.105 7.06 4.21 11.44
11/13/2020 5:15:00 AM 7 44.6 0.105 7.06 4.19 11.44
11/13/2020 5:30:00 AM 6.98 44.564 0.105 7.06 3.97 11.46
11/13/2020 5:45:00 AM 6.96 44.528 0.105 7.05 3.91 11.46
11/13/2020 6:00:00 AM 6.94 44.492 0.105 7.05 3.87 11.46
11/13/2020 6:15:00 AM 6.92 44.456 0.106 7.06 3.85 11.48
11/13/2020 6:30:00 AM 6.89 44.402 0.106 7.06 3.74 11.5
11/13/2020 6:45:00 AM 6.87 44.366 0.106 7.06 3.83 11.49
11/13/2020 7:00:00 AM 6.86 44.348 0.106 7.05 4.69 11.5
11/13/2020 7:15:00 AM 6.84 44.312 0.106 7.06 3.78 11.52
11/13/2020 7:30:00 AM 6.83 44.294 0.106 7.05 3.9 11.56
11/13/2020 7:45:00 AM 6.82 44.276 0.106 7.07 4.04 11.57
11/13/2020 8:00:00 AM 6.82 44.276 0.106 7.06 3.91 11.58
11/13/2020 8:15:00 AM 6.81 44.258 0.106 7.06 4.15 11.59
11/13/2020 8:30:00 AM 6.82 44.276 0.106 7.08 3.8 11.71
11/13/2020 8:45:00 AM 6.87 44.366 0.106 7.1 3.67 11.83
11/13/2020 9:00:00 AM 6.91 44.438 0.106 7.11 3.77 11.93
11/13/2020 9:15:00 AM 6.94 44.492 0.106 7.1 3.59 11.98